Darstellungsparameter: Aktuell verwendete Einstellungen:
Skalierung der Graphiken ... ?
xyx+y,   Skalierungsfaktor:      Skalierung: Modus: x, Faktor: 1
Darstellungszeitraum ... ?
Vom - - bis: - -   Zeitraum: 11.08.2010 - 10.09.2010
Min/Max/Avg-Anzeige ... ?
Zeige MMA aktuell
Zeige MMA Monat
Zeige MMA alles
Zeige --A aktuell
Zeige --A Monat
Zeige --A alles
Keine MMA-Anzeige
MMA:
Average (ber die Originaldaten)
MMA-Basis: 23.02.2003 - 30.09.2020
Quicknavigation für Darstellung... ?
Tage:      1T, 2T, 3T, 5T -1T -2T -3T -5T +1T +2T +3T +5T
Wochen: 1W, 2W, 3W -1W -2W -3W +1W +2W +3W
Monate: 1M, 3M, 6M -1M -3M -6M +1M +3M +6M
Jahre:    1J, 3J, 5J, 10J -1J -3J -5J -10J +1J +3J +5J +10J
Nutze für die Darstellung ... ?
Originaldaten oder Mittelwerte auf ...
Stundenbasis Tagesbasis Wochenbasis
Monatsbasis Jahresbasis      Datenbasis: Original-Daten
Darstellen als:
Statistik (Auto) Statistik J:M      Darstellung:
Zur Graphik,    zurück zur Übersicht aller Sensoren.
 
Tabellarische Datenbersicht: ?
 
Sensor: Nr:Datum:Temp:Abs-Feuchte:Windchill:Wind:
Aussen-T/F 1 11-08-2010 00:05:08 21.6 C 9.48 g/m*3 21.6 C 0 km/h
2 11-08-2010 00:17:08 21.5 C 9.62 g/m*3 21.5 C 0 km/h
3 11-08-2010 00:29:08 21.5 C 9.81 g/m*3 21.5 C 0 km/h
4 11-08-2010 00:41:08 21.4 C 9.75 g/m*3 21.4 C 0 km/h
5 11-08-2010 00:53:08 21.3 C 9.69 g/m*3 21.3 C 0 km/h
6 11-08-2010 01:05:08 21.1 C 9.95 g/m*3 21.1 C 0 km/h
7 11-08-2010 01:17:08 20.9 C 10.2 g/m*3 20.9 C 0 km/h
8 11-08-2010 01:29:08 20.6 C 10.56 g/m*3 20.6 C 0 km/h
9 11-08-2010 01:41:08 20.1 C 10.95 g/m*3 20.1 C 0 km/h
10 11-08-2010 01:53:08 20 C 11.06 g/m*3 20 C 0 km/h
11 11-08-2010 02:05:08 19.4 C 11.51 g/m*3 19.4 C 0 km/h
12 11-08-2010 02:17:08 18.5 C 12.02 g/m*3 18.5 C 0 km/h
13 11-08-2010 02:29:08 18.1 C 12.36 g/m*3 18.1 C 0 km/h
14 11-08-2010 02:41:08 18 C 12.59 g/m*3 18 C 0 km/h
15 11-08-2010 02:53:08 17.9 C 12.98 g/m*3 17.9 C 0 km/h
16 11-08-2010 03:05:08 17.7 C 12.98 g/m*3 17.7 C 0 km/h
17 11-08-2010 03:17:08 17.7 C 13.13 g/m*3 17.7 C 0 km/h
18 11-08-2010 03:29:08 17.7 C 13.13 g/m*3 17.7 C 0 km/h
19 11-08-2010 03:41:08 17.5 C 13.12 g/m*3 17.5 C 0 km/h
20 11-08-2010 03:53:08 17.6 C 13.35 g/m*3 17.6 C 0 km/h
21 11-08-2010 04:05:08 17.5 C 13.27 g/m*3 17.5 C 0 km/h
22 11-08-2010 04:17:08 17.6 C 13.5 g/m*3 17.6 C 0 km/h
23 11-08-2010 04:29:09 17.5 C 13.42 g/m*3 17.5 C 0 km/h
24 11-08-2010 04:41:09 17.6 C 13.5 g/m*3 17.6 C 0 km/h
25 11-08-2010 04:53:09 17.4 C 13.34 g/m*3 17.4 C 0 km/h
Sensor: Nr:Datum:Temp:Abs-Feuchte:Windchill:Wind:
Aussen-T/F 26 11-08-2010 05:05:09 17.4 C 13.34 g/m*3 17.4 C 0 km/h
27 11-08-2010 05:17:09 17.5 C 13.27 g/m*3 17.5 C 0 km/h
28 11-08-2010 05:29:09 17.3 C 13.11 g/m*3 17.3 C 0 km/h
29 11-08-2010 05:41:09 17.4 C 13.19 g/m*3 17.4 C 0 km/h
30 11-08-2010 05:53:09 17.5 C 13.27 g/m*3 17.5 C 0 km/h
31 11-08-2010 06:05:09 17.4 C 13.19 g/m*3 17.4 C 0 km/h
32 11-08-2010 06:17:09 17.4 C 13.04 g/m*3 17.4 C 0 km/h
33 11-08-2010 06:29:09 17.4 C 13.04 g/m*3 17.4 C 0 km/h
34 11-08-2010 06:41:02 17.4 C 13.04 g/m*3 17.4 C 0 km/h
35 11-08-2010 06:53:02 17.4 C 12.89 g/m*3 17.4 C 0 km/h
36 11-08-2010 07:05:02 17.4 C 12.89 g/m*3 17.4 C 0 km/h
37 11-08-2010 07:17:02 17.5 C 12.97 g/m*3 17.5 C 0 km/h
38 11-08-2010 07:29:03 17.6 C 13.05 g/m*3 17.6 C 0 km/h
39 11-08-2010 07:41:01 17.7 C 13.13 g/m*3 17.7 C 0 km/h
40 11-08-2010 07:53:02 17.9 C 13.13 g/m*3 17.9 C 0 km/h
41 11-08-2010 08:05:01 18.1 C 13.13 g/m*3 18.1 C 0 km/h
42 11-08-2010 08:17:01 18.6 C 13.53 g/m*3 18.6 C 0 km/h
43 11-08-2010 08:29:01 18.7 C 13.29 g/m*3 18.7 C 0 km/h
44 11-08-2010 08:41:01 18.9 C 12.96 g/m*3 18.9 C 0 km/h
45 11-08-2010 08:53:01 19.1 C 12.13 g/m*3 19.1 C 0 km/h
46 11-08-2010 09:05:01 19.5 C 12.08 g/m*3 19.5 C 0 km/h
47 11-08-2010 09:17:01 19.8 C 11.61 g/m*3 19.8 C 0 km/h
48 11-08-2010 09:29:01 19.7 C 11.55 g/m*3 19.7 C 0 km/h
49 11-08-2010 09:41:01 19.7 C 11.21 g/m*3 19.7 C 0 km/h
50 11-08-2010 09:53:02 19.5 C 11.08 g/m*3 19.5 C 0 km/h
Sensor: Nr:Datum:Temp:Abs-Feuchte:Windchill:Wind:
Aussen-T/F 51 11-08-2010 10:05:02 20 C 11.23 g/m*3 20 C 0 km/h
52 11-08-2010 10:17:02 20.9 C 11.29 g/m*3 20.9 C 0 km/h
53 11-08-2010 10:29:02 21.2 C 10.93 g/m*3 21.2 C 0 km/h
54 11-08-2010 10:41:02 21.1 C 11.06 g/m*3 21.1 C 0 km/h
55 11-08-2010 10:53:01 20.8 C 10.86 g/m*3 20.8 C 0 km/h
56 11-08-2010 11:05:01 20.7 C 11.16 g/m*3 20.7 C 0 km/h
57 11-08-2010 11:17:02 20.4 C 11.14 g/m*3 20.4 C 0 km/h
58 11-08-2010 11:29:02 20.5 C 11.21 g/m*3 20.5 C 0 km/h
59 11-08-2010 11:41:01 20.4 C 11.14 g/m*3 20.4 C 0 km/h
60 11-08-2010 11:53:02 21.1 C 11.24 g/m*3 21.1 C 0 km/h
61 11-08-2010 12:05:01 21.8 C 11.13 g/m*3 21.8 C 0 km/h
62 11-08-2010 12:17:02 22.1 C 11.13 g/m*3 22.1 C 0 km/h
63 11-08-2010 12:29:03 22.5 C 10.99 g/m*3 22.5 C 0 km/h
64 11-08-2010 12:41:01 22.8 C 10.97 g/m*3 22.8 C 0 km/h
65 11-08-2010 12:53:02 23.1 C 10.75 g/m*3 23.1 C 0 km/h
66 11-08-2010 13:05:02 23.5 C 10.79 g/m*3 23.5 C 0 km/h
67 11-08-2010 13:17:02 23.3 C 10.25 g/m*3 23.3 C 0 km/h
68 11-08-2010 13:29:02 24 C 10.44 g/m*3 24 C 0 km/h
69 11-08-2010 13:41:03 24.1 C 10.28 g/m*3 24.1 C 0 km/h
70 11-08-2010 13:53:02 24.1 C 10.06 g/m*3 24.1 C 0 km/h
71 11-08-2010 14:05:02 24.2 C 10.12 g/m*3 24.2 C 0 km/h
72 11-08-2010 14:17:01 24.8 C 10.02 g/m*3 24.8 C 0 km/h
73 11-08-2010 14:29:01 24.2 C 9.68 g/m*3 24.2 C 0 km/h
74 11-08-2010 14:41:02 24.2 C 10.34 g/m*3 24.2 C 0 km/h
75 11-08-2010 14:53:02 24.6 C 10.35 g/m*3 24.6 C 0 km/h
Sensor: Nr:Datum:Temp:Abs-Feuchte:Windchill:Wind:
Aussen-T/F 76 11-08-2010 15:05:01 24.8 C 10.02 g/m*3 24.8 C 0 km/h
77 11-08-2010 15:17:01 25 C 10.13 g/m*3 25 C 0 km/h
78 11-08-2010 15:29:01 25.9 C 10.17 g/m*3 25.9 C 0 km/h
79 11-08-2010 15:41:02 26.6 C 9.57 g/m*3 26.6 C 0 km/h
80 11-08-2010 15:53:02 25.5 C 9.47 g/m*3 25.5 C 0 km/h
81 11-08-2010 16:05:02 25.2 C 9.78 g/m*3 25.2 C 0 km/h
82 11-08-2010 16:17:02 24.3 C 9.96 g/m*3 24.3 C 0 km/h
83 11-08-2010 16:29:02 23.2 C 11.02 g/m*3 23.2 C 0 km/h
84 11-08-2010 16:41:02 20.5 C 13.35 g/m*3 20.5 C 0 km/h
85 11-08-2010 16:53:02 21.2 C 14.64 g/m*3 21.2 C 0 km/h
86 11-08-2010 17:05:02 21.6 C 14.41 g/m*3 21.6 C 0 km/h
87 11-08-2010 17:17:02 21.6 C 14.41 g/m*3 21.6 C 0 km/h
88 11-08-2010 17:29:02 22.1 C 14.05 g/m*3 22.1 C 0 km/h
89 11-08-2010 17:41:02 21.3 C 12.86 g/m*3 21.3 C 0 km/h
90 11-08-2010 17:53:02 22.1 C 14.25 g/m*3 22.1 C 0 km/h
91 11-08-2010 18:05:02 22.5 C 14.18 g/m*3 22.5 C 0 km/h
92 11-08-2010 18:17:03 22.9 C 14.71 g/m*3 22.9 C 0 km/h
93 11-08-2010 18:29:03 23.3 C 14.43 g/m*3 23.3 C 0 km/h
94 11-08-2010 18:41:02 23 C 13.98 g/m*3 23 C 0 km/h
95 11-08-2010 18:53:03 22.6 C 14.26 g/m*3 22.6 C 0 km/h
96 11-08-2010 19:05:02 21.9 C 13.89 g/m*3 21.9 C 0 km/h
97 11-08-2010 19:17:02 21.5 C 13.77 g/m*3 21.5 C 0 km/h
98 11-08-2010 19:29:02 21.2 C 13.71 g/m*3 21.2 C 0 km/h
99 11-08-2010 19:41:02 21 C 13.56 g/m*3 21 C 0 km/h
100 11-08-2010 19:53:02 20.8 C 13.58 g/m*3 20.8 C 0 km/h
Sensor: Nr:Datum:Temp:Abs-Feuchte:Windchill:Wind:
Aussen-T/F 101 11-08-2010 20:05:01 20.4 C 13.27 g/m*3 20.4 C 0 km/h
102 11-08-2010 20:17:02 20 C 13.31 g/m*3 20 C 0 km/h
103 11-08-2010 20:29:02 19.8 C 13.66 g/m*3 19.8 C 0 km/h
104 11-08-2010 20:41:02 18.9 C 13.61 g/m*3 18.9 C 0 km/h
105 11-08-2010 20:53:01 18.7 C 13.93 g/m*3 18.7 C 0 km/h
106 11-08-2010 21:05:02 19 C 14.34 g/m*3 19 C 0 km/h
107 11-08-2010 21:17:01 18.9 C 14.42 g/m*3 18.9 C 0 km/h
108 11-08-2010 21:29:01 18.9 C 14.42 g/m*3 18.9 C 0 km/h
109 11-08-2010 21:41:02 18.9 C 14.58 g/m*3 18.9 C 0 km/h
110 11-08-2010 21:53:01 18.5 C 14.24 g/m*3 18.5 C 0 km/h
111 11-08-2010 22:05:02 18.5 C 14.24 g/m*3 18.5 C 0 km/h
112 11-08-2010 22:18:01 18.6 C 14.48 g/m*3 18.6 C 0 km/h
113 11-08-2010 22:30:01 18.5 C 14.4 g/m*3 18.5 C 0 km/h
114 11-08-2010 22:42:01 18.4 C 14.31 g/m*3 18.4 C 0 km/h
115 11-08-2010 22:54:01 18.4 C 14.47 g/m*3 18.4 C 0 km/h
116 11-08-2010 23:06:01 18.4 C 14.47 g/m*3 18.4 C 0 km/h
117 11-08-2010 23:18:02 18.4 C 14.47 g/m*3 18.4 C 0 km/h
118 11-08-2010 23:30:02 18.3 C 14.38 g/m*3 18.3 C 0 km/h
119 11-08-2010 23:42:02 18.3 C 14.38 g/m*3 18.3 C 0 km/h
120 11-08-2010 23:54:02 18.1 C 14.21 g/m*3 18.1 C 0 km/h
121 12-08-2010 00:06:02 18.2 C 14.46 g/m*3 18.2 C 0 km/h
122 12-08-2010 00:18:02 18 C 14.28 g/m*3 18 C 0 km/h
123 12-08-2010 00:30:02 17.8 C 14.27 g/m*3 17.8 C 0 km/h
124 12-08-2010 00:42:02 17.7 C 14.18 g/m*3 17.7 C 0 km/h
125 12-08-2010 00:54:02 17.7 C 14.18 g/m*3 17.7 C 0 km/h
Sensor: Nr:Datum:Temp:Abs-Feuchte:Windchill:Wind:
Aussen-T/F 126 12-08-2010 01:06:02 17.6 C 14.1 g/m*3 17.6 C 0 km/h
127 12-08-2010 01:18:02 17.5 C 14.01 g/m*3 17.5 C 0 km/h
128 12-08-2010 01:30:02 17.5 C 14.01 g/m*3 17.5 C 0 km/h
129 12-08-2010 01:42:02 17.5 C 14.01 g/m*3 17.5 C 0 km/h
130 12-08-2010 01:54:02 17.5 C 14.01 g/m*3 17.5 C 0 km/h
131 12-08-2010 02:06:02 17.4 C 13.93 g/m*3 17.4 C 0 km/h
132 12-08-2010 02:18:02 17.2 C 13.77 g/m*3 17.2 C 0 km/h
133 12-08-2010 02:30:02 17.1 C 13.68 g/m*3 17.1 C 0 km/h
134 12-08-2010 02:42:02 17 C 13.6 g/m*3 17 C 0 km/h
135 12-08-2010 02:54:02 17.1 C 13.68 g/m*3 17.1 C 0 km/h
136 12-08-2010 03:06:02 17.1 C 13.68 g/m*3 17.1 C 0 km/h
137 12-08-2010 03:18:02 17.1 C 13.68 g/m*3 17.1 C 0 km/h
138 12-08-2010 03:30:03 16.9 C 13.52 g/m*3 16.9 C 0 km/h
139 12-08-2010 03:42:03 16.7 C 13.36 g/m*3 16.7 C 0 km/h
140 12-08-2010 03:54:03 16.5 C 13.2 g/m*3 16.5 C 0 km/h
141 12-08-2010 04:06:03 16.4 C 13.12 g/m*3 16.4 C 0 km/h
142 12-08-2010 04:18:03 16.3 C 13.04 g/m*3 16.3 C 0 km/h
143 12-08-2010 04:30:03 16.4 C 13.12 g/m*3 16.4 C 0 km/h
144 12-08-2010 04:42:03 16.6 C 13.42 g/m*3 16.6 C 0 km/h
145 12-08-2010 04:54:03 16.6 C 13.42 g/m*3 16.6 C 0 km/h
146 12-08-2010 05:06:03 16.7 C 13.5 g/m*3 16.7 C 0 km/h
147 12-08-2010 05:18:03 16.4 C 13.26 g/m*3 16.4 C 0 km/h
148 12-08-2010 05:30:03 16.4 C 13.12 g/m*3 16.4 C 0 km/h
149 12-08-2010 05:42:03 16.4 C 13.26 g/m*3 16.4 C 0 km/h
150 12-08-2010 05:54:03 16.5 C 13.34 g/m*3 16.5 C 0 km/h
Sensor: Nr:Datum:Temp:Abs-Feuchte:Windchill:Wind:
Aussen-T/F 151 12-08-2010 06:06:03 16.6 C 13.42 g/m*3 16.6 C 0 km/h
152 12-08-2010 06:18:03 16.7 C 13.5 g/m*3 16.7 C 0 km/h
153 12-08-2010 06:30:03 16.7 C 13.5 g/m*3 16.7 C 0 km/h
154 12-08-2010 06:42:03 16.8 C 13.58 g/m*3 16.8 C 0 km/h
155 12-08-2010 06:54:03 16.8 C 13.58 g/m*3 16.8 C 0 km/h
156 12-08-2010 07:06:02 16.8 C 13.58 g/m*3 16.8 C 0 km/h
157 12-08-2010 07:18:01 16.8 C 13.58 g/m*3 16.8 C 0 km/h
158 12-08-2010 07:30:01 16.9 C 13.66 g/m*3 16.9 C 0 km/h
159 12-08-2010 07:42:02 16.9 C 13.66 g/m*3 16.9 C 0 km/h
160 12-08-2010 07:54:01 16.9 C 13.52 g/m*3 16.9 C 0 km/h
161 12-08-2010 08:06:02 16.9 C 13.52 g/m*3 16.9 C 0 km/h
162 12-08-2010 08:18:01 16.6 C 13 g/m*3 16.6 C 0 km/h
163 12-08-2010 08:30:01 16.5 C 12.64 g/m*3 16.5 C 0 km/h
164 12-08-2010 08:42:02 16.4 C 12.42 g/m*3 16.4 C 0 km/h
165 12-08-2010 08:54:01 16.8 C 12.87 g/m*3 16.8 C 0 km/h
166 12-08-2010 09:06:02 17.4 C 13.34 g/m*3 17.4 C 0 km/h
167 12-08-2010 09:18:02 17.7 C 13.58 g/m*3 17.7 C 0 km/h
168 12-08-2010 09:30:02 17.8 C 13.66 g/m*3 17.8 C 0 km/h
169 12-08-2010 09:42:01 17.8 C 13.51 g/m*3 17.8 C 0 km/h
170 12-08-2010 09:54:02 17.9 C 13.13 g/m*3 17.9 C 0 km/h
171 12-08-2010 10:06:01 18.4 C 12.74 g/m*3 18.4 C 0 km/h
172 12-08-2010 10:18:01 18.7 C 12.49 g/m*3 18.7 C 0 km/h
173 12-08-2010 10:30:01 18.6 C 11.78 g/m*3 18.6 C 0 km/h
174 12-08-2010 10:42:01 18.6 C 11.94 g/m*3 18.6 C 0 km/h
175 12-08-2010 10:54:02 18.6 C 12.26 g/m*3 18.6 C 0 km/h
Sensor: Nr:Datum:Temp:Abs-Feuchte:Windchill:Wind:
Aussen-T/F 176 12-08-2010 11:06:01 18.5 C 12.5 g/m*3 18.5 C 0 km/h
177 12-08-2010 11:18:02 18.7 C 12.49 g/m*3 18.7 C 0 km/h
178 12-08-2010 11:30:02 18.5 C 12.02 g/m*3 18.5 C 0 km/h
179 12-08-2010 11:42:02 18.8 C 11.92 g/m*3 18.8 C 0 km/h
180 12-08-2010 11:54:01 18.6 C 11.94 g/m*3 18.6 C 0 km/h
181 12-08-2010 12:06:02 19.1 C 11.64 g/m*3 19.1 C 0 km/h
182 12-08-2010 12:18:01 18.7 C 11.21 g/m*3 18.7 C 0 km/h
183 12-08-2010 12:30:01 19.9 C 11.68 g/m*3 19.9 C 0 km/h
184 12-08-2010 12:42:01 19.9 C 10.82 g/m*3 19.9 C 0 km/h
185 12-08-2010 12:54:01 20.2 C 10.84 g/m*3 20.2 C 0 km/h
186 12-08-2010 13:06:02 19.8 C 10.25 g/m*3 19.8 C 0 km/h
187 12-08-2010 13:18:01 20.4 C 10.44 g/m*3 20.4 C 0 km/h
188 12-08-2010 13:30:01 21.2 C 9.45 g/m*3 21.2 C 0 km/h
189 12-08-2010 13:42:02 20.2 C 8.57 g/m*3 20.2 C 0 km/h
190 12-08-2010 13:54:01 19.7 C 9.17 g/m*3 19.7 C 0 km/h
191 12-08-2010 14:06:02 19.6 C 9.28 g/m*3 19.6 C 0 km/h
192 12-08-2010 14:18:02 20 C 9.51 g/m*3 20 C 0 km/h
193 12-08-2010 14:30:02 20.3 C 9.32 g/m*3 20.3 C 0 km/h
194 12-08-2010 14:42:01 20.8 C 8.51 g/m*3 20.8 C 0 km/h
195 12-08-2010 14:54:02 20.8 C 8.51 g/m*3 20.8 C 0 km/h
196 12-08-2010 15:06:01 22 C 8.73 g/m*3 22 C 0 km/h
197 12-08-2010 15:18:02 23.6 C 8.93 g/m*3 23.6 C 0 km/h
198 12-08-2010 15:30:02 23.9 C 8.44 g/m*3 23.9 C 0 km/h
199 12-08-2010 15:42:01 22.7 C 7.88 g/m*3 22.7 C 0 km/h
200 12-08-2010 15:54:02 22.9 C 7.97 g/m*3 22.9 C 0 km/h
Sensor: Nr:Datum:Temp:Abs-Feuchte:Windchill:Wind:
Aussen-T/F 201 12-08-2010 16:06:02 22.4 C 7.15 g/m*3 22.4 C 0 km/h
202 12-08-2010 16:18:02 22.2 C 7.26 g/m*3 22.2 C 0 km/h
203 12-08-2010 16:30:02 22.1 C 6.83 g/m*3 22.1 C 0 km/h
204 12-08-2010 16:42:02 22.9 C 7.15 g/m*3 22.9 C 0 km/h
205 12-08-2010 16:54:02 23.2 C 7.28 g/m*3 23.2 C 0 km/h
206 12-08-2010 17:06:02 24.2 C 6.6 g/m*3 24.2 C 0 km/h
207 12-08-2010 17:18:01 24.7 C 6.56 g/m*3 24.7 C 0 km/h
208 12-08-2010 17:30:01 25.9 C 6.05 g/m*3 25.9 C 0 km/h
209 12-08-2010 17:42:02 26.2 C 5.17 g/m*3 26.2 C 0 km/h
210 12-08-2010 17:54:02 26.1 C 4.9 g/m*3 26.1 C 0 km/h
211 12-08-2010 18:06:02 24.6 C 4.95 g/m*3 24.6 C 0 km/h
212 12-08-2010 18:18:01 23.6 C 5.32 g/m*3 23.6 C 0 km/h
213 12-08-2010 18:30:01 23.3 C 6.9 g/m*3 23.3 C 0 km/h
214 12-08-2010 18:42:02 22.9 C 7.97 g/m*3 22.9 C 0 km/h
215 12-08-2010 18:54:02 22.1 C 7.81 g/m*3 22.1 C 0 km/h
216 12-08-2010 19:06:02 21.5 C 8.11 g/m*3 21.5 C 0 km/h
217 12-08-2010 19:18:02 21.6 C 7.97 g/m*3 21.6 C 0 km/h
218 12-08-2010 19:30:02 22.1 C 8 g/m*3 22.1 C 0 km/h
219 12-08-2010 19:42:02 21.8 C 8.25 g/m*3 21.8 C 0 km/h
220 12-08-2010 19:54:02 21.4 C 8.81 g/m*3 21.4 C 0 km/h
221 12-08-2010 20:06:02 21.6 C 8.35 g/m*3 21.6 C 0 km/h
222 12-08-2010 20:18:02 20.8 C 8.51 g/m*3 20.8 C 0 km/h
223 12-08-2010 20:30:02 19.9 C 8.42 g/m*3 19.9 C 0 km/h
224 12-08-2010 20:42:02 19.2 C 8.41 g/m*3 19.2 C 0 km/h
225 12-08-2010 20:54:02 19 C 8.47 g/m*3 19 C 0 km/h
Sensor: Nr:Datum:Temp:Abs-Feuchte:Windchill:Wind:
Aussen-T/F 226 12-08-2010 21:06:02 19.2 C 8.74 g/m*3 19.2 C 0 km/h
227 12-08-2010 21:18:02 19.1 C 8.2 g/m*3 19.1 C 0 km/h
228 12-08-2010 21:30:03 19.2 C 7.75 g/m*3 19.2 C 0 km/h
229 12-08-2010 21:42:01 19.1 C 7.7 g/m*3 19.1 C 0 km/h
230 12-08-2010 21:54:02 19.1 C 7.54 g/m*3 19.1 C 0 km/h
231 12-08-2010 22:06:02 18.9 C 8.1 g/m*3 18.9 C 0 km/h
232 12-08-2010 22:19:02 18.5 C 8.54 g/m*3 18.5 C 0 km/h
233 12-08-2010 22:31:02 18.4 C 8.49 g/m*3 18.4 C 0 km/h
234 12-08-2010 22:43:02 18.3 C 8.76 g/m*3 18.3 C 0 km/h
235 12-08-2010 22:55:02 18.1 C 8.96 g/m*3 18.1 C 0 km/h
236 12-08-2010 23:07:02 17.7 C 8.9 g/m*3 17.7 C 0 km/h
237 12-08-2010 23:19:03 17.5 C 9.09 g/m*3 17.5 C 0 km/h
238 12-08-2010 23:31:03 17.5 C 9.24 g/m*3 17.5 C 0 km/h
239 12-08-2010 23:43:03 17.2 C 9.37 g/m*3 17.2 C 0 km/h
240 12-08-2010 23:55:03 16.8 C 9.29 g/m*3 16.8 C 0 km/h
241 13-08-2010 00:07:03 16.7 C 9.38 g/m*3 16.7 C 0 km/h
242 13-08-2010 00:19:03 16.9 C 9.49 g/m*3 16.9 C 0 km/h
243 13-08-2010 00:31:03 17 C 9.26 g/m*3 17 C 0 km/h
244 13-08-2010 00:43:03 16.9 C 9.49 g/m*3 16.9 C 0 km/h
245 13-08-2010 00:55:03 16.6 C 9.46 g/m*3 16.6 C 0 km/h
246 13-08-2010 01:07:03 16.4 C 9.35 g/m*3 16.4 C 0 km/h
247 13-08-2010 01:19:03 16.2 C 9.1 g/m*3 16.2 C 0 km/h
248 13-08-2010 01:31:03 16.2 C 9.24 g/m*3 16.2 C 0 km/h
249 13-08-2010 01:43:03 16 C 9.26 g/m*3 16 C 0 km/h
250 13-08-2010 01:55:03 16.1 C 9.32 g/m*3 16.1 C 0 km/h
Sensor: Nr:Datum:Temp:Abs-Feuchte:Windchill:Wind:
Aussen-T/F 251 13-08-2010 02:07:03 16.1 C 9.46 g/m*3 16.1 C 0 km/h
252 13-08-2010 02:19:03 15.9 C 9.62 g/m*3 15.9 C 0 km/h
253 13-08-2010 02:31:03 15.8 C 9.69 g/m*3 15.8 C 0 km/h
254 13-08-2010 02:43:03 15.8 C 9.83 g/m*3 15.8 C 0 km/h
255 13-08-2010 02:55:03 15.5 C 9.78 g/m*3 15.5 C 0 km/h
256 13-08-2010 03:07:03 15.5 C 9.78 g/m*3 15.5 C 0 km/h
257 13-08-2010 03:19:03 15.3 C 9.66 g/m*3 15.3 C 0 km/h
258 13-08-2010 03:31:03 15.3 C 9.79 g/m*3 15.3 C 0 km/h
259 13-08-2010 03:43:04 15.3 C 9.92 g/m*3 15.3 C 0 km/h
260 13-08-2010 03:55:04 15.3 C 10.06 g/m*3 15.3 C 0 km/h
261 13-08-2010 04:07:04 15.2 C 9.99 g/m*3 15.2 C 0 km/h
262 13-08-2010 04:19:04 15.1 C 9.93 g/m*3 15.1 C 0 km/h
263 13-08-2010 04:31:04 15 C 10 g/m*3 15 C 0 km/h
264 13-08-2010 04:43:04 15 C 10 g/m*3 15 C 0 km/h
265 13-08-2010 04:55:04 14.9 C 10.07 g/m*3 14.9 C 0 km/h
266 13-08-2010 05:07:04 14.8 C 10.01 g/m*3 14.8 C 0 km/h
267 13-08-2010 05:19:04 14.8 C 10.01 g/m*3 14.8 C 0 km/h
268 13-08-2010 05:31:04 14.8 C 10.01 g/m*3 14.8 C 0 km/h
269 13-08-2010 05:43:04 14.7 C 9.95 g/m*3 14.7 C 0 km/h
270 13-08-2010 05:55:04 14.7 C 9.95 g/m*3 14.7 C 0 km/h
271 13-08-2010 06:07:04 14.7 C 9.95 g/m*3 14.7 C 0 km/h
272 13-08-2010 06:19:04 14.7 C 10.07 g/m*3 14.7 C 0 km/h
273 13-08-2010 06:31:04 14.7 C 10.07 g/m*3 14.7 C 0 km/h
274 13-08-2010 06:43:04 14.7 C 10.07 g/m*3 14.7 C 0 km/h
275 13-08-2010 06:55:02 14.7 C 10.07 g/m*3 14.7 C 0 km/h
Sensor: Nr:Datum:Temp:Abs-Feuchte:Windchill:Wind:
Aussen-T/F 276 13-08-2010 07:07:02 14.8 C 10.13 g/m*3 14.8 C 0 km/h
277 13-08-2010 07:19:02 15 C 10.13 g/m*3 15 C 0 km/h
278 13-08-2010 07:31:02 15 C 10.13 g/m*3 15 C 0 km/h
279 13-08-2010 07:43:02 15.2 C 10.12 g/m*3 15.2 C 0 km/h
280 13-08-2010 07:55:02 15.1 C 10.06 g/m*3 15.1 C 0 km/h
281 13-08-2010 08:07:02 14.8 C 10.13 g/m*3 14.8 C 0 km/h
282 13-08-2010 08:19:02 14.9 C 10.2 g/m*3 14.9 C 0 km/h
283 13-08-2010 08:31:02 15.2 C 10.38 g/m*3 15.2 C 0 km/h
284 13-08-2010 08:43:02 15.3 C 10.45 g/m*3 15.3 C 0 km/h
285 13-08-2010 08:55:01 15.6 C 10.51 g/m*3 15.6 C 0 km/h
286 13-08-2010 09:07:01 15.6 C 10.51 g/m*3 15.6 C 0 km/h
287 13-08-2010 09:19:02 15.8 C 10.23 g/m*3 15.8 C 0 km/h
288 13-08-2010 09:31:01 16.1 C 10.14 g/m*3 16.1 C 0 km/h
289 13-08-2010 09:43:01 16.6 C 10.17 g/m*3 16.6 C 0 km/h
290 13-08-2010 09:55:03 17.2 C 10.4 g/m*3 17.2 C 0 km/h
291 13-08-2010 10:07:02 17.6 C 10.05 g/m*3 17.6 C 0 km/h
292 13-08-2010 10:19:03 18.3 C 10.01 g/m*3 18.3 C 0 km/h
293 13-08-2010 10:31:02 19 C 9.45 g/m*3 19 C 0 km/h
294 13-08-2010 10:43:02 19.5 C 9.4 g/m*3 19.5 C 0 km/h
295 13-08-2010 10:55:02 19.8 C 9.22 g/m*3 19.8 C 0 km/h
296 13-08-2010 11:07:02 20.9 C 9.11 g/m*3 20.9 C 0 km/h
297 13-08-2010 11:19:02 21.2 C 8.52 g/m*3 21.2 C 0 km/h
298 13-08-2010 11:31:03 21 C 8.24 g/m*3 21 C 0 km/h
299 13-08-2010 11:43:03 21.4 C 7.69 g/m*3 21.4 C 0 km/h
300 13-08-2010 11:55:02 21.7 C 8.39 g/m*3 21.7 C 0 km/h
Sensor: Nr:Datum:Temp:Abs-Feuchte:Windchill:Wind:
Aussen-T/F 301 13-08-2010 12:07:01 22.1 C 7.81 g/m*3 22.1 C 0 km/h
302 13-08-2010 12:19:02 21.7 C 7.63 g/m*3 21.7 C 0 km/h
303 13-08-2010 12:31:02 22.2 C 7.85 g/m*3 22.2 C 0 km/h
304 13-08-2010 12:43:02 22.2 C 7.85 g/m*3 22.2 C 0 km/h
305 13-08-2010 12:55:02 22.8 C 7.52 g/m*3 22.8 C 0 km/h
306 13-08-2010 13:07:02 22.5 C 7.19 g/m*3 22.5 C 0 km/h
307 13-08-2010 13:19:02 23.2 C 7.28 g/m*3 23.2 C 0 km/h
308 13-08-2010 13:31:02 23.2 C 7.48 g/m*3 23.2 C 0 km/h
309 13-08-2010 13:43:02 23.5 C 6.56 g/m*3 23.5 C 0 km/h
310 13-08-2010 13:55:01 22.6 C 6.43 g/m*3 22.6 C 0 km/h
311 13-08-2010 14:07:01 22.6 C 6.43 g/m*3 22.6 C 0 km/h
312 13-08-2010 14:19:01 23.2 C 6.44 g/m*3 23.2 C 0 km/h
313 13-08-2010 14:31:01 24.1 C 6.78 g/m*3 24.1 C 0 km/h
314 13-08-2010 14:43:01 24.4 C 6.23 g/m*3 24.4 C 0 km/h
315 13-08-2010 14:55:01 25.3 C 6.55 g/m*3 25.3 C 0 km/h
316 13-08-2010 15:07:01 24.7 C 6.11 g/m*3 24.7 C 0 km/h
317 13-08-2010 15:19:02 24.6 C 6.3 g/m*3 24.6 C 0 km/h
318 13-08-2010 15:31:01 24.9 C 6.18 g/m*3 24.9 C 0 km/h
319 13-08-2010 15:43:01 24.1 C 5.69 g/m*3 24.1 C 0 km/h
320 13-08-2010 15:55:01 23.8 C 5.81 g/m*3 23.8 C 0 km/h
321 13-08-2010 16:07:01 24.3 C 5.75 g/m*3 24.3 C 0 km/h
322 13-08-2010 16:19:02 24.4 C 6.45 g/m*3 24.4 C 0 km/h
323 13-08-2010 16:31:01 24.5 C 6.94 g/m*3 24.5 C 0 km/h
324 13-08-2010 16:43:01 24.1 C 6.78 g/m*3 24.1 C 0 km/h
325 13-08-2010 16:55:02 23.9 C 7.79 g/m*3 23.9 C 0 km/h
Sensor: Nr:Datum:Temp:Abs-Feuchte:Windchill:Wind:
Aussen-T/F 326 13-08-2010 17:07:02 24 C 6.96 g/m*3 24 C 0 km/h
327 13-08-2010 17:19:02 23.7 C 7.27 g/m*3 23.7 C 0 km/h
328 13-08-2010 17:31:02 23.7 C 7.06 g/m*3 23.7 C 0 km/h
329 13-08-2010 17:43:02 23.6 C 7.66 g/m*3 23.6 C 0 km/h
330 13-08-2010 17:55:02 23.3 C 8.15 g/m*3 23.3 C 0 km/h
331 13-08-2010 18:07:02 22.9 C 8.17 g/m*3 22.9 C 0 km/h
332 13-08-2010 18:19:01 22.8 C 8.13 g/m*3 22.8 C 0 km/h
333 13-08-2010 18:31:02 22.5 C 8.19 g/m*3 22.5 C 0 km/h
334 13-08-2010 18:43:02 22.3 C 8.29 g/m*3 22.3 C 0 km/h
335 13-08-2010 18:55:02 22 C 7.96 g/m*3 22 C 0 km/h
336 13-08-2010 19:07:02 21.7 C 8.01 g/m*3 21.7 C 0 km/h
337 13-08-2010 19:19:02 22.1 C 7.81 g/m*3 22.1 C 0 km/h
338 13-08-2010 19:31:02 21.9 C 8.1 g/m*3 21.9 C 0 km/h
339 13-08-2010 19:43:02 21.5 C 7.92 g/m*3 21.5 C 0 km/h
340 13-08-2010 19:55:02 22 C 7.57 g/m*3 22 C 0 km/h
341 13-08-2010 20:07:02 21.7 C 7.82 g/m*3 21.7 C 0 km/h
342 13-08-2010 20:19:02 20.7 C 7.92 g/m*3 20.7 C 0 km/h
343 13-08-2010 20:31:02 19.8 C 8.03 g/m*3 19.8 C 0 km/h
344 13-08-2010 20:43:02 19 C 7.99 g/m*3 19 C 0 km/h
345 13-08-2010 20:55:02 18.3 C 7.82 g/m*3 18.3 C 0 km/h
346 13-08-2010 21:07:02 17.9 C 7.79 g/m*3 17.9 C 0 km/h
347 13-08-2010 21:19:03 17.7 C 7.69 g/m*3 17.7 C 0 km/h
348 13-08-2010 21:31:02 17.8 C 7.89 g/m*3 17.8 C 0 km/h
349 13-08-2010 21:43:02 17.5 C 7.75 g/m*3 17.5 C 0 km/h
350 13-08-2010 21:55:03 17.4 C 8 g/m*3 17.4 C 0 km/h
Sensor: Nr:Datum:Temp:Abs-Feuchte:Windchill:Wind:
Aussen-T/F 351 13-08-2010 22:07:02 17.3 C 8.1 g/m*3 17.3 C 0 km/h
352 13-08-2010 22:19:02 17.1 C 8.01 g/m*3 17.1 C 0 km/h
353 13-08-2010 22:31:03 16.8 C 8.29 g/m*3 16.8 C 0 km/h
354 13-08-2010 22:43:03 16.4 C 8.37 g/m*3 16.4 C 0 km/h
355 13-08-2010 22:56:03 16 C 8.17 g/m*3 16 C 0 km/h
356 13-08-2010 23:08:03 15.8 C 8.35 g/m*3 15.8 C 0 km/h
357 13-08-2010 23:20:03 15.6 C 8.38 g/m*3 15.6 C 0 km/h
358 13-08-2010 23:32:03 15.5 C 8.86 g/m*3 15.5 C 0 km/h
359 13-08-2010 23:44:03 15.2 C 8.83 g/m*3 15.2 C 0 km/h
360 13-08-2010 23:56:03 15.1 C 8.77 g/m*3 15.1 C 0 km/h
361 14-08-2010 00:08:03 15 C 8.72 g/m*3 15 C 0 km/h
362 14-08-2010 00:20:03 14.9 C 8.92 g/m*3 14.9 C 0 km/h
363 14-08-2010 00:32:04 14.6 C 8.88 g/m*3 14.6 C 0 km/h
364 14-08-2010 00:44:04 14.5 C 8.95 g/m*3 14.5 C 0 km/h
365 14-08-2010 00:56:04 14.5 C 9.08 g/m*3 14.5 C 0 km/h
366 14-08-2010 01:08:04 14.3 C 9.09 g/m*3 14.3 C 0 km/h
367 14-08-2010 01:20:04 14.1 C 9.1 g/m*3 14.1 C 0 km/h
368 14-08-2010 01:32:04 13.8 C 9.06 g/m*3 13.8 C 0 km/h
369 14-08-2010 01:44:04 13.9 C 9.11 g/m*3 13.9 C 0 km/h
370 14-08-2010 01:56:04 13.8 C 9.17 g/m*3 13.8 C 0 km/h
371 14-08-2010 02:08:04 13.6 C 9.06 g/m*3 13.6 C 0 km/h
372 14-08-2010 02:20:04 13.4 C 8.95 g/m*3 13.4 C 0 km/h
373 14-08-2010 02:32:04 13.3 C 9.01 g/m*3 13.3 C 0 km/h
374 14-08-2010 02:44:04 13.2 C 8.96 g/m*3 13.2 C 0 km/h
375 14-08-2010 02:56:04 13.1 C 9.01 g/m*3 13.1 C 0 km/h
Sensor: Nr:Datum:Temp:Abs-Feuchte:Windchill:Wind:
Aussen-T/F 376 14-08-2010 03:08:04 12.9 C 9.02 g/m*3 12.9 C 0 km/h
377 14-08-2010 03:20:04 12.7 C 8.91 g/m*3 12.7 C 0 km/h
378 14-08-2010 03:32:04 12.6 C 8.85 g/m*3 12.6 C 0 km/h
379 14-08-2010 03:44:04 12.5 C 8.91 g/m*3 12.5 C 0 km/h
380 14-08-2010 03:56:04 12.3 C 8.69 g/m*3 12.3 C 0 km/h
381 14-08-2010 04:08:04 12.2 C 8.74 g/m*3 12.2 C 0 km/h
382 14-08-2010 04:20:04 12.1 C 8.69 g/m*3 12.1 C 0 km/h
383 14-08-2010 04:32:05 12.1 C 8.69 g/m*3 12.1 C 0 km/h
384 14-08-2010 04:44:05 12 C 8.74 g/m*3 12 C 0 km/h
385 14-08-2010 04:56:05 11.9 C 8.9 g/m*3 11.9 C 0 km/h
386 14-08-2010 05:08:05 11.8 C 8.84 g/m*3 11.8 C 0 km/h
387 14-08-2010 05:20:05 11.7 C 8.79 g/m*3 11.7 C 0 km/h
388 14-08-2010 05:32:05 11.6 C 8.73 g/m*3 11.6 C 0 km/h
389 14-08-2010 05:44:05 11.5 C 8.68 g/m*3 11.5 C 0 km/h
390 14-08-2010 05:56:05 11.5 C 8.78 g/m*3 11.5 C 0 km/h
391 14-08-2010 06:08:05 11.4 C 8.83 g/m*3 11.4 C 0 km/h
392 14-08-2010 06:20:05 11.1 C 8.66 g/m*3 11.1 C 0 km/h
393 14-08-2010 06:32:05 11.1 C 8.76 g/m*3 11.1 C 0 km/h
394 14-08-2010 06:44:05 11 C 8.71 g/m*3 11 C 0 km/h
395 14-08-2010 06:56:05 11 C 8.71 g/m*3 11 C 0 km/h
396 14-08-2010 07:08:04 11.1 C 8.76 g/m*3 11.1 C 0 km/h
397 14-08-2010 07:20:03 11.1 C 8.76 g/m*3 11.1 C 0 km/h
398 14-08-2010 07:32:04 11.3 C 8.87 g/m*3 11.3 C 0 km/h
399 14-08-2010 07:44:04 11.4 C 9.03 g/m*3 11.4 C 0 km/h
400 14-08-2010 07:56:02 11.5 C 9.09 g/m*3 11.5 C 0 km/h
Sensor: Nr:Datum:Temp:Abs-Feuchte:Windchill:Wind:
Aussen-T/F 401 14-08-2010 08:08:02 11.8 C 9.26 g/m*3 11.8 C 0 km/h
402 14-08-2010 08:20:02 12.1 C 9.33 g/m*3 12.1 C 0 km/h
403 14-08-2010 08:32:02 12.3 C 9.45 g/m*3 12.3 C 0 km/h
404 14-08-2010 08:44:02 12.6 C 9.51 g/m*3 12.6 C 0 km/h
405 14-08-2010 08:56:02 12.8 C 9.52 g/m*3 12.8 C 0 km/h
406 14-08-2010 09:08:02 13.2 C 9.53 g/m*3 13.2 C 0 km/h
407 14-08-2010 09:20:02 13.8 C 9.89 g/m*3 13.8 C 0 km/h
408 14-08-2010 09:32:02 14.4 C 10.01 g/m*3 14.4 C 0 km/h
409 14-08-2010 09:44:02 15 C 10 g/m*3 15 C 0 km/h
410 14-08-2010 09:56:01 15.6 C 10.24 g/m*3 15.6 C 0 km/h
411 14-08-2010 10:08:01 16.2 C 10.2 g/m*3 16.2 C 0 km/h
412 14-08-2010 10:20:02 16.9 C 10.36 g/m*3 16.9 C 0 km/h
413 14-08-2010 10:32:01 17.7 C 10.41 g/m*3 17.7 C 0 km/h
414 14-08-2010 10:44:01 18.3 C 10.48 g/m*3 18.3 C 0 km/h
415 14-08-2010 10:56:01 19 C 10.43 g/m*3 19 C 0 km/h
416 14-08-2010 11:08:01 19.5 C 10.57 g/m*3 19.5 C 0 km/h
417 14-08-2010 11:20:02 20 C 10.37 g/m*3 20 C 0 km/h
418 14-08-2010 11:32:01 20.6 C 10.38 g/m*3 20.6 C 0 km/h
419 14-08-2010 11:44:01 21.4 C 10.31 g/m*3 21.4 C 0 km/h
420 14-08-2010 11:56:02 21.9 C 10.03 g/m*3 21.9 C 0 km/h
421 14-08-2010 12:08:02 22.2 C 9.42 g/m*3 22.2 C 0 km/h
422 14-08-2010 12:20:02 22.7 C 9.9 g/m*3 22.7 C 0 km/h
423 14-08-2010 12:32:03 23.1 C 9.3 g/m*3 23.1 C 0 km/h
424 14-08-2010 12:44:03 23.2 C 8.94 g/m*3 23.2 C 0 km/h
425 14-08-2010 12:56:02 23.6 C 8.29 g/m*3 23.6 C 0 km/h
Sensor: Nr:Datum:Temp:Abs-Feuchte:Windchill:Wind:
Aussen-T/F 426 14-08-2010 13:08:01 24.5 C 8.06 g/m*3 24.5 C 0 km/h
427 14-08-2010 13:20:02 25.7 C 7.66 g/m*3 25.7 C 0 km/h
428 14-08-2010 13:32:02 26.4 C 7.47 g/m*3 26.4 C 0 km/h
429 14-08-2010 13:44:02 27.1 C 6.73 g/m*3 27.1 C 0 km/h
430 14-08-2010 13:56:02 27.5 C 6.88 g/m*3 27.5 C 0 km/h
431 14-08-2010 14:08:01 27.5 C 6.88 g/m*3 27.5 C 0 km/h
432 14-08-2010 14:20:02 28.2 C 7.42 g/m*3 28.2 C 0 km/h
433 14-08-2010 14:32:01 27.9 C 6.76 g/m*3 27.9 C 0 km/h
434 14-08-2010 14:44:01 27.4 C 6.84 g/m*3 27.4 C 0 km/h
435 14-08-2010 14:56:02 27.1 C 6.99 g/m*3 27.1 C 0 km/h
436 14-08-2010 15:08:02 27.7 C 6.95 g/m*3 27.7 C 0 km/h
437 14-08-2010 15:20:02 27.7 C 6.95 g/m*3 27.7 C 0 km/h
438 14-08-2010 15:32:03 27.5 C 6.61 g/m*3 27.5 C 0 km/h
439 14-08-2010 15:44:03 28.1 C 6.84 g/m*3 28.1 C 0 km/h
440 14-08-2010 15:56:02 29.2 C 6.1 g/m*3 29.2 C 0 km/h
441 14-08-2010 16:08:01 29.6 C 6.53 g/m*3 29.6 C 0 km/h
442 14-08-2010 16:20:02 30 C 6.67 g/m*3 30 C 0 km/h
443 14-08-2010 16:32:02 30 C 6.37 g/m*3 30 C 0 km/h
444 14-08-2010 16:44:02 30.3 C 6.47 g/m*3 30.3 C 0 km/h
445 14-08-2010 16:56:02 30.6 C 6.26 g/m*3 30.6 C 0 km/h
446 14-08-2010 17:08:02 30.7 C 6.3 g/m*3 30.7 C 0 km/h
447 14-08-2010 17:20:02 30.6 C 6.26 g/m*3 30.6 C 0 km/h
448 14-08-2010 17:32:02 30.9 C 6.37 g/m*3 30.9 C 0 km/h
449 14-08-2010 17:44:02 31 C 6.4 g/m*3 31 C 0 km/h
450 14-08-2010 17:56:01 31.2 C 6.47 g/m*3 31.2 C 0 km/h
Sensor: Nr:Datum:Temp:Abs-Feuchte:Windchill:Wind:
Aussen-T/F 451 14-08-2010 18:08:01 31.4 C 6.54 g/m*3 31.4 C 0 km/h
452 14-08-2010 18:20:01 31.5 C 6.57 g/m*3 31.5 C 0 km/h
453 14-08-2010 18:32:01 31.3 C 6.5 g/m*3 31.3 C 0 km/h
454 14-08-2010 18:44:01 31 C 6.4 g/m*3 31 C 0 km/h
455 14-08-2010 18:56:01 30.9 C 6.37 g/m*3 30.9 C 0 km/h
456 14-08-2010 19:08:01 29.6 C 7.72 g/m*3 29.6 C 0 km/h
457 14-08-2010 19:20:02 28.2 C 7.15 g/m*3 28.2 C 0 km/h
458 14-08-2010 19:32:01 27.4 C 7.37 g/m*3 27.4 C 0 km/h
459 14-08-2010 19:44:01 27.2 C 7.55 g/m*3 27.2 C 0 km/h
460 14-08-2010 19:56:03 26.9 C 7.93 g/m*3 26.9 C 0 km/h
461 14-08-2010 20:08:02 26.6 C 8.05 g/m*3 26.6 C 0 km/h
462 14-08-2010 20:20:02 25.8 C 8.19 g/m*3 25.8 C 0 km/h
463 14-08-2010 20:32:02 24.7 C 8.15 g/m*3 24.7 C 0 km/h
464 14-08-2010 20:44:02 24 C 8.05 g/m*3 24 C 0 km/h
465 14-08-2010 20:56:02 23.2 C 8.32 g/m*3 23.2 C 0 km/h
466 14-08-2010 21:08:02 22.7 C 8.49 g/m*3 22.7 C 0 km/h
467 14-08-2010 21:20:02 22.5 C 8.59 g/m*3 22.5 C 0 km/h
468 14-08-2010 21:32:02 22.1 C 8.78 g/m*3 22.1 C 0 km/h
469 14-08-2010 21:44:02 21.8 C 8.83 g/m*3 21.8 C 0 km/h
470 14-08-2010 21:56:02 21.6 C 8.91 g/m*3 21.6 C 0 km/h
471 14-08-2010 22:08:02 21.6 C 9.1 g/m*3 21.6 C 0 km/h
472 14-08-2010 22:20:01 21.5 C 9.05 g/m*3 21.5 C 0 km/h
473 14-08-2010 22:32:02 21.2 C 9.27 g/m*3 21.2 C 0 km/h
474 14-08-2010 22:44:02 21.1 C 9.21 g/m*3 21.1 C 0 km/h
475 14-08-2010 22:56:02 20.8 C 9.05 g/m*3 20.8 C 0 km/h
Sensor: Nr:Datum:Temp:Abs-Feuchte:Windchill:Wind:
Aussen-T/F 476 14-08-2010 23:08:02 20.7 C 9.36 g/m*3 20.7 C 0 km/h
477 14-08-2010 23:21:03 20.6 C 9.31 g/m*3 20.6 C 0 km/h
478 14-08-2010 23:33:03 20.3 C 9.15 g/m*3 20.3 C 0 km/h
479 14-08-2010 23:45:03 20.2 C 8.92 g/m*3 20.2 C 0 km/h
480 14-08-2010 23:57:03 20 C 8.99 g/m*3 20 C 0 km/h
481 15-08-2010 00:09:03 20 C 8.81 g/m*3 20 C 0 km/h
482 15-08-2010 00:21:03 19.8 C 8.88 g/m*3 19.8 C 0 km/h
483 15-08-2010 00:33:03 19.8 C 8.88 g/m*3 19.8 C 0 km/h
484 15-08-2010 00:45:03 19.6 C 8.78 g/m*3 19.6 C 0 km/h
485 15-08-2010 00:57:03 19.5 C 8.73 g/m*3 19.5 C 0 km/h
486 15-08-2010 01:09:03 19.5 C 8.89 g/m*3 19.5 C 0 km/h
487 15-08-2010 01:21:03 19.5 C 8.56 g/m*3 19.5 C 0 km/h
488 15-08-2010 01:33:03 19.4 C 8.84 g/m*3 19.4 C 0 km/h
489 15-08-2010 01:45:03 19.3 C 8.63 g/m*3 19.3 C 0 km/h
490 15-08-2010 01:57:03 19.2 C 8.74 g/m*3 19.2 C 0 km/h
491 15-08-2010 02:09:03 19.1 C 8.69 g/m*3 19.1 C 0 km/h
492 15-08-2010 02:21:03 19.1 C 9.02 g/m*3 19.1 C 0 km/h
493 15-08-2010 02:33:03 19 C 8.96 g/m*3 19 C 0 km/h
494 15-08-2010 02:45:03 18.9 C 9.07 g/m*3 18.9 C 0 km/h
495 15-08-2010 02:57:03 18.8 C 9.18 g/m*3 18.8 C 0 km/h
496 15-08-2010 03:09:03 18.8 C 9.34 g/m*3 18.8 C 0 km/h
497 15-08-2010 03:21:03 18.7 C 9.29 g/m*3 18.7 C 0 km/h
498 15-08-2010 03:33:04 18.6 C 9.23 g/m*3 18.6 C 0 km/h
499 15-08-2010 03:45:04 18.5 C 9.33 g/m*3 18.5 C 0 km/h
500 15-08-2010 03:57:04 18.4 C 9.28 g/m*3 18.4 C 0 km/h
Sensor: Nr:Datum:Temp:Abs-Feuchte:Windchill:Wind:
Aussen-T/F 501 15-08-2010 04:09:04 18.2 C 9.17 g/m*3 18.2 C 0 km/h
502 15-08-2010 04:21:04 18.2 C 9.33 g/m*3 18.2 C 0 km/h
503 15-08-2010 04:33:04 18.1 C 9.12 g/m*3 18.1 C 0 km/h
504 15-08-2010 04:45:04 18.1 C 9.12 g/m*3 18.1 C 0 km/h
505 15-08-2010 04:57:04 18.1 C 8.96 g/m*3 18.1 C 0 km/h
506 15-08-2010 05:09:04 18.1 C 8.81 g/m*3 18.1 C 0 km/h
507 15-08-2010 05:21:04 18.1 C 8.96 g/m*3 18.1 C 0 km/h
508 15-08-2010 05:33:04 18.1 C 8.81 g/m*3 18.1 C 0 km/h
509 15-08-2010 05:45:04 18 C 8.91 g/m*3 18 C 0 km/h
510 15-08-2010 05:57:04 18 C 8.91 g/m*3 18 C 0 km/h
511 15-08-2010 06:09:04 17.8 C 9.11 g/m*3 17.8 C 0 km/h
512 15-08-2010 06:21:04 17.9 C 9.01 g/m*3 17.9 C 0 km/h
513 15-08-2010 06:33:04 18 C 9.06 g/m*3 18 C 0 km/h
514 15-08-2010 06:45:04 17.9 C 9.01 g/m*3 17.9 C 0 km/h
515 15-08-2010 06:57:04 17.9 C 9.01 g/m*3 17.9 C 0 km/h
516 15-08-2010 07:09:04 18 C 8.91 g/m*3 18 C 0 km/h
517 15-08-2010 07:21:04 17.9 C 9.16 g/m*3 17.9 C 0 km/h
518 15-08-2010 07:33:04 17.2 C 9.52 g/m*3 17.2 C 0 km/h
519 15-08-2010 07:45:05 16.4 C 10.05 g/m*3 16.4 C 0 km/h
520 15-08-2010 07:57:05 16 C 10.63 g/m*3 16 C 0 km/h
521 15-08-2010 08:09:05 15.4 C 11.04 g/m*3 15.4 C 0 km/h
522 15-08-2010 08:21:05 15.1 C 11.22 g/m*3 15.1 C 0 km/h
523 15-08-2010 08:33:03 15.1 C 11.48 g/m*3 15.1 C 0 km/h
524 15-08-2010 08:45:02 15.4 C 11.82 g/m*3 15.4 C 0 km/h
525 15-08-2010 08:57:02 15.2 C 11.81 g/m*3 15.2 C 0 km/h
Sensor: Nr:Datum:Temp:Abs-Feuchte:Windchill:Wind:
Aussen-T/F 526 15-08-2010 09:09:03 15.1 C 11.74 g/m*3 15.1 C 0 km/h
527 15-08-2010 09:21:02 15.1 C 11.87 g/m*3 15.1 C 0 km/h
528 15-08-2010 09:33:02 15.2 C 12.07 g/m*3 15.2 C 0 km/h
529 15-08-2010 09:45:01 15.3 C 12.14 g/m*3 15.3 C 0 km/h
530 15-08-2010 09:57:01 15.3 C 12.14 g/m*3 15.3 C 0 km/h
531 15-08-2010 10:09:02 15.5 C 12.43 g/m*3 15.5 C 0 km/h
532 15-08-2010 10:21:01 15.4 C 12.35 g/m*3 15.4 C 0 km/h
533 15-08-2010 10:33:01 15.4 C 12.35 g/m*3 15.4 C 0 km/h
534 15-08-2010 10:45:01 15.5 C 12.43 g/m*3 15.5 C 0 km/h
535 15-08-2010 10:57:01 15.6 C 12.63 g/m*3 15.6 C 0 km/h
536 15-08-2010 11:09:01 15.7 C 12.71 g/m*3 15.7 C 0 km/h
537 15-08-2010 11:21:02 15.8 C 12.79 g/m*3 15.8 C 0 km/h
538 15-08-2010 11:33:01 15.8 C 12.79 g/m*3 15.8 C 0 km/h
539 15-08-2010 11:45:03 15.9 C 12.87 g/m*3 15.9 C 0 km/h
540 15-08-2010 11:57:03 15.9 C 12.87 g/m*3 15.9 C 0 km/h
541 15-08-2010 12:09:02 15.8 C 12.79 g/m*3 15.8 C 0 km/h
542 15-08-2010 12:21:02 16 C 12.94 g/m*3 16 C 0 km/h
543 15-08-2010 12:33:02 16.2 C 13.1 g/m*3 16.2 C 0 km/h
544 15-08-2010 12:45:02 16.1 C 13.02 g/m*3 16.1 C 0 km/h
545 15-08-2010 12:57:02 16.1 C 13.02 g/m*3 16.1 C 0 km/h
546 15-08-2010 13:09:02 16.1 C 13.02 g/m*3 16.1 C 0 km/h
547 15-08-2010 13:21:02 16.1 C 13.02 g/m*3 16.1 C 0 km/h
548 15-08-2010 13:33:02 16.2 C 13.1 g/m*3 16.2 C 0 km/h
549 15-08-2010 13:45:01 16.2 C 13.1 g/m*3 16.2 C 0 km/h
550 15-08-2010 13:57:01 16.1 C 13.02 g/m*3 16.1 C 0 km/h
Sensor: Nr:Datum:Temp:Abs-Feuchte:Windchill:Wind:
Aussen-T/F 551 15-08-2010 14:09:02 16.2 C 13.1 g/m*3 16.2 C 0 km/h
552 15-08-2010 14:21:02 16.3 C 13.18 g/m*3 16.3 C 0 km/h
553 15-08-2010 14:33:02 16.6 C 13.42 g/m*3 16.6 C 0 km/h
554 15-08-2010 14:45:02 16.6 C 13.42 g/m*3 16.6 C 0 km/h
555 15-08-2010 14:57:02 16.5 C 13.34 g/m*3 16.5 C 0 km/h
556 15-08-2010 15:09:02 16.4 C 13.26 g/m*3 16.4 C 0 km/h
557 15-08-2010 15:21:02 16.4 C 13.26 g/m*3 16.4 C 0 km/h
558 15-08-2010 15:33:01 16.4 C 13.26 g/m*3 16.4 C 0 km/h
559 15-08-2010 15:45:02 16.4 C 13.26 g/m*3 16.4 C 0 km/h
560 15-08-2010 15:57:02 16.4 C 13.26 g/m*3 16.4 C 0 km/h
561 15-08-2010 16:09:04 16.5 C 13.34 g/m*3 16.5 C 0 km/h
562 15-08-2010 16:21:02 16.5 C 13.34 g/m*3 16.5 C 0 km/h
563 15-08-2010 16:33:02 16.5 C 13.34 g/m*3 16.5 C 0 km/h
564 15-08-2010 16:45:03 16.4 C 13.26 g/m*3 16.4 C 0 km/h
565 15-08-2010 16:57:03 16.5 C 13.34 g/m*3 16.5 C 0 km/h
566 15-08-2010 17:09:03 16.6 C 13.42 g/m*3 16.6 C 0 km/h
567 15-08-2010 17:21:02 16.7 C 13.5 g/m*3 16.7 C 0 km/h
568 15-08-2010 17:33:02 16.7 C 13.5 g/m*3 16.7 C 0 km/h
569 15-08-2010 17:45:02 16.7 C 13.5 g/m*3 16.7 C 0 km/h
570 15-08-2010 17:57:02 16.7 C 13.5 g/m*3 16.7 C 0 km/h
571 15-08-2010 18:09:02 16.6 C 13.42 g/m*3 16.6 C 0 km/h
572 15-08-2010 18:21:02 16.6 C 13.42 g/m*3 16.6 C 0 km/h
573 15-08-2010 18:33:02 16.6 C 13.42 g/m*3 16.6 C 0 km/h
574 15-08-2010 18:45:02 16.6 C 13.42 g/m*3 16.6 C 0 km/h
575 15-08-2010 18:57:03 16.6 C 13.42 g/m*3 16.6 C 0 km/h
Sensor: Nr:Datum:Temp:Abs-Feuchte:Windchill:Wind:
Aussen-T/F 576 15-08-2010 19:09:01 16.6 C 13.42 g/m*3 16.6 C 0 km/h
577 15-08-2010 19:21:01 16.6 C 13.42 g/m*3 16.6 C 0 km/h
578 15-08-2010 19:33:02 16.6 C 13.42 g/m*3 16.6 C 0 km/h
579 15-08-2010 19:45:02 16.6 C 13.42 g/m*3 16.6 C 0 km/h
580 15-08-2010 19:57:02 16.6 C 13.42 g/m*3 16.6 C 0 km/h
581 15-08-2010 20:09:02 16.5 C 13.34 g/m*3 16.5 C 0 km/h
582 15-08-2010 20:21:02 16.4 C 13.26 g/m*3 16.4 C 0 km/h
583 15-08-2010 20:33:02 16.4 C 13.26 g/m*3 16.4 C 0 km/h
584 15-08-2010 20:45:02 16.3 C 13.18 g/m*3 16.3 C 0 km/h
585 15-08-2010 20:57:02 16.3 C 13.18 g/m*3 16.3 C 0 km/h
586 15-08-2010 21:09:02 16.3 C 13.18 g/m*3 16.3 C 0 km/h
587 15-08-2010 21:21:02 16.3 C 13.18 g/m*3 16.3 C 0 km/h
588 15-08-2010 21:33:02 16.2 C 13.1 g/m*3 16.2 C 0 km/h
589 15-08-2010 21:45:02 16.2 C 13.1 g/m*3 16.2 C 0 km/h
590 15-08-2010 21:57:02 16.2 C 13.1 g/m*3 16.2 C 0 km/h
591 15-08-2010 22:09:02 16.1 C 13.02 g/m*3 16.1 C 0 km/h
592 15-08-2010 22:21:02 16.1 C 13.02 g/m*3 16.1 C 0 km/h
593 15-08-2010 22:33:02 16.2 C 13.1 g/m*3 16.2 C 0 km/h
594 15-08-2010 22:45:02 16.2 C 13.1 g/m*3 16.2 C 0 km/h
595 15-08-2010 22:57:02 16.1 C 13.02 g/m*3 16.1 C 0 km/h
596 15-08-2010 23:09:02 16 C 12.94 g/m*3 16 C 0 km/h
597 15-08-2010 23:21:02 15.9 C 12.87 g/m*3 15.9 C 0 km/h
598 15-08-2010 23:33:02 15.4 C 12.48 g/m*3 15.4 C 0 km/h
599 15-08-2010 23:45:02 15.2 C 12.33 g/m*3 15.2 C 0 km/h
600 15-08-2010 23:57:02 15 C 12.18 g/m*3 15 C 0 km/h
Sensor: Nr:Datum:Temp:Abs-Feuchte:Windchill:Wind:
Aussen-T/F 601 16-08-2010 00:09:02 15 C 12.18 g/m*3 15 C 0 km/h
602 16-08-2010 00:21:01 15 C 12.18 g/m*3 15 C 0 km/h
603 16-08-2010 00:33:02 14.9 C 12.11 g/m*3 14.9 C 0 km/h
604 16-08-2010 00:45:02 14.8 C 12.03 g/m*3 14.8 C 0 km/h
605 16-08-2010 00:57:02 14.8 C 12.03 g/m*3 14.8 C 0 km/h
606 16-08-2010 01:09:02 14.8 C 12.03 g/m*3 14.8 C 0 km/h
607 16-08-2010 01:21:02 14.7 C 11.96 g/m*3 14.7 C 0 km/h
608 16-08-2010 01:33:02 14.7 C 11.83 g/m*3 14.7 C 0 km/h
609 16-08-2010 01:45:02 14.7 C 11.83 g/m*3 14.7 C 0 km/h
610 16-08-2010 01:57:02 14.7 C 11.71 g/m*3 14.7 C 0 km/h
611 16-08-2010 02:09:02 14.6 C 11.64 g/m*3 14.6 C 0 km/h
612 16-08-2010 02:21:02 14.6 C 11.64 g/m*3 14.6 C 0 km/h
613 16-08-2010 02:33:02 14.6 C 11.64 g/m*3 14.6 C 0 km/h
614 16-08-2010 02:46:03 14.6 C 11.51 g/m*3 14.6 C 0 km/h
615 16-08-2010 02:58:03 14.6 C 11.64 g/m*3 14.6 C 0 km/h
616 16-08-2010 03:10:04 14.6 C 11.64 g/m*3 14.6 C 0 km/h
617 16-08-2010 03:22:04 14.6 C 11.64 g/m*3 14.6 C 0 km/h
618 16-08-2010 03:34:02 14.6 C 11.64 g/m*3 14.6 C 0 km/h
619 16-08-2010 03:46:02 14.6 C 11.64 g/m*3 14.6 C 0 km/h
620 16-08-2010 03:58:02 14.6 C 11.64 g/m*3 14.6 C 0 km/h
621 16-08-2010 04:10:02 14.5 C 11.44 g/m*3 14.5 C 0 km/h
622 16-08-2010 04:22:02 14.5 C 11.32 g/m*3 14.5 C 0 km/h
623 16-08-2010 04:34:02 14.5 C 11.32 g/m*3 14.5 C 0 km/h
624 16-08-2010 04:46:02 14.5 C 11.32 g/m*3 14.5 C 0 km/h
625 16-08-2010 04:58:02 14.5 C 11.32 g/m*3 14.5 C 0 km/h
Sensor: Nr:Datum:Temp:Abs-Feuchte:Windchill:Wind:
Aussen-T/F 626 16-08-2010 05:10:02 14.5 C 11.32 g/m*3 14.5 C 0 km/h
627 16-08-2010 05:22:02 14.5 C 11.32 g/m*3 14.5 C 0 km/h
628 16-08-2010 05:34:02 14.5 C 11.44 g/m*3 14.5 C 0 km/h
629 16-08-2010 05:46:01 14.5 C 11.44 g/m*3 14.5 C 0 km/h
630 16-08-2010 05:58:01 14.5 C 11.44 g/m*3 14.5 C 0 km/h
631 16-08-2010 06:10:02 14.5 C 11.44 g/m*3 14.5 C 0 km/h
632 16-08-2010 06:22:02 14.5 C 11.32 g/m*3 14.5 C 0 km/h
633 16-08-2010 06:34:02 14.5 C 11.32 g/m*3 14.5 C 0 km/h
634 16-08-2010 06:46:02 14.6 C 11.39 g/m*3 14.6 C 0 km/h
635 16-08-2010 06:58:02 14.6 C 11.39 g/m*3 14.6 C 0 km/h
636 16-08-2010 07:10:02 14.6 C 11.39 g/m*3 14.6 C 0 km/h
637 16-08-2010 07:22:56 14.8 C 11.53 g/m*3 14.8 C 0 km/h
638 16-08-2010 07:34:02 14.8 C 11.53 g/m*3 14.8 C 0 km/h
639 16-08-2010 07:46:02 14.8 C 11.4 g/m*3 14.8 C 0 km/h
640 16-08-2010 07:58:02 15.2 C 11.42 g/m*3 15.2 C 0 km/h
641 16-08-2010 08:10:02 15.6 C 11.57 g/m*3 15.6 C 0 km/h
642 16-08-2010 08:22:01 15.8 C 11.58 g/m*3 15.8 C 0 km/h
643 16-08-2010 08:34:02 15.9 C 11.38 g/m*3 15.9 C 0 km/h
644 16-08-2010 08:46:01 16 C 11.31 g/m*3 16 C 0 km/h
645 16-08-2010 08:58:01 16.3 C 11.38 g/m*3 16.3 C 0 km/h
646 16-08-2010 09:10:02 17.1 C 11.5 g/m*3 17.1 C 0 km/h
647 16-08-2010 09:22:02 17.4 C 11.12 g/m*3 17.4 C 0 km/h
648 16-08-2010 09:34:01 17.4 C 10.82 g/m*3 17.4 C 0 km/h
649 16-08-2010 09:46:01 17.7 C 11.01 g/m*3 17.7 C 0 km/h
650 16-08-2010 09:58:01 17.4 C 10.97 g/m*3 17.4 C 0 km/h
Sensor: Nr:Datum:Temp:Abs-Feuchte:Windchill:Wind:
Aussen-T/F 651 16-08-2010 10:10:01 17.4 C 10.97 g/m*3 17.4 C 0 km/h
652 16-08-2010 10:22:02 17.3 C 10.9 g/m*3 17.3 C 0 km/h
653 16-08-2010 10:34:01 17.1 C 10.63 g/m*3 17.1 C 0 km/h
654 16-08-2010 10:46:02 17.2 C 10.84 g/m*3 17.2 C 0 km/h
655 16-08-2010 10:58:02 17 C 10.85 g/m*3 17 C 0 km/h
656 16-08-2010 11:10:01 17.3 C 11.05 g/m*3 17.3 C 0 km/h
657 16-08-2010 11:22:01 17.7 C 11.47 g/m*3 17.7 C 0 km/h
658 16-08-2010 11:42:02 18.1 C 10.97 g/m*3 18.1 C 0 km/h
659 16-08-2010 11:54:02 17.7 C 10.86 g/m*3 17.7 C 0 km/h
660 16-08-2010 12:06:03 17.5 C 11.33 g/m*3 17.5 C 0 km/h
661 16-08-2010 12:18:02 17.8 C 11.84 g/m*3 17.8 C 0 km/h
662 16-08-2010 12:30:02 17.6 C 11.4 g/m*3 17.6 C 0 km/h
663 16-08-2010 12:42:02 17.8 C 11.54 g/m*3 17.8 C 0 km/h
664 16-08-2010 12:54:02 18.1 C 11.12 g/m*3 18.1 C 0 km/h
665 16-08-2010 13:06:02 18.1 C 10.97 g/m*3 18.1 C 0 km/h
666 16-08-2010 13:18:02 18.2 C 10.72 g/m*3 18.2 C 0 km/h
667 16-08-2010 13:30:02 18.3 C 10.63 g/m*3 18.3 C 0 km/h
668 16-08-2010 13:42:02 18.5 C 10.28 g/m*3 18.5 C 0 km/h
669 16-08-2010 13:54:02 18.8 C 10.31 g/m*3 18.8 C 0 km/h
670 16-08-2010 14:06:01 19.5 C 10.41 g/m*3 19.5 C 0 km/h
671 16-08-2010 14:18:02 19.6 C 9.96 g/m*3 19.6 C 0 km/h
672 16-08-2010 14:30:03 20 C 9.51 g/m*3 20 C 0 km/h
673 16-08-2010 14:42:01 20.5 C 9.96 g/m*3 20.5 C 0 km/h
674 16-08-2010 14:54:02 19.8 C 9.57 g/m*3 19.8 C 0 km/h
675 16-08-2010 15:06:02 19.7 C 9.34 g/m*3 19.7 C 0 km/h
Sensor: Nr:Datum:Temp:Abs-Feuchte:Windchill:Wind:
Aussen-T/F 676 16-08-2010 15:18:02 19.7 C 9.51 g/m*3 19.7 C 0 km/h
677 16-08-2010 15:30:02 19.7 C 9.34 g/m*3 19.7 C 0 km/h
678 16-08-2010 15:42:03 19.8 C 9.57 g/m*3 19.8 C 0 km/h
679 16-08-2010 15:54:02 19.7 C 9.34 g/m*3 19.7 C 0 km/h
680 16-08-2010 16:06:02 20 C 9.68 g/m*3 20 C 0 km/h
681 16-08-2010 16:18:02 19.7 C 9.68 g/m*3 19.7 C 0 km/h
682 16-08-2010 16:30:02 19.6 C 9.79 g/m*3 19.6 C 0 km/h
683 16-08-2010 16:42:02 19.5 C 9.73 g/m*3 19.5 C 0 km/h
684 16-08-2010 16:54:02 20 C 9.85 g/m*3 20 C 0 km/h
685 16-08-2010 17:07:03 20 C 9.85 g/m*3 20 C 0 km/h
686 16-08-2010 17:19:02 19.9 C 9.79 g/m*3 19.9 C 0 km/h
687 16-08-2010 17:31:02 19.8 C 9.74 g/m*3 19.8 C 0 km/h
688 16-08-2010 17:43:02 19.8 C 9.74 g/m*3 19.8 C 0 km/h
689 16-08-2010 17:55:01 20.3 C 9.85 g/m*3 20.3 C 0 km/h
690 16-08-2010 18:07:02 20.2 C 9.44 g/m*3 20.2 C 0 km/h
691 16-08-2010 18:19:01 20 C 9.51 g/m*3 20 C 0 km/h
692 16-08-2010 18:31:01 19.8 C 9.74 g/m*3 19.8 C 0 km/h
693 16-08-2010 18:43:01 19.5 C 9.73 g/m*3 19.5 C 0 km/h
694 16-08-2010 18:55:01 19.3 C 9.79 g/m*3 19.3 C 0 km/h
695 16-08-2010 19:07:02 18.9 C 9.88 g/m*3 18.9 C 0 km/h
696 16-08-2010 19:19:02 18.8 C 9.99 g/m*3 18.8 C 0 km/h
697 16-08-2010 19:31:01 18.7 C 10.09 g/m*3 18.7 C 0 km/h
698 16-08-2010 19:43:01 18.4 C 10.07 g/m*3 18.4 C 0 km/h
699 16-08-2010 19:55:02 18.2 C 10.26 g/m*3 18.2 C 0 km/h
700 16-08-2010 20:07:01 18.1 C 10.35 g/m*3 18.1 C 0 km/h
Sensor: Nr:Datum:Temp:Abs-Feuchte:Windchill:Wind:
Aussen-T/F 701 16-08-2010 20:19:02 18 C 10.44 g/m*3 18 C 0 km/h
702 16-08-2010 20:31:01 17.9 C 10.69 g/m*3 17.9 C 0 km/h
703 16-08-2010 20:43:01 17.8 C 10.78 g/m*3 17.8 C 0 km/h
704 16-08-2010 20:55:02 17.7 C 10.86 g/m*3 17.7 C 0 km/h
705 16-08-2010 21:07:01 17.6 C 11.1 g/m*3 17.6 C 0 km/h
706 16-08-2010 21:19:01 17.4 C 11.12 g/m*3 17.4 C 0 km/h
707 16-08-2010 21:31:02 17.3 C 11.34 g/m*3 17.3 C 0 km/h
708 16-08-2010 21:43:02 17.4 C 11.41 g/m*3 17.4 C 0 km/h
709 16-08-2010 21:55:02 17.5 C 11.63 g/m*3 17.5 C 0 km/h
710 16-08-2010 22:07:35 17.4 C 11.71 g/m*3 17.4 C 0 km/h
711 16-08-2010 22:20:03 17.5 C 11.78 g/m*3 17.5 C 0 km/h
712 16-08-2010 22:32:03 17.6 C 11.85 g/m*3 17.6 C 0 km/h
713 16-08-2010 22:44:03 17.7 C 11.92 g/m*3 17.7 C 0 km/h
714 16-08-2010 22:56:03 17.7 C 11.92 g/m*3 17.7 C 0 km/h
715 16-08-2010 23:08:03 17.8 C 12.14 g/m*3 17.8 C 0 km/h
716 16-08-2010 23:20:03 17.7 C 12.07 g/m*3 17.7 C 0 km/h
717 16-08-2010 23:32:03 17.7 C 12.07 g/m*3 17.7 C 0 km/h
718 16-08-2010 23:44:03 17.8 C 11.99 g/m*3 17.8 C 0 km/h
719 16-08-2010 23:56:03 17.8 C 11.99 g/m*3 17.8 C 0 km/h
720 17-08-2010 00:08:03 17.8 C 11.99 g/m*3 17.8 C 0 km/h
721 17-08-2010 00:20:03 17.8 C 11.99 g/m*3 17.8 C 0 km/h
722 17-08-2010 00:32:03 17.7 C 11.92 g/m*3 17.7 C 0 km/h
723 17-08-2010 00:44:03 17.5 C 11.78 g/m*3 17.5 C 0 km/h
724 17-08-2010 00:56:03 17.3 C 12.08 g/m*3 17.3 C 0 km/h
725 17-08-2010 01:08:03 17.1 C 12.08 g/m*3 17.1 C 0 km/h
Sensor: Nr:Datum:Temp:Abs-Feuchte:Windchill:Wind:
Aussen-T/F 726 17-08-2010 01:20:03 16.8 C 12.3 g/m*3 16.8 C 0 km/h
727 17-08-2010 01:32:03 16.6 C 12.29 g/m*3 16.6 C 0 km/h
728 17-08-2010 01:44:03 16.5 C 12.36 g/m*3 16.5 C 0 km/h
729 17-08-2010 01:56:03 16.4 C 12.42 g/m*3 16.4 C 0 km/h
730 17-08-2010 02:08:03 16.3 C 12.35 g/m*3 16.3 C 0 km/h
731 17-08-2010 02:20:03 16.5 C 12.5 g/m*3 16.5 C 0 km/h
732 17-08-2010 02:32:04 16.5 C 12.5 g/m*3 16.5 C 0 km/h
733 17-08-2010 02:44:04 16.6 C 12.43 g/m*3 16.6 C 0 km/h
734 17-08-2010 02:56:04 16.5 C 12.08 g/m*3 16.5 C 0 km/h
735 17-08-2010 03:08:04 16.4 C 11.86 g/m*3 16.4 C 0 km/h
736 17-08-2010 03:20:04 16.4 C 11.86 g/m*3 16.4 C 0 km/h
737 17-08-2010 03:32:04 16.4 C 11.86 g/m*3 16.4 C 0 km/h
738 17-08-2010 03:44:04 16.4 C 11.72 g/m*3 16.4 C 0 km/h
739 17-08-2010 03:56:04 16.5 C 11.65 g/m*3 16.5 C 0 km/h
740 17-08-2010 04:08:04 16.5 C 11.37 g/m*3 16.5 C 0 km/h
741 17-08-2010 04:20:04 16.4 C 11.31 g/m*3 16.4 C 0 km/h
742 17-08-2010 04:32:04 16.4 C 11.17 g/m*3 16.4 C 0 km/h
743 17-08-2010 04:44:04 16.4 C 11.03 g/m*3 16.4 C 0 km/h
744 17-08-2010 04:56:04 16.4 C 11.03 g/m*3 16.4 C 0 km/h
745 17-08-2010 05:08:04 16 C 11.04 g/m*3 16 C 0 km/h
746 17-08-2010 05:20:04 15.5 C 11.24 g/m*3 15.5 C 0 km/h
747 17-08-2010 05:32:05 15.4 C 11.43 g/m*3 15.4 C 0 km/h
748 17-08-2010 05:44:05 15.6 C 11.57 g/m*3 15.6 C 0 km/h
749 17-08-2010 05:56:05 15.6 C 11.44 g/m*3 15.6 C 0 km/h
750 17-08-2010 06:08:05 15.7 C 11.37 g/m*3 15.7 C 0 km/h
Sensor: Nr:Datum:Temp:Abs-Feuchte:Windchill:Wind:
Aussen-T/F 751 17-08-2010 06:20:05 15.8 C 11.31 g/m*3 15.8 C 0 km/h
752 17-08-2010 06:32:05 15.8 C 11.31 g/m*3 15.8 C 0 km/h
753 17-08-2010 06:44:05 15.9 C 11.24 g/m*3 15.9 C 0 km/h
754 17-08-2010 06:56:02 16 C 10.9 g/m*3 16 C 0 km/h
755 17-08-2010 07:08:02 16.2 C 10.89 g/m*3 16.2 C 0 km/h
756 17-08-2010 07:20:24 16.2 C 10.76 g/m*3 16.2 C 0 km/h
757 17-08-2010 07:32:02 16.3 C 10.96 g/m*3 16.3 C 0 km/h
758 17-08-2010 07:44:02 16.4 C 10.89 g/m*3 16.4 C 0 km/h
759 17-08-2010 07:56:01 16.7 C 10.66 g/m*3 16.7 C 0 km/h
760 17-08-2010 08:08:03 16.7 C 10.66 g/m*3 16.7 C 0 km/h
761 17-08-2010 08:20:01 16.8 C 10.58 g/m*3 16.8 C 0 km/h
762 17-08-2010 08:32:02 16.7 C 10.23 g/m*3 16.7 C 0 km/h
763 17-08-2010 08:44:02 16.7 C 10.09 g/m*3 16.7 C 0 km/h
764 17-08-2010 08:56:02 16.7 C 10.09 g/m*3 16.7 C 0 km/h
765 17-08-2010 09:08:02 16.8 C 10.01 g/m*3 16.8 C 0 km/h
766 17-08-2010 09:20:02 16.9 C 9.78 g/m*3 16.9 C 0 km/h
767 17-08-2010 09:32:02 16.9 C 9.64 g/m*3 16.9 C 0 km/h
768 17-08-2010 09:44:02 17.1 C 9.46 g/m*3 17.1 C 0 km/h
769 17-08-2010 09:56:02 17.2 C 9.37 g/m*3 17.2 C 0 km/h
770 17-08-2010 10:08:02 17 C 9.26 g/m*3 17 C 0 km/h
771 17-08-2010 10:20:01 17 C 9.26 g/m*3 17 C 0 km/h
772 17-08-2010 10:32:02 17 C 9.41 g/m*3 17 C 0 km/h
773 17-08-2010 10:44:02 17 C 9.41 g/m*3 17 C 0 km/h
774 17-08-2010 10:56:02 17.3 C 9.43 g/m*3 17.3 C 0 km/h
775 17-08-2010 11:08:02 17.6 C 9.45 g/m*3 17.6 C 0 km/h
Sensor: Nr:Datum:Temp:Abs-Feuchte:Windchill:Wind:
Aussen-T/F 776 17-08-2010 11:20:02 17.3 C 9.58 g/m*3 17.3 C 0 km/h
777 17-08-2010 11:32:02 17.6 C 9.3 g/m*3 17.6 C 0 km/h
778 17-08-2010 11:44:02 17.7 C 8.75 g/m*3 17.7 C 0 km/h
779 17-08-2010 11:56:02 17.7 C 8.9 g/m*3 17.7 C 0 km/h
780 17-08-2010 12:08:02 17.6 C 8.85 g/m*3 17.6 C 0 km/h
781 17-08-2010 12:20:02 16.8 C 9.58 g/m*3 16.8 C 0 km/h
782 17-08-2010 12:32:02 16 C 10.08 g/m*3 16 C 0 km/h
783 17-08-2010 12:44:02 16.4 C 11.03 g/m*3 16.4 C 0 km/h
784 17-08-2010 12:56:02 16.3 C 10.96 g/m*3 16.3 C 0 km/h
785 17-08-2010 13:08:02 16.5 C 11.23 g/m*3 16.5 C 0 km/h
786 17-08-2010 13:20:02 16.8 C 11.58 g/m*3 16.8 C 0 km/h
787 17-08-2010 13:32:02 17.7 C 11.92 g/m*3 17.7 C 0 km/h
788 17-08-2010 13:44:02 17.9 C 11.76 g/m*3 17.9 C 0 km/h
789 17-08-2010 13:56:02 17.6 C 12.15 g/m*3 17.6 C 0 km/h
790 17-08-2010 14:08:01 17.7 C 10.41 g/m*3 17.7 C 0 km/h
791 17-08-2010 14:20:02 17.3 C 9.28 g/m*3 17.3 C 0 km/h
792 17-08-2010 14:32:02 17.4 C 9.19 g/m*3 17.4 C 0 km/h
793 17-08-2010 14:44:02 18.1 C 8.65 g/m*3 18.1 C 0 km/h
794 17-08-2010 14:56:02 18.2 C 8.24 g/m*3 18.2 C 0 km/h
795 17-08-2010 15:08:01 17.9 C 7.94 g/m*3 17.9 C 0 km/h
796 17-08-2010 15:20:01 18.3 C 7.97 g/m*3 18.3 C 0 km/h
797 17-08-2010 15:32:02 18 C 7.99 g/m*3 18 C 0 km/h
798 17-08-2010 15:44:02 16 C 9.4 g/m*3 16 C 0 km/h
799 17-08-2010 15:56:02 15.2 C 9.99 g/m*3 15.2 C 0 km/h
800 17-08-2010 16:08:02 14.9 C 10.2 g/m*3 14.9 C 0 km/h
Sensor: Nr:Datum:Temp:Abs-Feuchte:Windchill:Wind:
Aussen-T/F 801 17-08-2010 16:20:01 14.6 C 10.01 g/m*3 14.6 C 0 km/h
802 17-08-2010 16:32:02 14.4 C 9.64 g/m*3 14.4 C 0 km/h
803 17-08-2010 16:44:02 14.8 C 9.37 g/m*3 14.8 C 0 km/h
804 17-08-2010 16:56:02 14.8 C 9.5 g/m*3 14.8 C 0 km/h
805 17-08-2010 17:08:02 14.5 C 9.45 g/m*3 14.5 C 0 km/h
806 17-08-2010 17:20:01 14.4 C 9.64 g/m*3 14.4 C 0 km/h
807 17-08-2010 17:32:02 14.2 C 9.77 g/m*3 14.2 C 0 km/h
808 17-08-2010 17:44:02 14.3 C 10.32 g/m*3 14.3 C 0 km/h
809 17-08-2010 17:56:02 14.7 C 10.7 g/m*3 14.7 C 0 km/h
810 17-08-2010 18:08:02 14.3 C 10.57 g/m*3 14.3 C 0 km/h
811 17-08-2010 18:20:02 14.4 C 10.75 g/m*3 14.4 C 0 km/h
812 17-08-2010 18:32:02 14.8 C 11.15 g/m*3 14.8 C 0 km/h
813 17-08-2010 18:44:02 15.2 C 11.29 g/m*3 15.2 C 0 km/h
814 17-08-2010 18:56:02 15.3 C 11.23 g/m*3 15.3 C 0 km/h
815 17-08-2010 19:08:02 15.2 C 11.16 g/m*3 15.2 C 0 km/h
816 17-08-2010 19:20:02 15 C 11.03 g/m*3 15 C 0 km/h
817 17-08-2010 19:32:02 14.8 C 11.02 g/m*3 14.8 C 0 km/h
818 17-08-2010 19:44:02 14.7 C 11.08 g/m*3 14.7 C 0 km/h
819 17-08-2010 19:56:02 14.5 C 10.94 g/m*3 14.5 C 0 km/h
820 17-08-2010 20:08:01 14.4 C 11 g/m*3 14.4 C 0 km/h
821 17-08-2010 20:20:02 14.4 C 11 g/m*3 14.4 C 0 km/h
822 17-08-2010 20:32:02 14.2 C 10.99 g/m*3 14.2 C 0 km/h
823 17-08-2010 20:44:02 14.3 C 11.06 g/m*3 14.3 C 0 km/h
824 17-08-2010 20:56:02 14.3 C 11.06 g/m*3 14.3 C 0 km/h
825 17-08-2010 21:08:03 14.3 C 11.18 g/m*3 14.3 C 0 km/h
Sensor: Nr:Datum:Temp:Abs-Feuchte:Windchill:Wind:
Aussen-T/F 826 17-08-2010 21:20:02 14.3 C 11.18 g/m*3 14.3 C 0 km/h
827 17-08-2010 21:32:02 14.3 C 11.3 g/m*3 14.3 C 0 km/h
828 17-08-2010 21:44:02 14.4 C 11.37 g/m*3 14.4 C 0 km/h
829 17-08-2010 21:57:04 14.6 C 11.51 g/m*3 14.6 C 0 km/h
830 17-08-2010 22:09:05 14.6 C 11.51 g/m*3 14.6 C 0 km/h
831 17-08-2010 22:21:05 14.4 C 11 g/m*3 14.4 C 0 km/h
832 17-08-2010 22:33:05 14.6 C 10.64 g/m*3 14.6 C 0 km/h
833 17-08-2010 22:45:05 14.7 C 10.45 g/m*3 14.7 C 0 km/h
834 17-08-2010 22:57:05 14.8 C 10.13 g/m*3 14.8 C 0 km/h
835 17-08-2010 23:09:05 14.9 C 10.2 g/m*3 14.9 C 0 km/h
836 17-08-2010 23:21:05 14.9 C 10.2 g/m*3 14.9 C 0 km/h
837 17-08-2010 23:33:05 15 C 10 g/m*3 15 C 0 km/h
838 17-08-2010 23:45:05 15 C 9.87 g/m*3 15 C 0 km/h
839 17-08-2010 23:57:05 15.2 C 9.99 g/m*3 15.2 C 0 km/h
840 18-08-2010 00:09:05 15.3 C 9.79 g/m*3 15.3 C 0 km/h
841 18-08-2010 00:21:05 15.4 C 9.72 g/m*3 15.4 C 0 km/h
842 18-08-2010 00:33:05 15.5 C 9.65 g/m*3 15.5 C 0 km/h
843 18-08-2010 00:45:05 15.7 C 9.63 g/m*3 15.7 C 0 km/h
844 18-08-2010 00:57:05 15.7 C 9.5 g/m*3 15.7 C 0 km/h
845 18-08-2010 01:09:05 15.7 C 9.5 g/m*3 15.7 C 0 km/h
846 18-08-2010 01:21:05 15.8 C 9.42 g/m*3 15.8 C 0 km/h
847 18-08-2010 01:33:05 15.8 C 9.42 g/m*3 15.8 C 0 km/h
848 18-08-2010 01:45:05 15.8 C 9.42 g/m*3 15.8 C 0 km/h
849 18-08-2010 01:57:05 15.7 C 9.37 g/m*3 15.7 C 0 km/h
850 18-08-2010 02:09:05 15.5 C 9.39 g/m*3 15.5 C 0 km/h
Sensor: Nr:Datum:Temp:Abs-Feuchte:Windchill:Wind:
Aussen-T/F 851 18-08-2010 02:21:05 15.6 C 9.44 g/m*3 15.6 C 0 km/h
852 18-08-2010 02:33:05 15.5 C 9.39 g/m*3 15.5 C 0 km/h
853 18-08-2010 02:45:06 15.6 C 9.44 g/m*3 15.6 C 0 km/h
854 18-08-2010 02:57:06 15.5 C 9.52 g/m*3 15.5 C 0 km/h
855 18-08-2010 03:09:06 15.5 C 9.52 g/m*3 15.5 C 0 km/h
856 18-08-2010 03:21:06 15.4 C 9.46 g/m*3 15.4 C 0 km/h
857 18-08-2010 03:33:06 15.5 C 9.52 g/m*3 15.5 C 0 km/h
858 18-08-2010 03:45:06 15.4 C 9.46 g/m*3 15.4 C 0 km/h
859 18-08-2010 03:57:06 15.5 C 9.52 g/m*3 15.5 C 0 km/h
860 18-08-2010 04:09:06 15.4 C 9.33 g/m*3 15.4 C 0 km/h
861 18-08-2010 04:21:06 15.4 C 9.46 g/m*3 15.4 C 0 km/h
862 18-08-2010 04:33:06 15.2 C 9.48 g/m*3 15.2 C 0 km/h
863 18-08-2010 04:45:06 15 C 9.62 g/m*3 15 C 0 km/h
864 18-08-2010 04:57:06 15 C 9.87 g/m*3 15 C 0 km/h
865 18-08-2010 05:09:06 15 C 9.87 g/m*3 15 C 0 km/h
866 18-08-2010 05:21:06 15 C 9.75 g/m*3 15 C 0 km/h
867 18-08-2010 05:33:06 14.9 C 9.81 g/m*3 14.9 C 0 km/h
868 18-08-2010 05:45:06 14.9 C 9.81 g/m*3 14.9 C 0 km/h
869 18-08-2010 05:57:06 15 C 9.75 g/m*3 15 C 0 km/h
870 18-08-2010 06:09:06 15 C 9.62 g/m*3 15 C 0 km/h
871 18-08-2010 06:21:04 15 C 9.62 g/m*3 15 C 0 km/h
872 18-08-2010 06:33:04 15 C 9.49 g/m*3 15 C 0 km/h
873 18-08-2010 06:45:02 15.2 C 9.61 g/m*3 15.2 C 0 km/h
874 18-08-2010 06:57:02 15.2 C 9.48 g/m*3 15.2 C 0 km/h
875 18-08-2010 07:09:01 15.2 C 9.48 g/m*3 15.2 C 0 km/h
Sensor: Nr:Datum:Temp:Abs-Feuchte:Windchill:Wind:
Aussen-T/F 876 18-08-2010 07:21:01 15.3 C 9.66 g/m*3 15.3 C 0 km/h
877 18-08-2010 07:33:02 15.4 C 9.72 g/m*3 15.4 C 0 km/h
878 18-08-2010 07:45:02 15.5 C 9.78 g/m*3 15.5 C 0 km/h
879 18-08-2010 07:57:02 15.8 C 9.83 g/m*3 15.8 C 0 km/h
880 18-08-2010 08:09:02 15.9 C 9.89 g/m*3 15.9 C 0 km/h
881 18-08-2010 08:21:01 16 C 9.81 g/m*3 16 C 0 km/h
882 18-08-2010 08:33:02 16.1 C 9.87 g/m*3 16.1 C 0 km/h
883 18-08-2010 08:45:02 16.3 C 9.85 g/m*3 16.3 C 0 km/h
884 18-08-2010 08:57:02 16.5 C 9.97 g/m*3 16.5 C 0 km/h
885 18-08-2010 09:09:02 16.7 C 10.23 g/m*3 16.7 C 0 km/h
886 18-08-2010 09:21:02 17 C 10.13 g/m*3 17 C 0 km/h
887 18-08-2010 09:33:02 17 C 10.13 g/m*3 17 C 0 km/h
888 18-08-2010 09:45:02 17.5 C 10.14 g/m*3 17.5 C 0 km/h
889 18-08-2010 09:57:02 17.3 C 10.16 g/m*3 17.3 C 0 km/h
890 18-08-2010 10:09:02 17.4 C 10.08 g/m*3 17.4 C 0 km/h
891 18-08-2010 10:21:02 17.8 C 10.32 g/m*3 17.8 C 0 km/h
892 18-08-2010 10:33:01 18 C 10.14 g/m*3 18 C 0 km/h
893 18-08-2010 10:45:02 18.5 C 10.28 g/m*3 18.5 C 0 km/h
894 18-08-2010 10:57:02 19.1 C 10.16 g/m*3 19.1 C 0 km/h
895 18-08-2010 11:09:01 18.8 C 9.99 g/m*3 18.8 C 0 km/h
896 18-08-2010 11:21:02 18.9 C 10.21 g/m*3 18.9 C 0 km/h
897 18-08-2010 11:33:02 18.5 C 10.13 g/m*3 18.5 C 0 km/h
898 18-08-2010 11:45:02 18.5 C 10.28 g/m*3 18.5 C 0 km/h
899 18-08-2010 11:57:02 18.8 C 10.31 g/m*3 18.8 C 0 km/h
900 18-08-2010 12:09:02 19.1 C 10.16 g/m*3 19.1 C 0 km/h
Sensor: Nr:Datum:Temp:Abs-Feuchte:Windchill:Wind:
Aussen-T/F 901 18-08-2010 12:21:02 18.9 C 10.69 g/m*3 18.9 C 0 km/h
902 18-08-2010 12:33:02 18.8 C 10.63 g/m*3 18.8 C 0 km/h
903 18-08-2010 12:45:02 18.3 C 10.94 g/m*3 18.3 C 0 km/h
904 18-08-2010 12:57:02 19 C 10.92 g/m*3 19 C 0 km/h
905 18-08-2010 13:09:02 20 C 10.54 g/m*3 20 C 0 km/h
906 18-08-2010 13:21:02 19.8 C 10.76 g/m*3 19.8 C 0 km/h
907 18-08-2010 13:33:02 20.4 C 10.26 g/m*3 20.4 C 0 km/h
908 18-08-2010 13:45:02 21.5 C 9.99 g/m*3 21.5 C 0 km/h
909 18-08-2010 13:57:02 22.3 C 9.48 g/m*3 22.3 C 0 km/h
910 18-08-2010 14:09:02 22.2 C 9.03 g/m*3 22.2 C 0 km/h
911 18-08-2010 14:21:02 22.7 C 9.29 g/m*3 22.7 C 0 km/h
912 18-08-2010 14:33:02 22.7 C 9.29 g/m*3 22.7 C 0 km/h
913 18-08-2010 14:45:02 23.2 C 8.73 g/m*3 23.2 C 0 km/h
914 18-08-2010 14:57:02 23.4 C 8.83 g/m*3 23.4 C 0 km/h
915 18-08-2010 15:09:02 22.5 C 8.99 g/m*3 22.5 C 0 km/h
916 18-08-2010 15:21:02 21.3 C 9.51 g/m*3 21.3 C 0 km/h
917 18-08-2010 15:33:02 22 C 9.12 g/m*3 22 C 0 km/h
918 18-08-2010 15:45:02 22.4 C 8.74 g/m*3 22.4 C 0 km/h
919 18-08-2010 15:57:02 23 C 8.63 g/m*3 23 C 0 km/h
920 18-08-2010 16:09:02 22.7 C 9.09 g/m*3 22.7 C 0 km/h
921 18-08-2010 16:21:02 22.8 C 9.35 g/m*3 22.8 C 0 km/h
922 18-08-2010 16:33:02 23.6 C 9.15 g/m*3 23.6 C 0 km/h
923 18-08-2010 16:45:01 24.5 C 8.73 g/m*3 24.5 C 0 km/h
924 18-08-2010 16:57:01 24.8 C 8.65 g/m*3 24.8 C 0 km/h
925 18-08-2010 17:09:01 24 C 8.7 g/m*3 24 C 0 km/h
Sensor: Nr:Datum:Temp:Abs-Feuchte:Windchill:Wind:
Aussen-T/F 926 18-08-2010 17:21:01 23.2 C 8.94 g/m*3 23.2 C 0 km/h
927 18-08-2010 17:33:02 23.5 C 8.88 g/m*3 23.5 C 0 km/h
928 18-08-2010 17:45:02 24.5 C 8.95 g/m*3 24.5 C 0 km/h
929 18-08-2010 17:57:02 24.2 C 8.8 g/m*3 24.2 C 0 km/h
930 18-08-2010 18:09:02 22.8 C 9.35 g/m*3 22.8 C 0 km/h
931 18-08-2010 18:21:01 22.9 C 9.4 g/m*3 22.9 C 0 km/h
932 18-08-2010 18:33:02 22.2 C 9.03 g/m*3 22.2 C 0 km/h
933 18-08-2010 18:45:02 22 C 9.12 g/m*3 22 C 0 km/h
934 18-08-2010 18:57:02 21.9 C 8.88 g/m*3 21.9 C 0 km/h
935 18-08-2010 19:09:02 21.3 C 8.95 g/m*3 21.3 C 0 km/h
936 18-08-2010 19:21:01 21.1 C 9.03 g/m*3 21.1 C 0 km/h
937 18-08-2010 19:33:02 20.8 C 9.23 g/m*3 20.8 C 0 km/h
938 18-08-2010 19:45:01 20.4 C 9.38 g/m*3 20.4 C 0 km/h
939 18-08-2010 19:57:01 19.8 C 10.08 g/m*3 19.8 C 0 km/h
940 18-08-2010 20:09:02 19.2 C 10.22 g/m*3 19.2 C 0 km/h
941 18-08-2010 20:21:02 19.5 C 10.07 g/m*3 19.5 C 0 km/h
942 18-08-2010 20:33:02 19.5 C 9.9 g/m*3 19.5 C 0 km/h
943 18-08-2010 20:45:02 19.5 C 9.9 g/m*3 19.5 C 0 km/h
944 18-08-2010 20:57:02 19.5 C 9.9 g/m*3 19.5 C 0 km/h
945 18-08-2010 21:09:01 19.3 C 9.95 g/m*3 19.3 C 0 km/h
946 18-08-2010 21:21:02 19.1 C 10 g/m*3 19.1 C 0 km/h
947 18-08-2010 21:33:01 18.7 C 10.25 g/m*3 18.7 C 0 km/h
948 18-08-2010 21:45:02 18.7 C 10.41 g/m*3 18.7 C 0 km/h
949 18-08-2010 21:57:02 18.3 C 10.32 g/m*3 18.3 C 0 km/h
950 18-08-2010 22:09:01 18.1 C 10.51 g/m*3 18.1 C 0 km/h
Sensor: Nr:Datum:Temp:Abs-Feuchte:Windchill:Wind:
Aussen-T/F 951 18-08-2010 22:22:04 17.7 C 10.56 g/m*3 17.7 C 0 km/h
952 18-08-2010 22:34:04 17.5 C 10.59 g/m*3 17.5 C 0 km/h
953 18-08-2010 22:46:04 17.3 C 10.61 g/m*3 17.3 C 0 km/h
954 18-08-2010 22:58:04 17.4 C 10.67 g/m*3 17.4 C 0 km/h
955 18-08-2010 23:10:04 17.6 C 10.8 g/m*3 17.6 C 0 km/h
956 18-08-2010 23:22:04 17.7 C 10.56 g/m*3 17.7 C 0 km/h
957 18-08-2010 23:34:04 17.6 C 10.2 g/m*3 17.6 C 0 km/h
958 18-08-2010 23:46:04 17.5 C 9.69 g/m*3 17.5 C 0 km/h
959 18-08-2010 23:58:04 17.5 C 9.69 g/m*3 17.5 C 0 km/h
960 19-08-2010 00:10:04 17.4 C 9.19 g/m*3 17.4 C 0 km/h
961 19-08-2010 00:22:04 17.4 C 9.34 g/m*3 17.4 C 0 km/h
962 19-08-2010 00:34:04 17.4 C 9.04 g/m*3 17.4 C 0 km/h
963 19-08-2010 00:46:04 17.3 C 9.13 g/m*3 17.3 C 0 km/h
964 19-08-2010 00:58:04 17.3 C 8.99 g/m*3 17.3 C 0 km/h
965 19-08-2010 01:10:04 17.1 C 9.03 g/m*3 17.1 C 0 km/h
966 19-08-2010 01:22:05 17.1 C 9.17 g/m*3 17.1 C 0 km/h
967 19-08-2010 01:34:05 16.8 C 9.29 g/m*3 16.8 C 0 km/h
968 19-08-2010 01:46:05 16.7 C 9.24 g/m*3 16.7 C 0 km/h
969 19-08-2010 01:58:05 16.6 C 9.18 g/m*3 16.6 C 0 km/h
970 19-08-2010 02:10:05 16.5 C 8.85 g/m*3 16.5 C 0 km/h
971 19-08-2010 02:22:05 16.4 C 8.93 g/m*3 16.4 C 0 km/h
972 19-08-2010 02:34:05 16.3 C 8.6 g/m*3 16.3 C 0 km/h
973 19-08-2010 02:46:05 16.2 C 8.69 g/m*3 16.2 C 0 km/h
974 19-08-2010 02:58:05 16.2 C 8.96 g/m*3 16.2 C 0 km/h
975 19-08-2010 03:10:05 16.1 C 9.18 g/m*3 16.1 C 0 km/h
Sensor: Nr:Datum:Temp:Abs-Feuchte:Windchill:Wind:
Aussen-T/F 976 19-08-2010 03:22:05 16 C 9.26 g/m*3 16 C 0 km/h
977 19-08-2010 03:34:05 15.9 C 9.34 g/m*3 15.9 C 0 km/h
978 19-08-2010 03:46:05 15.8 C 9.15 g/m*3 15.8 C 0 km/h
979 19-08-2010 03:58:05 15.7 C 9.1 g/m*3 15.7 C 0 km/h
980 19-08-2010 04:10:05 15.7 C 9.23 g/m*3 15.7 C 0 km/h
981 19-08-2010 04:22:05 15.6 C 9.18 g/m*3 15.6 C 0 km/h
982 19-08-2010 04:34:05 15.5 C 9.39 g/m*3 15.5 C 0 km/h
983 19-08-2010 04:46:05 15.4 C 9.46 g/m*3 15.4 C 0 km/h
984 19-08-2010 04:58:05 15.5 C 9.65 g/m*3 15.5 C 0 km/h
985 19-08-2010 05:10:05 15.3 C 9.53 g/m*3 15.3 C 0 km/h
986 19-08-2010 05:22:05 15.2 C 9.48 g/m*3 15.2 C 0 km/h
987 19-08-2010 05:34:05 15 C 9.23 g/m*3 15 C 0 km/h
988 19-08-2010 05:46:05 15 C 9.36 g/m*3 15 C 0 km/h
989 19-08-2010 05:58:06 15 C 8.98 g/m*3 15 C 0 km/h
990 19-08-2010 06:10:06 14.8 C 8.99 g/m*3 14.8 C 0 km/h
991 19-08-2010 06:22:06 14.4 C 8.9 g/m*3 14.4 C 0 km/h
992 19-08-2010 06:34:06 14.2 C 8.91 g/m*3 14.2 C 0 km/h
993 19-08-2010 06:46:06 13.7 C 8.76 g/m*3 13.7 C 0 km/h
994 19-08-2010 06:58:06 13.8 C 8.94 g/m*3 13.8 C 0 km/h
995 19-08-2010 07:10:06 13.7 C 8.76 g/m*3 13.7 C 0 km/h
996 19-08-2010 07:22:06 13.9 C 8.15 g/m*3 13.9 C 0 km/h
997 19-08-2010 07:34:06 13.9 C 8.15 g/m*3 13.9 C 0 km/h
998 19-08-2010 07:46:01 14 C 8.08 g/m*3 14 C 0 km/h
999 19-08-2010 07:58:01 14.1 C 7.89 g/m*3 14.1 C 0 km/h
1000 19-08-2010 08:10:02 14.4 C 7.91 g/m*3 14.4 C 0 km/h
Sensor: Nr:Datum:Temp:Abs-Feuchte:Windchill:Wind:
Aussen-T/F 1001 19-08-2010 08:22:01 14.6 C 8.01 g/m*3 14.6 C 0 km/h
1002 19-08-2010 08:34:01 14.8 C 8.11 g/m*3 14.8 C 0 km/h
1003 19-08-2010 08:46:01 14.9 C 8.16 g/m*3 14.9 C 0 km/h
1004 19-08-2010 08:58:01 15.2 C 8.05 g/m*3 15.2 C 0 km/h
1005 19-08-2010 09:10:02 15.3 C 8.23 g/m*3 15.3 C 0 km/h
1006 19-08-2010 09:22:01 15.4 C 8.15 g/m*3 15.4 C 0 km/h
1007 19-08-2010 09:34:01 15.7 C 8.03 g/m*3 15.7 C 0 km/h
1008 19-08-2010 09:46:01 16 C 8.04 g/m*3 16 C 0 km/h
1009 19-08-2010 09:58:01 16.2 C 7.86 g/m*3 16.2 C 0 km/h
1010 19-08-2010 10:10:02 16.6 C 7.91 g/m*3 16.6 C 0 km/h
1011 19-08-2010 10:22:02 17.1 C 7.71 g/m*3 17.1 C 0 km/h
1012 19-08-2010 10:34:02 17.7 C 7.69 g/m*3 17.7 C 0 km/h
1013 19-08-2010 10:46:02 18.8 C 7.73 g/m*3 18.8 C 0 km/h
1014 19-08-2010 10:58:02 19.3 C 7.3 g/m*3 19.3 C 0 km/h
1015 19-08-2010 11:10:02 19.2 C 7.26 g/m*3 19.2 C 0 km/h
1016 19-08-2010 11:22:02 19.5 C 7.38 g/m*3 19.5 C 0 km/h
1017 19-08-2010 11:34:03 20.2 C 6.99 g/m*3 20.2 C 0 km/h
1018 19-08-2010 11:46:02 20.4 C 7.43 g/m*3 20.4 C 0 km/h
1019 19-08-2010 11:58:02 20.7 C 7.2 g/m*3 20.7 C 0 km/h
1020 19-08-2010 12:10:01 20.3 C 7.03 g/m*3 20.3 C 0 km/h
1021 19-08-2010 12:22:02 20.8 C 6.88 g/m*3 20.8 C 0 km/h
1022 19-08-2010 12:34:02 22.1 C 6.64 g/m*3 22.1 C 0 km/h
1023 19-08-2010 12:46:02 22 C 6.4 g/m*3 22 C 0 km/h
1024 19-08-2010 12:58:02 22 C 6.21 g/m*3 22 C 0 km/h
1025 19-08-2010 13:10:03 22.1 C 6.25 g/m*3 22.1 C 0 km/h
Sensor: Nr:Datum:Temp:Abs-Feuchte:Windchill:Wind:
Aussen-T/F 1026 19-08-2010 13:22:02 22.1 C 6.05 g/m*3 22.1 C 0 km/h
1027 19-08-2010 13:34:02 22.6 C 6.23 g/m*3 22.6 C 0 km/h
1028 19-08-2010 13:46:01 22.7 C 6.06 g/m*3 22.7 C 0 km/h
1029 19-08-2010 13:58:01 23.7 C 6.2 g/m*3 23.7 C 0 km/h
1030 19-08-2010 14:10:02 23.3 C 6.27 g/m*3 23.3 C 0 km/h
1031 19-08-2010 14:22:01 22.8 C 6.1 g/m*3 22.8 C 0 km/h
1032 19-08-2010 14:34:01 23.7 C 5.78 g/m*3 23.7 C 0 km/h
1033 19-08-2010 14:46:01 23 C 5.55 g/m*3 23 C 0 km/h
1034 19-08-2010 14:58:01 22.4 C 6.36 g/m*3 22.4 C 0 km/h
1035 19-08-2010 15:10:02 22.4 C 6.95 g/m*3 22.4 C 0 km/h
1036 19-08-2010 15:22:01 23.2 C 6.44 g/m*3 23.2 C 0 km/h
1037 19-08-2010 15:34:01 24.3 C 5.97 g/m*3 24.3 C 0 km/h
1038 19-08-2010 15:46:01 24.6 C 5.63 g/m*3 24.6 C 0 km/h
1039 19-08-2010 15:58:01 24.2 C 5.94 g/m*3 24.2 C 0 km/h
1040 19-08-2010 16:10:01 23.4 C 7.36 g/m*3 23.4 C 0 km/h
1041 19-08-2010 16:22:02 23.5 C 7.4 g/m*3 23.5 C 0 km/h
1042 19-08-2010 16:34:01 23.5 C 7.82 g/m*3 23.5 C 0 km/h
1043 19-08-2010 16:46:03 23.1 C 7.65 g/m*3 23.1 C 0 km/h
1044 19-08-2010 16:58:03 22.9 C 7.97 g/m*3 22.9 C 0 km/h
1045 19-08-2010 17:10:02 22.4 C 8.14 g/m*3 22.4 C 0 km/h
1046 19-08-2010 17:22:02 22.9 C 8.17 g/m*3 22.9 C 0 km/h
1047 19-08-2010 17:34:02 24.1 C 8.1 g/m*3 24.1 C 0 km/h
1048 19-08-2010 17:46:02 24.5 C 7.39 g/m*3 24.5 C 0 km/h
1049 19-08-2010 17:58:02 25.6 C 5.48 g/m*3 25.6 C 0 km/h
1050 19-08-2010 18:10:01 25.1 C 5.32 g/m*3 25.1 C 0 km/h
Sensor: Nr:Datum:Temp:Abs-Feuchte:Windchill:Wind:
Aussen-T/F 1051 19-08-2010 18:22:02 25 C 5.75 g/m*3 25 C 0 km/h
1052 19-08-2010 18:34:02 25.3 C 5.85 g/m*3 25.3 C 0 km/h
1053 19-08-2010 18:46:02 25.7 C 5.99 g/m*3 25.7 C 0 km/h
1054 19-08-2010 18:58:02 26 C 5.84 g/m*3 26 C 0 km/h
1055 19-08-2010 19:10:03 25.8 C 6.98 g/m*3 25.8 C 0 km/h
1056 19-08-2010 19:22:02 25.8 C 6.26 g/m*3 25.8 C 0 km/h
1057 19-08-2010 19:34:02 25.6 C 6.67 g/m*3 25.6 C 0 km/h
1058 19-08-2010 19:46:01 24.9 C 6.87 g/m*3 24.9 C 0 km/h
1059 19-08-2010 19:58:01 24.1 C 6.35 g/m*3 24.1 C 0 km/h
1060 19-08-2010 20:10:02 22.8 C 6.71 g/m*3 22.8 C 0 km/h
1061 19-08-2010 20:22:01 21.3 C 7.08 g/m*3 21.3 C 0 km/h
1062 19-08-2010 20:34:02 20.1 C 7.13 g/m*3 20.1 C 0 km/h
1063 19-08-2010 20:46:01 19.4 C 7.17 g/m*3 19.4 C 0 km/h
1064 19-08-2010 20:58:01 18.9 C 7.45 g/m*3 18.9 C 0 km/h
1065 19-08-2010 21:10:02 18.5 C 7.44 g/m*3 18.5 C 0 km/h
1066 19-08-2010 21:22:01 18.3 C 7.82 g/m*3 18.3 C 0 km/h
1067 19-08-2010 21:34:02 18.2 C 7.77 g/m*3 18.2 C 0 km/h
1068 19-08-2010 21:46:01 17.9 C 8.09 g/m*3 17.9 C 0 km/h
1069 19-08-2010 21:58:01 17.5 C 7.75 g/m*3 17.5 C 0 km/h
1070 19-08-2010 22:10:02 17.3 C 7.96 g/m*3 17.3 C 0 km/h
1071 19-08-2010 22:22:02 17.1 C 8.01 g/m*3 17.1 C 0 km/h
1072 19-08-2010 22:34:02 17 C 7.96 g/m*3 17 C 0 km/h
1073 19-08-2010 22:47:36 16.6 C 8.05 g/m*3 16.6 C 0 km/h
1074 19-08-2010 22:59:36 16.3 C 8.05 g/m*3 16.3 C 0 km/h
1075 19-08-2010 23:11:36 16 C 8.17 g/m*3 16 C 0 km/h
Sensor: Nr:Datum:Temp:Abs-Feuchte:Windchill:Wind:
Aussen-T/F 1076 19-08-2010 23:23:36 15.8 C 8.48 g/m*3 15.8 C 0 km/h
1077 19-08-2010 23:35:36 15.6 C 8.38 g/m*3 15.6 C 0 km/h
1078 19-08-2010 23:47:36 15.5 C 8.46 g/m*3 15.5 C 0 km/h
1079 19-08-2010 23:59:36 15.2 C 8.31 g/m*3 15.2 C 0 km/h
1080 20-08-2010 00:11:36 15.1 C 8.51 g/m*3 15.1 C 0 km/h
1081 20-08-2010 00:23:36 14.9 C 8.54 g/m*3 14.9 C 0 km/h
1082 20-08-2010 00:35:36 14.7 C 8.56 g/m*3 14.7 C 0 km/h
1083 20-08-2010 00:47:36 14.5 C 8.58 g/m*3 14.5 C 0 km/h
1084 20-08-2010 00:59:36 14.4 C 8.53 g/m*3 14.4 C 0 km/h
1085 20-08-2010 01:11:36 14.3 C 8.6 g/m*3 14.3 C 0 km/h
1086 20-08-2010 01:23:36 14.2 C 8.67 g/m*3 14.2 C 0 km/h
1087 20-08-2010 01:35:36 13.9 C 8.63 g/m*3 13.9 C 0 km/h
1088 20-08-2010 01:47:37 14 C 8.56 g/m*3 14 C 0 km/h
1089 20-08-2010 01:59:37 13.8 C 8.58 g/m*3 13.8 C 0 km/h
1090 20-08-2010 02:11:37 13.6 C 8.59 g/m*3 13.6 C 0 km/h
1091 20-08-2010 02:23:37 13.5 C 8.54 g/m*3 13.5 C 0 km/h
1092 20-08-2010 02:35:37 13.3 C 8.66 g/m*3 13.3 C 0 km/h
1093 20-08-2010 02:47:37 13.2 C 8.61 g/m*3 13.2 C 0 km/h
1094 20-08-2010 02:59:37 13.1 C 8.56 g/m*3 13.1 C 0 km/h
1095 20-08-2010 03:11:37 13 C 8.62 g/m*3 13 C 0 km/h
1096 20-08-2010 03:23:03 12.9 C 8.68 g/m*3 12.9 C 0 km/h
1097 20-08-2010 03:35:03 12.8 C 8.62 g/m*3 12.8 C 0 km/h
1098 20-08-2010 03:47:03 12.7 C 8.57 g/m*3 12.7 C 0 km/h
1099 20-08-2010 03:59:03 12.6 C 8.63 g/m*3 12.6 C 0 km/h
1100 20-08-2010 04:11:03 12.4 C 8.63 g/m*3 12.4 C 0 km/h
Sensor: Nr:Datum:Temp:Abs-Feuchte:Windchill:Wind:
Aussen-T/F 1101 20-08-2010 04:23:03 12.4 C 8.63 g/m*3 12.4 C 0 km/h
1102 20-08-2010 04:35:03 12.3 C 8.58 g/m*3 12.3 C 0 km/h
1103 20-08-2010 04:47:03 12.1 C 8.47 g/m*3 12.1 C 0 km/h
1104 20-08-2010 04:59:03 12.1 C 8.58 g/m*3 12.1 C 0 km/h
1105 20-08-2010 05:11:03 12 C 8.53 g/m*3 12 C 0 km/h
1106 20-08-2010 05:23:03 12 C 8.63 g/m*3 12 C 0 km/h
1107 20-08-2010 05:35:03 12 C 8.53 g/m*3 12 C 0 km/h
1108 20-08-2010 05:47:03 11.8 C 8.53 g/m*3 11.8 C 0 km/h
1109 20-08-2010 05:59:03 11.7 C 8.58 g/m*3 11.7 C 0 km/h
1110 20-08-2010 06:11:03 11.6 C 8.52 g/m*3 11.6 C 0 km/h
1111 20-08-2010 06:23:04 11.5 C 8.57 g/m*3 11.5 C 0 km/h
1112 20-08-2010 06:35:04 11.4 C 8.52 g/m*3 11.4 C 0 km/h
1113 20-08-2010 06:47:04 11.4 C 8.52 g/m*3 11.4 C 0 km/h
1114 20-08-2010 06:59:04 11.5 C 8.57 g/m*3 11.5 C 0 km/h
1115 20-08-2010 07:11:04 11.6 C 8.63 g/m*3 11.6 C 0 km/h
1116 20-08-2010 07:23:04 11.6 C 8.73 g/m*3 11.6 C 0 km/h
1117 20-08-2010 07:35:03 11.7 C 8.79 g/m*3 11.7 C 0 km/h
1118 20-08-2010 07:47:03 11.8 C 8.84 g/m*3 11.8 C 0 km/h
1119 20-08-2010 07:59:03 12.1 C 8.9 g/m*3 12.1 C 0 km/h
1120 20-08-2010 08:11:02 12.1 C 9.01 g/m*3 12.1 C 0 km/h
1121 20-08-2010 08:23:02 12.3 C 9.12 g/m*3 12.3 C 0 km/h
1122 20-08-2010 08:35:02 12.5 C 9.24 g/m*3 12.5 C 0 km/h
1123 20-08-2010 08:47:02 12.8 C 9.3 g/m*3 12.8 C 0 km/h
1124 20-08-2010 08:59:02 13 C 9.3 g/m*3 13 C 0 km/h
1125 20-08-2010 09:11:02 13.3 C 9.47 g/m*3 13.3 C 0 km/h
Sensor: Nr:Datum:Temp:Abs-Feuchte:Windchill:Wind:
Aussen-T/F 1126 20-08-2010 09:23:02 13.8 C 9.77 g/m*3 13.8 C 0 km/h
1127 20-08-2010 09:35:02 14.4 C 9.89 g/m*3 14.4 C 0 km/h
1128 20-08-2010 09:47:02 15 C 10 g/m*3 15 C 0 km/h
1129 20-08-2010 09:59:02 16 C 10.08 g/m*3 16 C 0 km/h
1130 20-08-2010 10:11:01 16.8 C 10.29 g/m*3 16.8 C 0 km/h
1131 20-08-2010 10:23:01 17.4 C 10.23 g/m*3 17.4 C 0 km/h
1132 20-08-2010 10:35:02 18.1 C 10.2 g/m*3 18.1 C 0 km/h
1133 20-08-2010 10:47:02 18.6 C 10.35 g/m*3 18.6 C 0 km/h
1134 20-08-2010 10:59:02 19.2 C 10.39 g/m*3 19.2 C 0 km/h
1135 20-08-2010 11:11:02 19.8 C 10.76 g/m*3 19.8 C 0 km/h
1136 20-08-2010 11:23:02 20.5 C 10.68 g/m*3 20.5 C 0 km/h
1137 20-08-2010 11:35:02 20.9 C 10.75 g/m*3 20.9 C 0 km/h
1138 20-08-2010 11:47:02 21.7 C 11.06 g/m*3 21.7 C 0 km/h
1139 20-08-2010 11:59:02 22 C 11.06 g/m*3 22 C 0 km/h
1140 20-08-2010 12:11:02 22.8 C 10.97 g/m*3 22.8 C 0 km/h
1141 20-08-2010 12:23:02 23.2 C 10.6 g/m*3 23.2 C 0 km/h
1142 20-08-2010 12:35:02 23.7 C 11.12 g/m*3 23.7 C 0 km/h
1143 20-08-2010 12:47:01 24.1 C 10.72 g/m*3 24.1 C 0 km/h
1144 20-08-2010 12:59:01 25 C 10.82 g/m*3 25 C 0 km/h
1145 20-08-2010 13:11:01 25.6 C 9.52 g/m*3 25.6 C 0 km/h
1146 20-08-2010 13:23:01 26.4 C 9.71 g/m*3 26.4 C 0 km/h
1147 20-08-2010 13:35:01 27 C 9.01 g/m*3 27 C 0 km/h
1148 20-08-2010 13:47:02 27.5 C 9 g/m*3 27.5 C 0 km/h
1149 20-08-2010 13:59:02 27.3 C 7.85 g/m*3 27.3 C 0 km/h
1150 20-08-2010 14:11:02 27.8 C 8.07 g/m*3 27.8 C 0 km/h
Sensor: Nr:Datum:Temp:Abs-Feuchte:Windchill:Wind:
Aussen-T/F 1151 20-08-2010 14:23:03 28.4 C 8.06 g/m*3 28.4 C 0 km/h
1152 20-08-2010 14:35:02 28.1 C 7.11 g/m*3 28.1 C 0 km/h
1153 20-08-2010 14:47:02 28.6 C 8.43 g/m*3 28.6 C 0 km/h
1154 20-08-2010 14:59:02 28.9 C 7.43 g/m*3 28.9 C 0 km/h
1155 20-08-2010 15:11:02 28.9 C 7.43 g/m*3 28.9 C 0 km/h
1156 20-08-2010 15:23:02 29 C 7.18 g/m*3 29 C 0 km/h
1157 20-08-2010 15:35:01 29.5 C 7.67 g/m*3 29.5 C 0 km/h
1158 20-08-2010 15:47:02 30.1 C 7.32 g/m*3 30.1 C 0 km/h
1159 20-08-2010 15:59:02 30.2 C 7.66 g/m*3 30.2 C 0 km/h
1160 20-08-2010 16:11:01 30.4 C 7.75 g/m*3 30.4 C 0 km/h
1161 20-08-2010 16:23:02 30.5 C 7.48 g/m*3 30.5 C 0 km/h
1162 20-08-2010 16:35:02 30.9 C 7.96 g/m*3 30.9 C 0 km/h
1163 20-08-2010 16:47:02 31 C 7.36 g/m*3 31 C 0 km/h
1164 20-08-2010 16:59:02 30.8 C 7.28 g/m*3 30.8 C 0 km/h
1165 20-08-2010 17:11:02 30.9 C 7.64 g/m*3 30.9 C 0 km/h
1166 20-08-2010 17:23:02 31.2 C 7.12 g/m*3 31.2 C 0 km/h
1167 20-08-2010 17:35:02 31.3 C 7.48 g/m*3 31.3 C 0 km/h
1168 20-08-2010 17:47:02 31.4 C 7.19 g/m*3 31.4 C 0 km/h
1169 20-08-2010 17:59:02 31 C 7.04 g/m*3 31 C 0 km/h
1170 20-08-2010 18:11:02 31.3 C 7.48 g/m*3 31.3 C 0 km/h
1171 20-08-2010 18:23:02 31.4 C 7.52 g/m*3 31.4 C 0 km/h
1172 20-08-2010 18:35:02 31.5 C 7.56 g/m*3 31.5 C 0 km/h
1173 20-08-2010 18:47:02 31 C 7.36 g/m*3 31 C 0 km/h
1174 20-08-2010 18:59:02 30.9 C 8.28 g/m*3 30.9 C 0 km/h
1175 20-08-2010 19:11:02 30.6 C 8.46 g/m*3 30.6 C 0 km/h
Sensor: Nr:Datum:Temp:Abs-Feuchte:Windchill:Wind:
Aussen-T/F 1176 20-08-2010 19:23:03 30.3 C 8.63 g/m*3 30.3 C 0 km/h
1177 20-08-2010 19:35:01 30 C 8.49 g/m*3 30 C 0 km/h
1178 20-08-2010 19:47:02 29 C 8.04 g/m*3 29 C 0 km/h
1179 20-08-2010 19:59:02 28 C 8.43 g/m*3 28 C 0 km/h
1180 20-08-2010 20:11:02 26.6 C 8.81 g/m*3 26.6 C 0 km/h
1181 20-08-2010 20:23:02 25.6 C 9.05 g/m*3 25.6 C 0 km/h
1182 20-08-2010 20:35:01 25 C 9.21 g/m*3 25 C 0 km/h
1183 20-08-2010 20:47:02 24.5 C 8.95 g/m*3 24.5 C 0 km/h
1184 20-08-2010 20:59:03 23.8 C 9.25 g/m*3 23.8 C 0 km/h
1185 20-08-2010 21:11:01 23.4 C 9.25 g/m*3 23.4 C 0 km/h
1186 20-08-2010 21:23:01 23.3 C 9.41 g/m*3 23.3 C 0 km/h
1187 20-08-2010 21:35:01 23.2 C 9.56 g/m*3 23.2 C 0 km/h
1188 20-08-2010 21:47:02 22.9 C 9.81 g/m*3 22.9 C 0 km/h
1189 20-08-2010 21:59:02 22.6 C 9.84 g/m*3 22.6 C 0 km/h
1190 20-08-2010 22:11:02 22.5 C 9.99 g/m*3 22.5 C 0 km/h
1191 20-08-2010 22:23:03 22.1 C 9.96 g/m*3 22.1 C 0 km/h
1192 20-08-2010 22:35:02 21.9 C 10.42 g/m*3 21.9 C 0 km/h
1193 20-08-2010 22:48:02 21.6 C 10.43 g/m*3 21.6 C 0 km/h
1194 20-08-2010 23:00:02 21.4 C 10.5 g/m*3 21.4 C 0 km/h
1195 20-08-2010 23:12:02 21.1 C 10.69 g/m*3 21.1 C 0 km/h
1196 20-08-2010 23:24:02 20.9 C 10.75 g/m*3 20.9 C 0 km/h
1197 20-08-2010 23:36:02 20.7 C 10.62 g/m*3 20.7 C 0 km/h
1198 20-08-2010 23:48:02 20.4 C 10.61 g/m*3 20.4 C 0 km/h
1199 21-08-2010 00:00:02 20.2 C 10.67 g/m*3 20.2 C 0 km/h
1200 21-08-2010 00:12:02 20 C 10.71 g/m*3 20 C 0 km/h
Sensor: Nr:Datum:Temp:Abs-Feuchte:Windchill:Wind:
Aussen-T/F 1201 21-08-2010 00:24:02 19.7 C 10.7 g/m*3 19.7 C 0 km/h
1202 21-08-2010 00:36:02 19.6 C 10.8 g/m*3 19.6 C 0 km/h
1203 21-08-2010 00:48:02 19.3 C 10.95 g/m*3 19.3 C 0 km/h
1204 21-08-2010 01:00:02 19.1 C 10.98 g/m*3 19.1 C 0 km/h
1205 21-08-2010 01:12:02 19 C 10.92 g/m*3 19 C 0 km/h
1206 21-08-2010 01:24:02 18.8 C 11.11 g/m*3 18.8 C 0 km/h
1207 21-08-2010 01:36:02 18.7 C 11.05 g/m*3 18.7 C 0 km/h
1208 21-08-2010 01:48:02 18.6 C 10.98 g/m*3 18.6 C 0 km/h
1209 21-08-2010 02:00:02 18.4 C 11.01 g/m*3 18.4 C 0 km/h
1210 21-08-2010 02:12:02 18.2 C 11.04 g/m*3 18.2 C 0 km/h
1211 21-08-2010 02:24:03 18.1 C 10.97 g/m*3 18.1 C 0 km/h
1212 21-08-2010 02:36:03 18.1 C 11.12 g/m*3 18.1 C 0 km/h
1213 21-08-2010 02:48:03 18 C 11.06 g/m*3 18 C 0 km/h
1214 21-08-2010 03:00:03 17.9 C 11.15 g/m*3 17.9 C 0 km/h
1215 21-08-2010 03:12:03 17.8 C 11.08 g/m*3 17.8 C 0 km/h
1216 21-08-2010 03:24:03 17.7 C 11.16 g/m*3 17.7 C 0 km/h
1217 21-08-2010 03:36:03 17.5 C 11.03 g/m*3 17.5 C 0 km/h
1218 21-08-2010 03:48:03 17.4 C 11.12 g/m*3 17.4 C 0 km/h
1219 21-08-2010 04:00:03 17.3 C 11.2 g/m*3 17.3 C 0 km/h
1220 21-08-2010 04:12:03 17.2 C 11.13 g/m*3 17.2 C 0 km/h
1221 21-08-2010 04:24:03 17.1 C 11.06 g/m*3 17.1 C 0 km/h
1222 21-08-2010 04:36:03 16.9 C 11.08 g/m*3 16.9 C 0 km/h
1223 21-08-2010 04:48:03 16.8 C 11.15 g/m*3 16.8 C 0 km/h
1224 21-08-2010 05:00:03 16.7 C 11.08 g/m*3 16.7 C 0 km/h
1225 21-08-2010 05:12:03 16.5 C 10.95 g/m*3 16.5 C 0 km/h
Sensor: Nr:Datum:Temp:Abs-Feuchte:Windchill:Wind:
Aussen-T/F 1226 21-08-2010 05:24:03 16.5 C 10.95 g/m*3 16.5 C 0 km/h
1227 21-08-2010 05:36:03 16.3 C 10.82 g/m*3 16.3 C 0 km/h
1228 21-08-2010 05:48:03 16.3 C 10.96 g/m*3 16.3 C 0 km/h
1229 21-08-2010 06:00:03 16.2 C 10.89 g/m*3 16.2 C 0 km/h
1230 21-08-2010 06:12:03 16.1 C 10.83 g/m*3 16.1 C 0 km/h
1231 21-08-2010 06:24:04 16 C 10.9 g/m*3 16 C 0 km/h
1232 21-08-2010 06:36:04 16 C 10.9 g/m*3 16 C 0 km/h
1233 21-08-2010 06:48:04 15.9 C 10.97 g/m*3 15.9 C 0 km/h
1234 21-08-2010 07:00:04 15.8 C 10.9 g/m*3 15.8 C 0 km/h
1235 21-08-2010 07:12:04 15.9 C 11.1 g/m*3 15.9 C 0 km/h
1236 21-08-2010 07:24:04 16 C 11.04 g/m*3 16 C 0 km/h
1237 21-08-2010 07:36:04 16.1 C 11.1 g/m*3 16.1 C 0 km/h
1238 21-08-2010 07:48:04 16.2 C 11.17 g/m*3 16.2 C 0 km/h
1239 21-08-2010 08:00:04 16.4 C 11.31 g/m*3 16.4 C 0 km/h
1240 21-08-2010 08:12:02 16.6 C 11.58 g/m*3 16.6 C 0 km/h
1241 21-08-2010 08:24:02 16.7 C 11.51 g/m*3 16.7 C 0 km/h
1242 21-08-2010 08:36:02 17 C 11.58 g/m*3 17 C 0 km/h
1243 21-08-2010 08:48:01 17.2 C 11.72 g/m*3 17.2 C 0 km/h
1244 21-08-2010 09:00:01 17.5 C 11.78 g/m*3 17.5 C 0 km/h
1245 21-08-2010 09:12:02 17.9 C 12.06 g/m*3 17.9 C 0 km/h
1246 21-08-2010 09:24:02 18.4 C 12.27 g/m*3 18.4 C 0 km/h
1247 21-08-2010 09:36:01 18.9 C 12.47 g/m*3 18.9 C 0 km/h
1248 21-08-2010 09:48:02 19.4 C 12.51 g/m*3 19.4 C 0 km/h
1249 21-08-2010 10:00:02 20.2 C 12.76 g/m*3 20.2 C 0 km/h
1250 21-08-2010 10:12:02 20.8 C 12.86 g/m*3 20.8 C 0 km/h
Sensor: Nr:Datum:Temp:Abs-Feuchte:Windchill:Wind:
Aussen-T/F 1251 21-08-2010 10:24:02 21.3 C 12.86 g/m*3 21.3 C 0 km/h
1252 21-08-2010 10:36:01 22 C 12.81 g/m*3 22 C 0 km/h
1253 21-08-2010 10:48:02 22.7 C 12.93 g/m*3 22.7 C 0 km/h
1254 21-08-2010 11:00:02 23.3 C 12.96 g/m*3 23.3 C 0 km/h
1255 21-08-2010 11:12:01 24 C 12.84 g/m*3 24 C 0 km/h
1256 21-08-2010 11:24:02 24.7 C 12.68 g/m*3 24.7 C 0 km/h
1257 21-08-2010 11:36:02 25.5 C 11.6 g/m*3 25.5 C 0 km/h
1258 21-08-2010 11:48:01 26.3 C 10.4 g/m*3 26.3 C 0 km/h
1259 21-08-2010 12:00:01 26.8 C 9.93 g/m*3 26.8 C 0 km/h
1260 21-08-2010 12:12:01 27.2 C 9.89 g/m*3 27.2 C 0 km/h
1261 21-08-2010 12:24:01 27.7 C 9.9 g/m*3 27.7 C 0 km/h
1262 21-08-2010 12:36:01 27.9 C 10.01 g/m*3 27.9 C 0 km/h
1263 21-08-2010 12:48:02 28.1 C 9.3 g/m*3 28.1 C 0 km/h
1264 21-08-2010 13:00:02 28.4 C 9.73 g/m*3 28.4 C 0 km/h
1265 21-08-2010 13:12:02 28.8 C 9.38 g/m*3 28.8 C 0 km/h
1266 21-08-2010 13:24:01 29.2 C 9 g/m*3 29.2 C 0 km/h
1267 21-08-2010 13:36:02 29.5 C 8.85 g/m*3 29.5 C 0 km/h
1268 21-08-2010 13:48:01 29.7 C 8.95 g/m*3 29.7 C 0 km/h
1269 21-08-2010 14:00:01 29.9 C 9.05 g/m*3 29.9 C 0 km/h
1270 21-08-2010 14:12:02 30.3 C 8.94 g/m*3 30.3 C 0 km/h
1271 21-08-2010 14:24:01 30.3 C 8.63 g/m*3 30.3 C 0 km/h
1272 21-08-2010 14:36:02 30.6 C 8.46 g/m*3 30.6 C 0 km/h
1273 21-08-2010 14:48:01 31 C 8.32 g/m*3 31 C 0 km/h
1274 21-08-2010 15:00:01 30.8 C 8.55 g/m*3 30.8 C 0 km/h
1275 21-08-2010 15:12:02 31.4 C 8.83 g/m*3 31.4 C 0 km/h
Sensor: Nr:Datum:Temp:Abs-Feuchte:Windchill:Wind:
Aussen-T/F 1276 21-08-2010 15:24:02 31.4 C 8.17 g/m*3 31.4 C 0 km/h
1277 21-08-2010 15:36:02 31.2 C 9.06 g/m*3 31.2 C 0 km/h
1278 21-08-2010 15:48:02 31.6 C 7.93 g/m*3 31.6 C 0 km/h
1279 21-08-2010 16:00:02 32.1 C 7.81 g/m*3 32.1 C 0 km/h
1280 21-08-2010 16:12:02 32.2 C 7.51 g/m*3 32.2 C 0 km/h
1281 21-08-2010 16:24:02 32.5 C 7.28 g/m*3 32.5 C 0 km/h
1282 21-08-2010 16:36:01 32.1 C 7.81 g/m*3 32.1 C 0 km/h
1283 21-08-2010 16:48:02 31.8 C 9.02 g/m*3 31.8 C 0 km/h
1284 21-08-2010 17:00:02 32.1 C 8.15 g/m*3 32.1 C 0 km/h
1285 21-08-2010 17:12:01 32.4 C 7.59 g/m*3 32.4 C 0 km/h
1286 21-08-2010 17:24:02 32.3 C 7.55 g/m*3 32.3 C 0 km/h
1287 21-08-2010 17:36:02 32.8 C 7.4 g/m*3 32.8 C 0 km/h
1288 21-08-2010 17:48:02 32.3 C 7.2 g/m*3 32.3 C 0 km/h
1289 21-08-2010 18:00:02 32.6 C 7.32 g/m*3 32.6 C 0 km/h
1290 21-08-2010 18:12:02 32.5 C 7.63 g/m*3 32.5 C 0 km/h
1291 21-08-2010 18:24:02 32.7 C 7.36 g/m*3 32.7 C 0 km/h
1292 21-08-2010 18:36:02 32.3 C 7.55 g/m*3 32.3 C 0 km/h
1293 21-08-2010 18:48:02 32 C 7.09 g/m*3 32 C 0 km/h
1294 21-08-2010 19:00:02 31.9 C 7.05 g/m*3 31.9 C 0 km/h
1295 21-08-2010 19:12:02 32 C 7.76 g/m*3 32 C 0 km/h
1296 21-08-2010 19:24:01 31.7 C 7.64 g/m*3 31.7 C 0 km/h
1297 21-08-2010 19:36:02 31.5 C 8.22 g/m*3 31.5 C 0 km/h
1298 21-08-2010 19:48:02 31.2 C 9.06 g/m*3 31.2 C 0 km/h
1299 21-08-2010 20:00:02 30.6 C 8.46 g/m*3 30.6 C 0 km/h
1300 21-08-2010 20:12:02 30 C 9.4 g/m*3 30 C 0 km/h
Sensor: Nr:Datum:Temp:Abs-Feuchte:Windchill:Wind:
Aussen-T/F 1301 21-08-2010 20:24:01 28.5 C 9.22 g/m*3 28.5 C 0 km/h
1302 21-08-2010 20:36:02 28.1 C 9.57 g/m*3 28.1 C 0 km/h
1303 21-08-2010 20:48:02 26.9 C 9.73 g/m*3 26.9 C 0 km/h
1304 21-08-2010 21:00:02 26.5 C 10.01 g/m*3 26.5 C 0 km/h
1305 21-08-2010 21:12:02 26.2 C 10.09 g/m*3 26.2 C 0 km/h
1306 21-08-2010 21:24:02 25.8 C 10.35 g/m*3 25.8 C 0 km/h
1307 21-08-2010 21:36:02 25.3 C 10.3 g/m*3 25.3 C 0 km/h
1308 21-08-2010 21:48:02 24.8 C 10.47 g/m*3 24.8 C 0 km/h
1309 21-08-2010 22:00:02 24.8 C 10.7 g/m*3 24.8 C 0 km/h
1310 21-08-2010 22:12:02 24.5 C 10.74 g/m*3 24.5 C 0 km/h
1311 21-08-2010 22:24:02 24.4 C 10.9 g/m*3 24.4 C 0 km/h
1312 21-08-2010 22:36:02 24.1 C 10.94 g/m*3 24.1 C 0 km/h
1313 21-08-2010 22:48:01 23.9 C 11.03 g/m*3 23.9 C 0 km/h
1314 21-08-2010 23:00:01 23.6 C 10.85 g/m*3 23.6 C 0 km/h
1315 21-08-2010 23:12:02 23.4 C 11.35 g/m*3 23.4 C 0 km/h
1316 21-08-2010 23:24:01 23.3 C 11.08 g/m*3 23.3 C 0 km/h
1317 21-08-2010 23:36:02 22.9 C 11.44 g/m*3 22.9 C 0 km/h
1318 21-08-2010 23:48:01 22.6 C 11.45 g/m*3 22.6 C 0 km/h
1319 22-08-2010 00:00:01 22.3 C 11.26 g/m*3 22.3 C 0 km/h
1320 22-08-2010 00:13:04 22.3 C 11.45 g/m*3 22.3 C 0 km/h
1321 22-08-2010 00:25:04 22 C 11.45 g/m*3 22 C 0 km/h
1322 22-08-2010 00:37:04 21.8 C 11.51 g/m*3 21.8 C 0 km/h
1323 22-08-2010 00:49:04 21.6 C 11.57 g/m*3 21.6 C 0 km/h
1324 22-08-2010 01:01:04 21.5 C 11.69 g/m*3 21.5 C 0 km/h
1325 22-08-2010 01:13:04 21.2 C 11.49 g/m*3 21.2 C 0 km/h
Sensor: Nr:Datum:Temp:Abs-Feuchte:Windchill:Wind:
Aussen-T/F 1326 22-08-2010 01:25:04 21 C 11.54 g/m*3 21 C 0 km/h
1327 22-08-2010 01:37:04 20.9 C 11.84 g/m*3 20.9 C 0 km/h
1328 22-08-2010 01:49:04 20.6 C 11.81 g/m*3 20.6 C 0 km/h
1329 22-08-2010 02:01:05 20.5 C 11.74 g/m*3 20.5 C 0 km/h
1330 22-08-2010 02:13:05 20.4 C 11.85 g/m*3 20.4 C 0 km/h
1331 22-08-2010 02:25:05 20.1 C 11.82 g/m*3 20.1 C 0 km/h
1332 22-08-2010 02:37:05 19.9 C 12.03 g/m*3 19.9 C 0 km/h
1333 22-08-2010 02:49:05 19.8 C 11.96 g/m*3 19.8 C 0 km/h
1334 22-08-2010 03:01:05 19.7 C 12.06 g/m*3 19.7 C 0 km/h
1335 22-08-2010 03:13:05 19.7 C 12.23 g/m*3 19.7 C 0 km/h
1336 22-08-2010 03:25:05 19.5 C 12.08 g/m*3 19.5 C 0 km/h
1337 22-08-2010 03:37:05 19.3 C 11.94 g/m*3 19.3 C 0 km/h
1338 22-08-2010 03:49:05 19.4 C 12.18 g/m*3 19.4 C 0 km/h
1339 22-08-2010 04:01:05 19.3 C 12.11 g/m*3 19.3 C 0 km/h
1340 22-08-2010 04:13:05 19.3 C 12.27 g/m*3 19.3 C 0 km/h
1341 22-08-2010 04:25:05 19.2 C 12.04 g/m*3 19.2 C 0 km/h
1342 22-08-2010 04:37:05 19.1 C 11.97 g/m*3 19.1 C 0 km/h
1343 22-08-2010 04:49:05 18.9 C 12.15 g/m*3 18.9 C 0 km/h
1344 22-08-2010 05:01:05 18.8 C 12.08 g/m*3 18.8 C 0 km/h
1345 22-08-2010 05:13:05 18.6 C 11.94 g/m*3 18.6 C 0 km/h
1346 22-08-2010 05:25:05 18.5 C 12.18 g/m*3 18.5 C 0 km/h
1347 22-08-2010 05:37:05 18.5 C 12.18 g/m*3 18.5 C 0 km/h
1348 22-08-2010 05:49:05 18.3 C 12.04 g/m*3 18.3 C 0 km/h
1349 22-08-2010 06:01:06 18.1 C 12.05 g/m*3 18.1 C 0 km/h
1350 22-08-2010 06:13:06 18 C 11.98 g/m*3 18 C 0 km/h
Sensor: Nr:Datum:Temp:Abs-Feuchte:Windchill:Wind:
Aussen-T/F 1351 22-08-2010 06:25:06 18 C 11.98 g/m*3 18 C 0 km/h
1352 22-08-2010 06:37:06 17.9 C 12.06 g/m*3 17.9 C 0 km/h
1353 22-08-2010 06:49:06 18 C 11.98 g/m*3 18 C 0 km/h
1354 22-08-2010 07:01:06 18 C 11.98 g/m*3 18 C 0 km/h
1355 22-08-2010 07:13:06 18.1 C 12.05 g/m*3 18.1 C 0 km/h
1356 22-08-2010 07:25:06 18.1 C 12.05 g/m*3 18.1 C 0 km/h
1357 22-08-2010 07:37:06 18.5 C 12.34 g/m*3 18.5 C 0 km/h
1358 22-08-2010 07:49:06 18.8 C 12.56 g/m*3 18.8 C 0 km/h
1359 22-08-2010 08:01:06 18.9 C 12.47 g/m*3 18.9 C 0 km/h
1360 22-08-2010 08:13:06 18.7 C 12.49 g/m*3 18.7 C 0 km/h
1361 22-08-2010 08:25:06 18.8 C 12.72 g/m*3 18.8 C 0 km/h
1362 22-08-2010 08:37:06 19.1 C 12.79 g/m*3 19.1 C 0 km/h
1363 22-08-2010 08:49:01 19.3 C 12.61 g/m*3 19.3 C 0 km/h
1364 22-08-2010 09:01:01 19.4 C 12.51 g/m*3 19.4 C 0 km/h
1365 22-08-2010 09:13:01 20 C 12.62 g/m*3 20 C 0 km/h
1366 22-08-2010 09:25:02 20.3 C 12.66 g/m*3 20.3 C 0 km/h
1367 22-08-2010 09:37:01 20.6 C 12.71 g/m*3 20.6 C 0 km/h
1368 22-08-2010 09:49:01 21.3 C 12.68 g/m*3 21.3 C 0 km/h
1369 22-08-2010 10:01:01 21.6 C 12.71 g/m*3 21.6 C 0 km/h
1370 22-08-2010 10:13:01 22.2 C 12.37 g/m*3 22.2 C 0 km/h
1371 22-08-2010 10:25:02 23.7 C 13.05 g/m*3 23.7 C 0 km/h
1372 22-08-2010 10:37:01 24.2 C 12.32 g/m*3 24.2 C 0 km/h
1373 22-08-2010 10:49:03 23.8 C 12.91 g/m*3 23.8 C 0 km/h
1374 22-08-2010 11:01:02 23.8 C 12.91 g/m*3 23.8 C 0 km/h
1375 22-08-2010 11:13:02 24.1 C 12.91 g/m*3 24.1 C 0 km/h
Sensor: Nr:Datum:Temp:Abs-Feuchte:Windchill:Wind:
Aussen-T/F 1376 22-08-2010 11:25:02 25 C 12.2 g/m*3 25 C 0 km/h
1377 22-08-2010 11:37:02 25.5 C 13.26 g/m*3 25.5 C 0 km/h
1378 22-08-2010 11:49:02 26 C 12.17 g/m*3 26 C 0 km/h
1379 22-08-2010 12:01:01 26.7 C 12.15 g/m*3 26.7 C 0 km/h
1380 22-08-2010 12:13:01 27.3 C 12.04 g/m*3 27.3 C 0 km/h
1381 22-08-2010 12:25:02 27.9 C 11.63 g/m*3 27.9 C 0 km/h
1382 22-08-2010 12:37:02 27.6 C 11.17 g/m*3 27.6 C 0 km/h
1383 22-08-2010 12:49:02 27.8 C 11.3 g/m*3 27.8 C 0 km/h
1384 22-08-2010 13:01:03 27.7 C 11.23 g/m*3 27.7 C 0 km/h
1385 22-08-2010 13:13:03 28 C 11.15 g/m*3 28 C 0 km/h
1386 22-08-2010 13:25:02 28.7 C 10.17 g/m*3 28.7 C 0 km/h
1387 22-08-2010 13:37:02 28.9 C 10.28 g/m*3 28.9 C 0 km/h
1388 22-08-2010 13:49:02 28.9 C 9.71 g/m*3 28.9 C 0 km/h
1389 22-08-2010 14:01:02 29.6 C 10.68 g/m*3 29.6 C 0 km/h
1390 22-08-2010 14:13:02 29.7 C 10.14 g/m*3 29.7 C 0 km/h
1391 22-08-2010 14:25:01 29.6 C 10.39 g/m*3 29.6 C 0 km/h
1392 22-08-2010 14:37:02 27.7 C 10.43 g/m*3 27.7 C 0 km/h
1393 22-08-2010 14:49:02 27.1 C 10.61 g/m*3 27.1 C 0 km/h
1394 22-08-2010 15:01:02 26 C 11.2 g/m*3 26 C 0 km/h
1395 22-08-2010 15:13:03 25.9 C 11.62 g/m*3 25.9 C 0 km/h
1396 22-08-2010 15:25:01 25.4 C 12.24 g/m*3 25.4 C 0 km/h
1397 22-08-2010 15:37:02 25.1 C 13.2 g/m*3 25.1 C 0 km/h
1398 22-08-2010 15:49:01 26.4 C 12.7 g/m*3 26.4 C 0 km/h
1399 22-08-2010 16:01:02 27.7 C 11.77 g/m*3 27.7 C 0 km/h
1400 22-08-2010 16:13:02 27.9 C 11.63 g/m*3 27.9 C 0 km/h
Sensor: Nr:Datum:Temp:Abs-Feuchte:Windchill:Wind:
Aussen-T/F 1401 22-08-2010 16:25:02 27.9 C 12.17 g/m*3 27.9 C 0 km/h
1402 22-08-2010 16:37:02 28 C 11.97 g/m*3 28 C 0 km/h
1403 22-08-2010 16:49:01 27.5 C 11.91 g/m*3 27.5 C 0 km/h
1404 22-08-2010 17:01:02 27 C 12.1 g/m*3 27 C 0 km/h
1405 22-08-2010 17:13:02 26.8 C 12.22 g/m*3 26.8 C 0 km/h
1406 22-08-2010 17:25:02 26.7 C 12.66 g/m*3 26.7 C 0 km/h
1407 22-08-2010 17:37:02 26.4 C 11.45 g/m*3 26.4 C 0 km/h
1408 22-08-2010 17:49:02 26.5 C 11.01 g/m*3 26.5 C 0 km/h
1409 22-08-2010 18:01:01 26.4 C 10.7 g/m*3 26.4 C 0 km/h
1410 22-08-2010 18:13:01 26.6 C 11.08 g/m*3 26.6 C 0 km/h
1411 22-08-2010 18:25:02 26.5 C 12.02 g/m*3 26.5 C 0 km/h
1412 22-08-2010 18:37:01 26 C 12.17 g/m*3 26 C 0 km/h
1413 22-08-2010 18:49:02 25.9 C 12.59 g/m*3 25.9 C 0 km/h
1414 22-08-2010 19:01:01 25.9 C 12.59 g/m*3 25.9 C 0 km/h
1415 22-08-2010 19:13:01 26.2 C 12.31 g/m*3 26.2 C 0 km/h
1416 22-08-2010 19:25:01 25.6 C 11.67 g/m*3 25.6 C 0 km/h
1417 22-08-2010 19:37:02 25.3 C 10.53 g/m*3 25.3 C 0 km/h
1418 22-08-2010 19:49:02 24.6 C 10.8 g/m*3 24.6 C 0 km/h
1419 22-08-2010 20:01:02 24.6 C 10.8 g/m*3 24.6 C 0 km/h
1420 22-08-2010 20:13:02 24.6 C 10.58 g/m*3 24.6 C 0 km/h
1421 22-08-2010 20:25:02 24.5 C 10.52 g/m*3 24.5 C 0 km/h
1422 22-08-2010 20:37:02 24.3 C 10.62 g/m*3 24.3 C 0 km/h
1423 22-08-2010 20:49:02 24.1 C 10.72 g/m*3 24.1 C 0 km/h
1424 22-08-2010 21:01:01 23.8 C 11.19 g/m*3 23.8 C 0 km/h
1425 22-08-2010 21:13:01 23.2 C 11.23 g/m*3 23.2 C 0 km/h
Sensor: Nr:Datum:Temp:Abs-Feuchte:Windchill:Wind:
Aussen-T/F 1426 22-08-2010 21:25:01 22.9 C 11.44 g/m*3 22.9 C 0 km/h
1427 22-08-2010 21:37:02 22.9 C 11.85 g/m*3 22.9 C 0 km/h
1428 22-08-2010 21:49:02 23 C 11.72 g/m*3 23 C 0 km/h
1429 22-08-2010 22:01:02 23.2 C 11.64 g/m*3 23.2 C 0 km/h
1430 22-08-2010 22:13:02 22.9 C 11.44 g/m*3 22.9 C 0 km/h
1431 22-08-2010 22:25:02 22.6 C 11.65 g/m*3 22.6 C 0 km/h
1432 22-08-2010 22:38:03 22.5 C 11.98 g/m*3 22.5 C 0 km/h
1433 22-08-2010 22:50:03 22.1 C 11.71 g/m*3 22.1 C 0 km/h
1434 22-08-2010 23:02:03 21.8 C 11.9 g/m*3 21.8 C 0 km/h
1435 22-08-2010 23:14:03 21.6 C 11.95 g/m*3 21.6 C 0 km/h
1436 22-08-2010 23:26:03 21.6 C 11.95 g/m*3 21.6 C 0 km/h
1437 22-08-2010 23:38:03 21.4 C 11.81 g/m*3 21.4 C 0 km/h
1438 22-08-2010 23:50:03 21.2 C 11.86 g/m*3 21.2 C 0 km/h
1439 23-08-2010 00:02:03 21.1 C 11.98 g/m*3 21.1 C 0 km/h
1440 23-08-2010 00:14:03 20.9 C 12.02 g/m*3 20.9 C 0 km/h
1441 23-08-2010 00:26:03 20.9 C 12.02 g/m*3 20.9 C 0 km/h
1442 23-08-2010 00:38:03 20.8 C 11.95 g/m*3 20.8 C 0 km/h
1443 23-08-2010 00:50:03 20.7 C 12.06 g/m*3 20.7 C 0 km/h
1444 23-08-2010 01:02:03 20.4 C 12.03 g/m*3 20.4 C 0 km/h
1445 23-08-2010 01:14:03 20.3 C 12.31 g/m*3 20.3 C 0 km/h
1446 23-08-2010 01:26:03 20.3 C 12.14 g/m*3 20.3 C 0 km/h
1447 23-08-2010 01:38:03 20.4 C 12.21 g/m*3 20.4 C 0 km/h
1448 23-08-2010 01:50:03 20.5 C 12.1 g/m*3 20.5 C 0 km/h
1449 23-08-2010 02:02:03 20.4 C 12.21 g/m*3 20.4 C 0 km/h
1450 23-08-2010 02:14:03 20.2 C 12.24 g/m*3 20.2 C 0 km/h
Sensor: Nr:Datum:Temp:Abs-Feuchte:Windchill:Wind:
Aussen-T/F 1451 23-08-2010 02:26:03 19.8 C 12.3 g/m*3 19.8 C 0 km/h
1452 23-08-2010 02:38:03 19.8 C 12.47 g/m*3 19.8 C 0 km/h
1453 23-08-2010 02:50:04 19.9 C 12.37 g/m*3 19.9 C 0 km/h
1454 23-08-2010 03:02:04 19.9 C 12.2 g/m*3 19.9 C 0 km/h
1455 23-08-2010 03:14:04 19.9 C 12.37 g/m*3 19.9 C 0 km/h
1456 23-08-2010 03:26:04 19.9 C 12.37 g/m*3 19.9 C 0 km/h
1457 23-08-2010 03:38:04 19.7 C 12.23 g/m*3 19.7 C 0 km/h
1458 23-08-2010 03:50:04 19.7 C 12.4 g/m*3 19.7 C 0 km/h
1459 23-08-2010 04:02:04 19.6 C 12.32 g/m*3 19.6 C 0 km/h
1460 23-08-2010 04:14:04 19.5 C 12.25 g/m*3 19.5 C 0 km/h
1461 23-08-2010 04:26:04 19.5 C 12.42 g/m*3 19.5 C 0 km/h
1462 23-08-2010 04:38:04 19.5 C 12.42 g/m*3 19.5 C 0 km/h
1463 23-08-2010 04:50:04 19.5 C 12.25 g/m*3 19.5 C 0 km/h
1464 23-08-2010 05:02:04 19.5 C 12.25 g/m*3 19.5 C 0 km/h
1465 23-08-2010 05:14:04 19.4 C 12.18 g/m*3 19.4 C 0 km/h
1466 23-08-2010 05:26:04 19.5 C 12.25 g/m*3 19.5 C 0 km/h
1467 23-08-2010 05:38:04 19.4 C 12.18 g/m*3 19.4 C 0 km/h
1468 23-08-2010 05:50:04 19.4 C 12.18 g/m*3 19.4 C 0 km/h
1469 23-08-2010 06:02:04 19.5 C 12.42 g/m*3 19.5 C 0 km/h
1470 23-08-2010 06:14:04 19.5 C 12.42 g/m*3 19.5 C 0 km/h
1471 23-08-2010 06:26:04 19.4 C 12.35 g/m*3 19.4 C 0 km/h
1472 23-08-2010 06:38:03 19.5 C 12.25 g/m*3 19.5 C 0 km/h
1473 23-08-2010 06:50:02 19.5 C 12.25 g/m*3 19.5 C 0 km/h
1474 23-08-2010 07:02:02 19.3 C 12.27 g/m*3 19.3 C 0 km/h
1475 23-08-2010 07:14:03 19.5 C 12.59 g/m*3 19.5 C 0 km/h
Sensor: Nr:Datum:Temp:Abs-Feuchte:Windchill:Wind:
Aussen-T/F 1476 23-08-2010 07:26:02 19.9 C 12.71 g/m*3 19.9 C 0 km/h
1477 23-08-2010 07:38:02 20.4 C 12.38 g/m*3 20.4 C 0 km/h
1478 23-08-2010 07:50:02 20.5 C 12.46 g/m*3 20.5 C 0 km/h
1479 23-08-2010 08:02:02 20.6 C 12.71 g/m*3 20.6 C 0 km/h
1480 23-08-2010 08:14:02 20.4 C 12.74 g/m*3 20.4 C 0 km/h
1481 23-08-2010 08:26:01 19.5 C 13.26 g/m*3 19.5 C 0 km/h
1482 23-08-2010 08:38:02 19.1 C 13.77 g/m*3 19.1 C 0 km/h
1483 23-08-2010 08:50:02 19.1 C 13.93 g/m*3 19.1 C 0 km/h
1484 23-08-2010 09:02:01 19.3 C 14.26 g/m*3 19.3 C 0 km/h
1485 23-08-2010 09:14:01 19.4 C 14.52 g/m*3 19.4 C 0 km/h
1486 23-08-2010 09:26:02 19.4 C 14.52 g/m*3 19.4 C 0 km/h
1487 23-08-2010 09:38:01 19.4 C 14.52 g/m*3 19.4 C 0 km/h
1488 23-08-2010 09:50:02 19.7 C 14.77 g/m*3 19.7 C 0 km/h
1489 23-08-2010 10:02:01 20 C 14.86 g/m*3 20 C 0 km/h
1490 23-08-2010 10:14:01 20.4 C 15.21 g/m*3 20.4 C 0 km/h
1491 23-08-2010 10:26:01 20.7 C 15.12 g/m*3 20.7 C 0 km/h
1492 23-08-2010 10:38:02 20.9 C 15.12 g/m*3 20.9 C 0 km/h
1493 23-08-2010 10:50:02 21.2 C 15.01 g/m*3 21.2 C 0 km/h
1494 23-08-2010 11:02:02 21.4 C 15 g/m*3 21.4 C 0 km/h
1495 23-08-2010 11:14:02 21.7 C 14.69 g/m*3 21.7 C 0 km/h
1496 23-08-2010 11:26:02 22.5 C 14.58 g/m*3 22.5 C 0 km/h
1497 23-08-2010 11:38:02 22.8 C 14.63 g/m*3 22.8 C 0 km/h
1498 23-08-2010 11:50:02 22.9 C 14.92 g/m*3 22.9 C 0 km/h
1499 23-08-2010 12:02:02 22.5 C 14.78 g/m*3 22.5 C 0 km/h
1500 23-08-2010 12:14:02 22.7 C 15.36 g/m*3 22.7 C 0 km/h
Sensor: Nr:Datum:Temp:Abs-Feuchte:Windchill:Wind:
Aussen-T/F 1501 23-08-2010 12:26:02 23.3 C 16.1 g/m*3 23.3 C 0 km/h
1502 23-08-2010 12:38:02 23.4 C 15.98 g/m*3 23.4 C 0 km/h
1503 23-08-2010 12:50:01 23.5 C 15.86 g/m*3 23.5 C 0 km/h
1504 23-08-2010 13:02:02 24.2 C 15.18 g/m*3 24.2 C 0 km/h
1505 23-08-2010 13:14:02 24.9 C 14.42 g/m*3 24.9 C 0 km/h
1506 23-08-2010 13:26:01 24 C 13.49 g/m*3 24 C 0 km/h
1507 23-08-2010 13:38:01 23.1 C 13.85 g/m*3 23.1 C 0 km/h
1508 23-08-2010 13:50:01 22.2 C 14.72 g/m*3 22.2 C 0 km/h
1509 23-08-2010 14:02:01 21.9 C 14.86 g/m*3 21.9 C 0 km/h
1510 23-08-2010 14:14:01 23.3 C 14.84 g/m*3 23.3 C 0 km/h
1511 23-08-2010 14:26:01 24.8 C 14.11 g/m*3 24.8 C 0 km/h
1512 23-08-2010 14:38:01 25.8 C 13.72 g/m*3 25.8 C 0 km/h
1513 23-08-2010 14:50:01 25.9 C 13.32 g/m*3 25.9 C 0 km/h
1514 23-08-2010 15:02:01 25.9 C 13.07 g/m*3 25.9 C 0 km/h
1515 23-08-2010 15:14:01 25.9 C 12.59 g/m*3 25.9 C 0 km/h
1516 23-08-2010 15:26:02 26.3 C 12.13 g/m*3 26.3 C 0 km/h
1517 23-08-2010 15:38:01 25.9 C 11.86 g/m*3 25.9 C 0 km/h
1518 23-08-2010 15:50:03 25.3 C 11.94 g/m*3 25.3 C 0 km/h
1519 23-08-2010 16:02:02 25.9 C 11.38 g/m*3 25.9 C 0 km/h
1520 23-08-2010 16:14:02 26.7 C 11.14 g/m*3 26.7 C 0 km/h
1521 23-08-2010 16:26:02 26.6 C 11.33 g/m*3 26.6 C 0 km/h
1522 23-08-2010 16:38:02 25.5 C 11.6 g/m*3 25.5 C 0 km/h
1523 23-08-2010 16:50:02 25 C 11.51 g/m*3 25 C 0 km/h
1524 23-08-2010 17:02:01 25.2 C 10.94 g/m*3 25.2 C 0 km/h
1525 23-08-2010 17:14:01 24.6 C 11.25 g/m*3 24.6 C 0 km/h
Sensor: Nr:Datum:Temp:Abs-Feuchte:Windchill:Wind:
Aussen-T/F 1526 23-08-2010 17:26:02 23.3 C 11.92 g/m*3 23.3 C 0 km/h
1527 23-08-2010 17:38:02 22.7 C 12.53 g/m*3 22.7 C 0 km/h
1528 23-08-2010 17:50:02 22.1 C 12.88 g/m*3 22.1 C 0 km/h
1529 23-08-2010 18:02:01 21.9 C 13.31 g/m*3 21.9 C 0 km/h
1530 23-08-2010 18:14:01 21.6 C 13.47 g/m*3 21.6 C 0 km/h
1531 23-08-2010 18:26:01 21 C 13.74 g/m*3 21 C 0 km/h
1532 23-08-2010 18:38:02 20.7 C 14.22 g/m*3 20.7 C 0 km/h
1533 23-08-2010 18:50:02 20.4 C 13.98 g/m*3 20.4 C 0 km/h
1534 23-08-2010 19:02:02 20.8 C 14.3 g/m*3 20.8 C 0 km/h
1535 23-08-2010 19:14:02 20.9 C 13.84 g/m*3 20.9 C 0 km/h
1536 23-08-2010 19:26:02 20.8 C 13.76 g/m*3 20.8 C 0 km/h
1537 23-08-2010 19:38:02 20.7 C 13.5 g/m*3 20.7 C 0 km/h
1538 23-08-2010 19:50:02 20.6 C 13.42 g/m*3 20.6 C 0 km/h
1539 23-08-2010 20:02:02 20.5 C 13.17 g/m*3 20.5 C 0 km/h
1540 23-08-2010 20:14:02 20.4 C 13.09 g/m*3 20.4 C 0 km/h
1541 23-08-2010 20:26:02 20.4 C 12.91 g/m*3 20.4 C 0 km/h
1542 23-08-2010 20:38:02 20.3 C 12.84 g/m*3 20.3 C 0 km/h
1543 23-08-2010 20:50:02 20.1 C 12.69 g/m*3 20.1 C 0 km/h
1544 23-08-2010 21:02:02 20 C 12.62 g/m*3 20 C 0 km/h
1545 23-08-2010 21:14:02 19.8 C 12.64 g/m*3 19.8 C 0 km/h
1546 23-08-2010 21:26:02 19.7 C 12.74 g/m*3 19.7 C 0 km/h
1547 23-08-2010 21:38:02 19.7 C 12.57 g/m*3 19.7 C 0 km/h
1548 23-08-2010 21:50:02 19.8 C 12.47 g/m*3 19.8 C 0 km/h
1549 23-08-2010 22:03:03 19.7 C 12.4 g/m*3 19.7 C 0 km/h
1550 23-08-2010 22:15:03 19.6 C 12.32 g/m*3 19.6 C 0 km/h
Sensor: Nr:Datum:Temp:Abs-Feuchte:Windchill:Wind:
Aussen-T/F 1551 23-08-2010 22:27:03 19.6 C 12.15 g/m*3 19.6 C 0 km/h
1552 23-08-2010 22:39:03 19.5 C 12.25 g/m*3 19.5 C 0 km/h
1553 23-08-2010 22:51:03 19.5 C 12.08 g/m*3 19.5 C 0 km/h
1554 23-08-2010 23:03:03 19.4 C 12.01 g/m*3 19.4 C 0 km/h
1555 23-08-2010 23:15:03 19.3 C 11.94 g/m*3 19.3 C 0 km/h
1556 23-08-2010 23:27:03 19.3 C 11.94 g/m*3 19.3 C 0 km/h
1557 23-08-2010 23:39:03 19.2 C 11.87 g/m*3 19.2 C 0 km/h
1558 23-08-2010 23:51:03 19.3 C 11.94 g/m*3 19.3 C 0 km/h
1559 24-08-2010 00:03:03 19.2 C 12.04 g/m*3 19.2 C 0 km/h
1560 24-08-2010 00:15:03 19.2 C 12.04 g/m*3 19.2 C 0 km/h
1561 24-08-2010 00:27:03 19.1 C 11.97 g/m*3 19.1 C 0 km/h
1562 24-08-2010 00:39:04 19.2 C 12.2 g/m*3 19.2 C 0 km/h
1563 24-08-2010 00:51:04 19.2 C 12.2 g/m*3 19.2 C 0 km/h
1564 24-08-2010 01:03:04 19.3 C 12.27 g/m*3 19.3 C 0 km/h
1565 24-08-2010 01:15:04 19.2 C 12.37 g/m*3 19.2 C 0 km/h
1566 24-08-2010 01:27:04 19.1 C 12.46 g/m*3 19.1 C 0 km/h
1567 24-08-2010 01:39:04 19.2 C 12.53 g/m*3 19.2 C 0 km/h
1568 24-08-2010 01:51:04 19.2 C 12.53 g/m*3 19.2 C 0 km/h
1569 24-08-2010 02:03:04 19.3 C 12.44 g/m*3 19.3 C 0 km/h
1570 24-08-2010 02:15:04 19.6 C 12.32 g/m*3 19.6 C 0 km/h
1571 24-08-2010 02:27:04 19.9 C 12.37 g/m*3 19.9 C 0 km/h
1572 24-08-2010 02:39:04 20 C 11.92 g/m*3 20 C 0 km/h
1573 24-08-2010 02:51:04 19.6 C 12.32 g/m*3 19.6 C 0 km/h
1574 24-08-2010 03:03:04 19 C 12.22 g/m*3 19 C 0 km/h
1575 24-08-2010 03:15:04 18.7 C 12.33 g/m*3 18.7 C 0 km/h
Sensor: Nr:Datum:Temp:Abs-Feuchte:Windchill:Wind:
Aussen-T/F 1576 24-08-2010 03:27:04 18.4 C 11.64 g/m*3 18.4 C 0 km/h
1577 24-08-2010 03:39:04 17.9 C 11.76 g/m*3 17.9 C 0 km/h
1578 24-08-2010 03:51:04 17.7 C 11.32 g/m*3 17.7 C 0 km/h
1579 24-08-2010 04:03:04 18.1 C 9.73 g/m*3 18.1 C 0 km/h
1580 24-08-2010 04:15:04 18.2 C 9.64 g/m*3 18.2 C 0 km/h
1581 24-08-2010 04:27:04 18.1 C 9.43 g/m*3 18.1 C 0 km/h
1582 24-08-2010 04:39:04 18 C 9.37 g/m*3 18 C 0 km/h
1583 24-08-2010 04:51:05 17.9 C 9.47 g/m*3 17.9 C 0 km/h
1584 24-08-2010 05:03:05 17.4 C 9.48 g/m*3 17.4 C 0 km/h
1585 24-08-2010 05:15:05 17.3 C 9.58 g/m*3 17.3 C 0 km/h
1586 24-08-2010 05:27:05 17.3 C 9.58 g/m*3 17.3 C 0 km/h
1587 24-08-2010 05:39:05 17.2 C 9.37 g/m*3 17.2 C 0 km/h
1588 24-08-2010 05:51:05 17 C 9.55 g/m*3 17 C 0 km/h
1589 24-08-2010 06:03:05 17.1 C 9.46 g/m*3 17.1 C 0 km/h
1590 24-08-2010 06:15:05 17.1 C 9.32 g/m*3 17.1 C 0 km/h
1591 24-08-2010 06:27:05 17 C 9.55 g/m*3 17 C 0 km/h
1592 24-08-2010 06:39:05 17.4 C 9.63 g/m*3 17.4 C 0 km/h
1593 24-08-2010 06:51:05 16.8 C 9.44 g/m*3 16.8 C 0 km/h
1594 24-08-2010 07:03:05 16.8 C 9.58 g/m*3 16.8 C 0 km/h
1595 24-08-2010 07:15:02 16.7 C 9.38 g/m*3 16.7 C 0 km/h
1596 24-08-2010 07:27:02 16.4 C 9.21 g/m*3 16.4 C 0 km/h
1597 24-08-2010 07:39:03 16.2 C 8.96 g/m*3 16.2 C 0 km/h
1598 24-08-2010 07:51:02 16.1 C 9.05 g/m*3 16.1 C 0 km/h
1599 24-08-2010 08:03:02 16 C 8.99 g/m*3 16 C 0 km/h
1600 24-08-2010 08:15:02 16.1 C 8.64 g/m*3 16.1 C 0 km/h
Sensor: Nr:Datum:Temp:Abs-Feuchte:Windchill:Wind:
Aussen-T/F 1601 24-08-2010 08:27:02 16.2 C 8.41 g/m*3 16.2 C 0 km/h
1602 24-08-2010 08:39:02 16.2 C 8.27 g/m*3 16.2 C 0 km/h
1603 24-08-2010 08:51:02 16.3 C 7.91 g/m*3 16.3 C 0 km/h
1604 24-08-2010 09:03:02 16.4 C 7.82 g/m*3 16.4 C 0 km/h
1605 24-08-2010 09:15:02 16.5 C 7.44 g/m*3 16.5 C 0 km/h
1606 24-08-2010 09:27:02 16.7 C 7.11 g/m*3 16.7 C 0 km/h
1607 24-08-2010 09:39:01 17 C 6.95 g/m*3 17 C 0 km/h
1608 24-08-2010 09:51:02 17.2 C 7.18 g/m*3 17.2 C 0 km/h
1609 24-08-2010 10:03:01 17.4 C 7.11 g/m*3 17.4 C 0 km/h
1610 24-08-2010 10:15:02 17.7 C 7.39 g/m*3 17.7 C 0 km/h
1611 24-08-2010 10:27:02 17.8 C 7.29 g/m*3 17.8 C 0 km/h
1612 24-08-2010 10:39:02 18 C 7.07 g/m*3 18 C 0 km/h
1613 24-08-2010 10:51:02 18.5 C 7.28 g/m*3 18.5 C 0 km/h
1614 24-08-2010 11:03:03 18.7 C 7.36 g/m*3 18.7 C 0 km/h
1615 24-08-2010 11:15:02 18.9 C 6.97 g/m*3 18.9 C 0 km/h
1616 24-08-2010 11:27:02 19.1 C 6.72 g/m*3 19.1 C 0 km/h
1617 24-08-2010 11:39:02 19.4 C 6.51 g/m*3 19.4 C 0 km/h
1618 24-08-2010 11:51:01 19.3 C 6.8 g/m*3 19.3 C 0 km/h
1619 24-08-2010 12:03:02 19.1 C 6.56 g/m*3 19.1 C 0 km/h
1620 24-08-2010 12:15:01 19.8 C 6.66 g/m*3 19.8 C 0 km/h
1621 24-08-2010 12:27:01 20.1 C 6.26 g/m*3 20.1 C 0 km/h
1622 24-08-2010 12:39:02 20 C 6.05 g/m*3 20 C 0 km/h
1623 24-08-2010 12:51:01 21.2 C 6.12 g/m*3 21.2 C 0 km/h
1624 24-08-2010 13:03:02 20.3 C 6.16 g/m*3 20.3 C 0 km/h
1625 24-08-2010 13:15:01 20.5 C 6.23 g/m*3 20.5 C 0 km/h
Sensor: Nr:Datum:Temp:Abs-Feuchte:Windchill:Wind:
Aussen-T/F 1626 24-08-2010 13:27:01 21.5 C 5.85 g/m*3 21.5 C 0 km/h
1627 24-08-2010 13:39:02 21.7 C 5.72 g/m*3 21.7 C 0 km/h
1628 24-08-2010 13:51:01 21 C 5.68 g/m*3 21 C 0 km/h
1629 24-08-2010 14:03:02 20.8 C 5.79 g/m*3 20.8 C 0 km/h
1630 24-08-2010 14:15:02 20.9 C 5.83 g/m*3 20.9 C 0 km/h
1631 24-08-2010 14:27:02 21.7 C 5.34 g/m*3 21.7 C 0 km/h
1632 24-08-2010 14:39:02 22.2 C 5.3 g/m*3 22.2 C 0 km/h
1633 24-08-2010 14:51:02 21.7 C 5.15 g/m*3 21.7 C 0 km/h
1634 24-08-2010 15:03:02 21.2 C 5.74 g/m*3 21.2 C 0 km/h
1635 24-08-2010 15:15:02 21.2 C 5.19 g/m*3 21.2 C 0 km/h
1636 24-08-2010 15:27:02 21.6 C 4.93 g/m*3 21.6 C 0 km/h
1637 24-08-2010 15:39:01 22.1 C 5.08 g/m*3 22.1 C 0 km/h
1638 24-08-2010 15:51:02 23 C 4.52 g/m*3 23 C 0 km/h
1639 24-08-2010 16:03:01 23.2 C 4.57 g/m*3 23.2 C 0 km/h
1640 24-08-2010 16:15:02 23.2 C 4.37 g/m*3 23.2 C 0 km/h
1641 24-08-2010 16:27:03 23 C 4.73 g/m*3 23 C 0 km/h
1642 24-08-2010 16:39:01 23.8 C 4.73 g/m*3 23.8 C 0 km/h
1643 24-08-2010 16:51:02 22 C 4.66 g/m*3 22 C 0 km/h
1644 24-08-2010 17:03:02 23 C 4.52 g/m*3 23 C 0 km/h
1645 24-08-2010 17:15:02 23.4 C 4.21 g/m*3 23.4 C 0 km/h
1646 24-08-2010 17:27:02 23.6 C 4.68 g/m*3 23.6 C 0 km/h
1647 24-08-2010 17:39:03 22.9 C 4.9 g/m*3 22.9 C 0 km/h
1648 24-08-2010 17:51:02 23.2 C 5.2 g/m*3 23.2 C 0 km/h
1649 24-08-2010 18:03:02 23.8 C 4.95 g/m*3 23.8 C 0 km/h
1650 24-08-2010 18:15:02 22.8 C 5.08 g/m*3 22.8 C 0 km/h
Sensor: Nr:Datum:Temp:Abs-Feuchte:Windchill:Wind:
Aussen-T/F 1651 24-08-2010 18:27:02 22.9 C 5.11 g/m*3 22.9 C 0 km/h
1652 24-08-2010 18:39:02 22.8 C 5.28 g/m*3 22.8 C 0 km/h
1653 24-08-2010 18:51:02 22.3 C 5.13 g/m*3 22.3 C 0 km/h
1654 24-08-2010 19:03:03 22.5 C 5.19 g/m*3 22.5 C 0 km/h
1655 24-08-2010 19:15:02 21.7 C 5.15 g/m*3 21.7 C 0 km/h
1656 24-08-2010 19:27:02 22.1 C 5.08 g/m*3 22.1 C 0 km/h
1657 24-08-2010 19:39:02 21.3 C 5.03 g/m*3 21.3 C 0 km/h
1658 24-08-2010 19:51:01 20.8 C 5.43 g/m*3 20.8 C 0 km/h
1659 24-08-2010 20:03:02 20.4 C 5.48 g/m*3 20.4 C 0 km/h
1660 24-08-2010 20:15:01 20.3 C 5.8 g/m*3 20.3 C 0 km/h
1661 24-08-2010 20:27:01 19.7 C 5.94 g/m*3 19.7 C 0 km/h
1662 24-08-2010 20:39:02 19.4 C 5.84 g/m*3 19.4 C 0 km/h
1663 24-08-2010 20:51:01 19 C 5.87 g/m*3 19 C 0 km/h
1664 24-08-2010 21:03:02 18.7 C 5.92 g/m*3 18.7 C 0 km/h
1665 24-08-2010 21:15:02 18.4 C 6.13 g/m*3 18.4 C 0 km/h
1666 24-08-2010 21:27:02 18.2 C 6.22 g/m*3 18.2 C 0 km/h
1667 24-08-2010 21:39:02 18.1 C 6.18 g/m*3 18.1 C 0 km/h
1668 24-08-2010 21:51:01 18 C 6.14 g/m*3 18 C 0 km/h
1669 24-08-2010 22:04:03 17.7 C 6.19 g/m*3 17.7 C 0 km/h
1670 24-08-2010 22:16:03 17.6 C 6.15 g/m*3 17.6 C 0 km/h
1671 24-08-2010 22:28:03 17.5 C 6.26 g/m*3 17.5 C 0 km/h
1672 24-08-2010 22:40:03 17.1 C 6.4 g/m*3 17.1 C 0 km/h
1673 24-08-2010 22:52:03 17.1 C 6.4 g/m*3 17.1 C 0 km/h
1674 24-08-2010 23:04:03 17 C 6.22 g/m*3 17 C 0 km/h
1675 24-08-2010 23:16:03 16.8 C 6.43 g/m*3 16.8 C 0 km/h
Sensor: Nr:Datum:Temp:Abs-Feuchte:Windchill:Wind:
Aussen-T/F 1676 24-08-2010 23:28:03 16.8 C 6.43 g/m*3 16.8 C 0 km/h
1677 24-08-2010 23:40:03 16.7 C 6.54 g/m*3 16.7 C 0 km/h
1678 24-08-2010 23:52:03 16.6 C 6.5 g/m*3 16.6 C 0 km/h
1679 25-08-2010 00:04:03 16.4 C 6.42 g/m*3 16.4 C 0 km/h
1680 25-08-2010 00:16:03 16.4 C 6.56 g/m*3 16.4 C 0 km/h
1681 25-08-2010 00:28:03 16.2 C 6.48 g/m*3 16.2 C 0 km/h
1682 25-08-2010 00:40:04 16 C 6.54 g/m*3 16 C 0 km/h
1683 25-08-2010 00:52:04 15.8 C 6.73 g/m*3 15.8 C 0 km/h
1684 25-08-2010 01:04:04 15.8 C 6.73 g/m*3 15.8 C 0 km/h
1685 25-08-2010 01:16:04 15.6 C 6.78 g/m*3 15.6 C 0 km/h
1686 25-08-2010 01:28:04 15.5 C 6.87 g/m*3 15.5 C 0 km/h
1687 25-08-2010 01:40:04 15.4 C 6.83 g/m*3 15.4 C 0 km/h
1688 25-08-2010 01:52:04 15.3 C 6.79 g/m*3 15.3 C 0 km/h
1689 25-08-2010 02:04:04 15.1 C 6.97 g/m*3 15.1 C 0 km/h
1690 25-08-2010 02:16:04 14.8 C 7.09 g/m*3 14.8 C 0 km/h
1691 25-08-2010 02:28:04 14.6 C 7.13 g/m*3 14.6 C 0 km/h
1692 25-08-2010 02:40:04 14.5 C 7.21 g/m*3 14.5 C 0 km/h
1693 25-08-2010 02:52:04 14.3 C 7.13 g/m*3 14.3 C 0 km/h
1694 25-08-2010 03:04:04 14.2 C 7.2 g/m*3 14.2 C 0 km/h
1695 25-08-2010 03:16:04 13.9 C 7.55 g/m*3 13.9 C 0 km/h
1696 25-08-2010 03:28:04 13.7 C 7.58 g/m*3 13.7 C 0 km/h
1697 25-08-2010 03:40:04 13.6 C 7.77 g/m*3 13.6 C 0 km/h
1698 25-08-2010 03:52:04 13.4 C 7.67 g/m*3 13.4 C 0 km/h
1699 25-08-2010 04:04:04 13.4 C 7.79 g/m*3 13.4 C 0 km/h
1700 25-08-2010 04:16:04 13.4 C 7.79 g/m*3 13.4 C 0 km/h
Sensor: Nr:Datum:Temp:Abs-Feuchte:Windchill:Wind:
Aussen-T/F 1701 25-08-2010 04:28:04 13.4 C 7.67 g/m*3 13.4 C 0 km/h
1702 25-08-2010 04:40:04 13.4 C 7.67 g/m*3 13.4 C 0 km/h
1703 25-08-2010 04:52:05 13.4 C 7.56 g/m*3 13.4 C 0 km/h
1704 25-08-2010 05:04:05 13.6 C 7.53 g/m*3 13.6 C 0 km/h
1705 25-08-2010 05:16:05 13.6 C 7.41 g/m*3 13.6 C 0 km/h
1706 25-08-2010 05:28:05 13.4 C 7.44 g/m*3 13.4 C 0 km/h
1707 25-08-2010 05:40:05 13.2 C 7.58 g/m*3 13.2 C 0 km/h
1708 25-08-2010 05:52:05 13.1 C 7.65 g/m*3 13.1 C 0 km/h
1709 25-08-2010 06:04:05 13 C 7.6 g/m*3 13 C 0 km/h
1710 25-08-2010 06:16:05 13.1 C 7.65 g/m*3 13.1 C 0 km/h
1711 25-08-2010 06:28:05 12.9 C 7.78 g/m*3 12.9 C 0 km/h
1712 25-08-2010 06:40:05 12.9 C 7.78 g/m*3 12.9 C 0 km/h
1713 25-08-2010 06:52:05 12.8 C 7.73 g/m*3 12.8 C 0 km/h
1714 25-08-2010 07:04:02 12.7 C 7.79 g/m*3 12.7 C 0 km/h
1715 25-08-2010 07:16:03 12.8 C 7.84 g/m*3 12.8 C 0 km/h
1716 25-08-2010 07:28:03 12.8 C 7.84 g/m*3 12.8 C 0 km/h
1717 25-08-2010 07:40:02 12.7 C 7.79 g/m*3 12.7 C 0 km/h
1718 25-08-2010 07:52:02 12.8 C 7.95 g/m*3 12.8 C 0 km/h
1719 25-08-2010 08:04:01 13.1 C 7.87 g/m*3 13.1 C 0 km/h
1720 25-08-2010 08:16:01 13.4 C 7.9 g/m*3 13.4 C 0 km/h
1721 25-08-2010 08:28:01 13.5 C 7.84 g/m*3 13.5 C 0 km/h
1722 25-08-2010 08:40:01 13.8 C 7.86 g/m*3 13.8 C 0 km/h
1723 25-08-2010 08:52:03 13.9 C 7.79 g/m*3 13.9 C 0 km/h
1724 25-08-2010 09:04:02 14.2 C 7.82 g/m*3 14.2 C 0 km/h
1725 25-08-2010 09:16:02 14.7 C 8.06 g/m*3 14.7 C 0 km/h
Sensor: Nr:Datum:Temp:Abs-Feuchte:Windchill:Wind:
Aussen-T/F 1726 25-08-2010 09:28:03 14.9 C 7.9 g/m*3 14.9 C 0 km/h
1727 25-08-2010 09:40:02 15.2 C 7.79 g/m*3 15.2 C 0 km/h
1728 25-08-2010 09:52:02 15.6 C 7.98 g/m*3 15.6 C 0 km/h
1729 25-08-2010 10:04:01 16.1 C 7.81 g/m*3 16.1 C 0 km/h
1730 25-08-2010 10:16:02 16.3 C 7.77 g/m*3 16.3 C 0 km/h
1731 25-08-2010 10:28:02 16.3 C 7.77 g/m*3 16.3 C 0 km/h
1732 25-08-2010 10:40:02 16.3 C 7.77 g/m*3 16.3 C 0 km/h
1733 25-08-2010 10:52:02 16.5 C 7.86 g/m*3 16.5 C 0 km/h
1734 25-08-2010 11:04:02 17.1 C 7.71 g/m*3 17.1 C 0 km/h
1735 25-08-2010 11:16:01 17.4 C 7.85 g/m*3 17.4 C 0 km/h
1736 25-08-2010 11:28:01 17.7 C 7.85 g/m*3 17.7 C 0 km/h
1737 25-08-2010 11:40:02 18.1 C 7.88 g/m*3 18.1 C 0 km/h
1738 25-08-2010 11:52:02 19.2 C 7.75 g/m*3 19.2 C 0 km/h
1739 25-08-2010 12:04:02 19.7 C 7.47 g/m*3 19.7 C 0 km/h
1740 25-08-2010 12:16:01 19.9 C 7.39 g/m*3 19.9 C 0 km/h
1741 25-08-2010 12:28:01 20.4 C 7.43 g/m*3 20.4 C 0 km/h
1742 25-08-2010 12:40:02 20 C 6.91 g/m*3 20 C 0 km/h
1743 25-08-2010 12:52:02 20 C 6.74 g/m*3 20 C 0 km/h
1744 25-08-2010 13:04:02 20.4 C 6.9 g/m*3 20.4 C 0 km/h
1745 25-08-2010 13:16:02 20.7 C 6.84 g/m*3 20.7 C 0 km/h
1746 25-08-2010 13:28:02 20.9 C 6.56 g/m*3 20.9 C 0 km/h
1747 25-08-2010 13:40:02 20.8 C 6.52 g/m*3 20.8 C 0 km/h
1748 25-08-2010 13:52:01 21.3 C 6.52 g/m*3 21.3 C 0 km/h
1749 25-08-2010 14:04:02 21.2 C 6.49 g/m*3 21.2 C 0 km/h
1750 25-08-2010 14:16:01 21.2 C 6.3 g/m*3 21.2 C 0 km/h
Sensor: Nr:Datum:Temp:Abs-Feuchte:Windchill:Wind:
Aussen-T/F 1751 25-08-2010 14:28:01 21.7 C 6.49 g/m*3 21.7 C 0 km/h
1752 25-08-2010 14:40:01 21.3 C 6.52 g/m*3 21.3 C 0 km/h
1753 25-08-2010 14:52:01 21.9 C 6.37 g/m*3 21.9 C 0 km/h
1754 25-08-2010 15:04:02 22.5 C 6.39 g/m*3 22.5 C 0 km/h
1755 25-08-2010 15:16:01 23.1 C 6.2 g/m*3 23.1 C 0 km/h
1756 25-08-2010 15:28:01 23.9 C 6.06 g/m*3 23.9 C 0 km/h
1757 25-08-2010 15:40:01 24.1 C 5.69 g/m*3 24.1 C 0 km/h
1758 25-08-2010 15:52:01 24.1 C 6.13 g/m*3 24.1 C 0 km/h
1759 25-08-2010 16:04:01 24.3 C 5.53 g/m*3 24.3 C 0 km/h
1760 25-08-2010 16:16:02 24.3 C 5.53 g/m*3 24.3 C 0 km/h
1761 25-08-2010 16:28:02 25.3 C 5.62 g/m*3 25.3 C 0 km/h
1762 25-08-2010 16:40:01 24.7 C 5.66 g/m*3 24.7 C 0 km/h
1763 25-08-2010 16:52:01 23.7 C 5.99 g/m*3 23.7 C 0 km/h
1764 25-08-2010 17:04:02 23.4 C 6.73 g/m*3 23.4 C 0 km/h
1765 25-08-2010 17:16:01 23.3 C 6.48 g/m*3 23.3 C 0 km/h
1766 25-08-2010 17:28:01 23.1 C 6.41 g/m*3 23.1 C 0 km/h
1767 25-08-2010 17:40:01 23.2 C 6.86 g/m*3 23.2 C 0 km/h
1768 25-08-2010 17:52:01 23 C 6.78 g/m*3 23 C 0 km/h
1769 25-08-2010 18:04:02 22.2 C 6.87 g/m*3 22.2 C 0 km/h
1770 25-08-2010 18:16:02 22 C 6.79 g/m*3 22 C 0 km/h
1771 25-08-2010 18:28:02 22 C 6.79 g/m*3 22 C 0 km/h
1772 25-08-2010 18:40:01 21.8 C 7.48 g/m*3 21.8 C 0 km/h
1773 25-08-2010 18:52:01 21.5 C 7.54 g/m*3 21.5 C 0 km/h
1774 25-08-2010 19:04:01 20.8 C 7.97 g/m*3 20.8 C 0 km/h
1775 25-08-2010 19:16:02 20.1 C 8 g/m*3 20.1 C 0 km/h
Sensor: Nr:Datum:Temp:Abs-Feuchte:Windchill:Wind:
Aussen-T/F 1776 25-08-2010 19:28:02 20.2 C 7.87 g/m*3 20.2 C 0 km/h
1777 25-08-2010 19:40:01 20 C 7.95 g/m*3 20 C 0 km/h
1778 25-08-2010 19:52:02 20 C 7.78 g/m*3 20 C 0 km/h
1779 25-08-2010 20:04:01 19.7 C 8.15 g/m*3 19.7 C 0 km/h
1780 25-08-2010 20:16:02 19.4 C 8.18 g/m*3 19.4 C 0 km/h
1781 25-08-2010 20:28:02 19 C 8.15 g/m*3 19 C 0 km/h
1782 25-08-2010 20:40:01 18.8 C 8.21 g/m*3 18.8 C 0 km/h
1783 25-08-2010 20:52:02 18.3 C 8.44 g/m*3 18.3 C 0 km/h
1784 25-08-2010 21:04:02 18.1 C 8.19 g/m*3 18.1 C 0 km/h
1785 25-08-2010 21:16:02 18.1 C 8.34 g/m*3 18.1 C 0 km/h
1786 25-08-2010 21:28:02 18.1 C 8.34 g/m*3 18.1 C 0 km/h
1787 25-08-2010 21:40:02 18.2 C 8.39 g/m*3 18.2 C 0 km/h
1788 25-08-2010 21:52:02 18.1 C 8.5 g/m*3 18.1 C 0 km/h
1789 25-08-2010 22:04:01 17.9 C 8.55 g/m*3 17.9 C 0 km/h
1790 25-08-2010 22:17:04 17.7 C 8.45 g/m*3 17.7 C 0 km/h
1791 25-08-2010 22:29:04 17.5 C 8.35 g/m*3 17.5 C 0 km/h
1792 25-08-2010 22:41:04 17.4 C 8.6 g/m*3 17.4 C 0 km/h
1793 25-08-2010 22:53:04 17.3 C 8.54 g/m*3 17.3 C 0 km/h
1794 25-08-2010 23:05:04 17.2 C 8.64 g/m*3 17.2 C 0 km/h
1795 25-08-2010 23:17:04 17.4 C 8.74 g/m*3 17.4 C 0 km/h
1796 25-08-2010 23:29:04 17.4 C 8.74 g/m*3 17.4 C 0 km/h
1797 25-08-2010 23:41:04 17.3 C 8.99 g/m*3 17.3 C 0 km/h
1798 25-08-2010 23:53:04 17.2 C 8.93 g/m*3 17.2 C 0 km/h
1799 26-08-2010 00:05:04 17.1 C 9.03 g/m*3 17.1 C 0 km/h
1800 26-08-2010 00:17:04 17.2 C 9.08 g/m*3 17.2 C 0 km/h
Sensor: Nr:Datum:Temp:Abs-Feuchte:Windchill:Wind:
Aussen-T/F 1801 26-08-2010 00:29:04 17.3 C 9.13 g/m*3 17.3 C 0 km/h
1802 26-08-2010 00:41:04 17.4 C 9.04 g/m*3 17.4 C 0 km/h
1803 26-08-2010 00:53:04 17.4 C 9.04 g/m*3 17.4 C 0 km/h
1804 26-08-2010 01:05:05 17.5 C 9.24 g/m*3 17.5 C 0 km/h
1805 26-08-2010 01:17:05 17.5 C 9.09 g/m*3 17.5 C 0 km/h
1806 26-08-2010 01:29:05 17.5 C 9.09 g/m*3 17.5 C 0 km/h
1807 26-08-2010 01:41:05 17.5 C 9.09 g/m*3 17.5 C 0 km/h
1808 26-08-2010 01:53:05 17.4 C 9.04 g/m*3 17.4 C 0 km/h
1809 26-08-2010 02:05:05 16.9 C 9.78 g/m*3 16.9 C 0 km/h
1810 26-08-2010 02:17:05 17.1 C 10.19 g/m*3 17.1 C 0 km/h
1811 26-08-2010 02:29:05 16.7 C 10.09 g/m*3 16.7 C 0 km/h
1812 26-08-2010 02:41:05 17 C 9.84 g/m*3 17 C 0 km/h
1813 26-08-2010 02:53:05 16.7 C 9.95 g/m*3 16.7 C 0 km/h
1814 26-08-2010 03:05:05 16.8 C 10.29 g/m*3 16.8 C 0 km/h
1815 26-08-2010 03:17:05 16.8 C 10.29 g/m*3 16.8 C 0 km/h
1816 26-08-2010 03:29:05 16.9 C 9.92 g/m*3 16.9 C 0 km/h
1817 26-08-2010 03:41:05 16.9 C 9.92 g/m*3 16.9 C 0 km/h
1818 26-08-2010 03:53:05 16.9 C 9.78 g/m*3 16.9 C 0 km/h
1819 26-08-2010 04:05:06 16.9 C 9.78 g/m*3 16.9 C 0 km/h
1820 26-08-2010 04:17:06 17 C 9.69 g/m*3 17 C 0 km/h
1821 26-08-2010 04:29:06 17 C 9.84 g/m*3 17 C 0 km/h
1822 26-08-2010 04:41:06 16.9 C 9.92 g/m*3 16.9 C 0 km/h
1823 26-08-2010 04:53:06 16.9 C 10.07 g/m*3 16.9 C 0 km/h
1824 26-08-2010 05:05:06 17.3 C 10.31 g/m*3 17.3 C 0 km/h
1825 26-08-2010 05:17:06 18.1 C 10.35 g/m*3 18.1 C 0 km/h
Sensor: Nr:Datum:Temp:Abs-Feuchte:Windchill:Wind:
Aussen-T/F 1826 26-08-2010 05:29:06 18.5 C 10.28 g/m*3 18.5 C 0 km/h
1827 26-08-2010 05:41:06 18.8 C 10.31 g/m*3 18.8 C 0 km/h
1828 26-08-2010 05:53:06 18.7 C 10.25 g/m*3 18.7 C 0 km/h
1829 26-08-2010 06:05:03 18.2 C 10.1 g/m*3 18.2 C 0 km/h
1830 26-08-2010 06:17:03 18.1 C 10.35 g/m*3 18.1 C 0 km/h
1831 26-08-2010 06:29:03 17.9 C 10.54 g/m*3 17.9 C 0 km/h
1832 26-08-2010 06:41:03 18.1 C 10.82 g/m*3 18.1 C 0 km/h
1833 26-08-2010 06:53:02 18.6 C 10.82 g/m*3 18.6 C 0 km/h
1834 26-08-2010 07:05:02 18.9 C 10.69 g/m*3 18.9 C 0 km/h
1835 26-08-2010 07:17:02 19 C 10.59 g/m*3 19 C 0 km/h
1836 26-08-2010 07:29:02 19.2 C 10.55 g/m*3 19.2 C 0 km/h
1837 26-08-2010 07:41:02 19.4 C 10.68 g/m*3 19.4 C 0 km/h
1838 26-08-2010 07:53:02 19.8 C 10.93 g/m*3 19.8 C 0 km/h
1839 26-08-2010 08:05:01 20 C 10.71 g/m*3 20 C 0 km/h
1840 26-08-2010 08:17:02 20.1 C 10.95 g/m*3 20.1 C 0 km/h
1841 26-08-2010 08:29:02 20.2 C 11.02 g/m*3 20.2 C 0 km/h
1842 26-08-2010 08:41:01 20.1 C 11.3 g/m*3 20.1 C 0 km/h
1843 26-08-2010 08:53:01 20.6 C 11.63 g/m*3 20.6 C 0 km/h
1844 26-08-2010 09:05:02 20.8 C 11.41 g/m*3 20.8 C 0 km/h
1845 26-08-2010 09:17:02 21.1 C 11.42 g/m*3 21.1 C 0 km/h
1846 26-08-2010 09:29:02 21.5 C 11.31 g/m*3 21.5 C 0 km/h
1847 26-08-2010 09:41:02 22 C 11.26 g/m*3 22 C 0 km/h
1848 26-08-2010 09:53:01 22.2 C 11.19 g/m*3 22.2 C 0 km/h
1849 26-08-2010 10:05:02 22.6 C 11.25 g/m*3 22.6 C 0 km/h
1850 26-08-2010 10:17:02 22.6 C 11.25 g/m*3 22.6 C 0 km/h
Sensor: Nr:Datum:Temp:Abs-Feuchte:Windchill:Wind:
Aussen-T/F 1851 26-08-2010 10:29:02 22.9 C 11.24 g/m*3 22.9 C 0 km/h
1852 26-08-2010 10:41:01 22.7 C 11.11 g/m*3 22.7 C 0 km/h
1853 26-08-2010 10:53:02 23 C 11.1 g/m*3 23 C 0 km/h
1854 26-08-2010 11:05:01 23.2 C 11.23 g/m*3 23.2 C 0 km/h
1855 26-08-2010 11:17:02 23.9 C 11.25 g/m*3 23.9 C 0 km/h
1856 26-08-2010 11:29:03 23.5 C 11.21 g/m*3 23.5 C 0 km/h
1857 26-08-2010 11:41:01 24.1 C 11.16 g/m*3 24.1 C 0 km/h
1858 26-08-2010 11:53:02 24.1 C 10.94 g/m*3 24.1 C 0 km/h
1859 26-08-2010 12:05:02 24.4 C 11.13 g/m*3 24.4 C 0 km/h
1860 26-08-2010 12:17:02 23.8 C 10.97 g/m*3 23.8 C 0 km/h
1861 26-08-2010 12:29:02 23.4 C 11.14 g/m*3 23.4 C 0 km/h
1862 26-08-2010 12:41:03 23.2 C 11.23 g/m*3 23.2 C 0 km/h
1863 26-08-2010 12:53:02 22.9 C 11.24 g/m*3 22.9 C 0 km/h
1864 26-08-2010 13:05:02 22.7 C 11.31 g/m*3 22.7 C 0 km/h
1865 26-08-2010 13:17:01 22.7 C 11.31 g/m*3 22.7 C 0 km/h
1866 26-08-2010 13:29:01 22.9 C 11.24 g/m*3 22.9 C 0 km/h
1867 26-08-2010 13:41:02 23.3 C 11.08 g/m*3 23.3 C 0 km/h
1868 26-08-2010 13:53:02 23.2 C 11.02 g/m*3 23.2 C 0 km/h
1869 26-08-2010 14:05:02 23.5 C 11.21 g/m*3 23.5 C 0 km/h
1870 26-08-2010 14:17:02 23.9 C 11.25 g/m*3 23.9 C 0 km/h
1871 26-08-2010 14:29:02 23.9 C 11.03 g/m*3 23.9 C 0 km/h
1872 26-08-2010 14:41:02 23.8 C 11.19 g/m*3 23.8 C 0 km/h
1873 26-08-2010 14:53:02 23.9 C 11.25 g/m*3 23.9 C 0 km/h
1874 26-08-2010 15:05:02 23.9 C 11.47 g/m*3 23.9 C 0 km/h
1875 26-08-2010 15:17:02 23.8 C 11.19 g/m*3 23.8 C 0 km/h
Sensor: Nr:Datum:Temp:Abs-Feuchte:Windchill:Wind:
Aussen-T/F 1876 26-08-2010 15:29:02 23.7 C 11.34 g/m*3 23.7 C 0 km/h
1877 26-08-2010 15:41:02 23.5 C 11.42 g/m*3 23.5 C 0 km/h
1878 26-08-2010 15:53:02 23.5 C 11.21 g/m*3 23.5 C 0 km/h
1879 26-08-2010 16:05:02 23.9 C 11.47 g/m*3 23.9 C 0 km/h
1880 26-08-2010 16:17:02 23.8 C 11.4 g/m*3 23.8 C 0 km/h
1881 26-08-2010 16:29:02 23.7 C 11.34 g/m*3 23.7 C 0 km/h
1882 26-08-2010 16:41:02 24.2 C 11.22 g/m*3 24.2 C 0 km/h
1883 26-08-2010 16:53:02 24.1 C 10.94 g/m*3 24.1 C 0 km/h
1884 26-08-2010 17:05:02 23.9 C 11.25 g/m*3 23.9 C 0 km/h
1885 26-08-2010 17:17:02 23.7 C 11.34 g/m*3 23.7 C 0 km/h
1886 26-08-2010 17:29:02 23.6 C 11.27 g/m*3 23.6 C 0 km/h
1887 26-08-2010 17:41:02 23.5 C 11.21 g/m*3 23.5 C 0 km/h
1888 26-08-2010 17:53:02 23.4 C 11.35 g/m*3 23.4 C 0 km/h
1889 26-08-2010 18:05:02 23.4 C 11.35 g/m*3 23.4 C 0 km/h
1890 26-08-2010 18:17:02 23.3 C 11.5 g/m*3 23.3 C 0 km/h
1891 26-08-2010 18:29:03 23.2 C 11.85 g/m*3 23.2 C 0 km/h
1892 26-08-2010 18:41:01 23 C 11.72 g/m*3 23 C 0 km/h
1893 26-08-2010 18:53:02 23 C 11.92 g/m*3 23 C 0 km/h
1894 26-08-2010 19:05:01 22.6 C 12.25 g/m*3 22.6 C 0 km/h
1895 26-08-2010 19:17:02 22.6 C 12.25 g/m*3 22.6 C 0 km/h
1896 26-08-2010 19:29:02 21.6 C 13.28 g/m*3 21.6 C 0 km/h
1897 26-08-2010 19:41:02 20.7 C 14.04 g/m*3 20.7 C 0 km/h
1898 26-08-2010 19:53:02 20.8 C 14.67 g/m*3 20.8 C 0 km/h
1899 26-08-2010 20:05:02 21 C 14.65 g/m*3 21 C 0 km/h
1900 26-08-2010 20:17:02 20.9 C 14.57 g/m*3 20.9 C 0 km/h
Sensor: Nr:Datum:Temp:Abs-Feuchte:Windchill:Wind:
Aussen-T/F 1901 26-08-2010 20:29:02 21 C 14.47 g/m*3 21 C 0 km/h
1902 26-08-2010 20:41:02 20.9 C 14.39 g/m*3 20.9 C 0 km/h
1903 26-08-2010 20:53:01 20.9 C 14.39 g/m*3 20.9 C 0 km/h
1904 26-08-2010 21:05:02 20.7 C 14.04 g/m*3 20.7 C 0 km/h
1905 26-08-2010 21:17:01 20.7 C 14.04 g/m*3 20.7 C 0 km/h
1906 26-08-2010 21:29:01 20.4 C 13.98 g/m*3 20.4 C 0 km/h
1907 26-08-2010 21:41:02 20.2 C 13.99 g/m*3 20.2 C 0 km/h
1908 26-08-2010 21:53:02 20.1 C 14.08 g/m*3 20.1 C 0 km/h
1909 26-08-2010 22:06:04 20 C 14.34 g/m*3 20 C 0 km/h
1910 26-08-2010 22:18:04 19.8 C 14.52 g/m*3 19.8 C 0 km/h
1911 26-08-2010 22:30:04 19.7 C 14.6 g/m*3 19.7 C 0 km/h
1912 26-08-2010 22:42:04 19.7 C 14.77 g/m*3 19.7 C 0 km/h
1913 26-08-2010 22:54:04 19.6 C 14.86 g/m*3 19.6 C 0 km/h
1914 26-08-2010 23:06:04 19.5 C 14.77 g/m*3 19.5 C 0 km/h
1915 26-08-2010 23:18:04 19.5 C 14.94 g/m*3 19.5 C 0 km/h
1916 26-08-2010 23:30:04 19.5 C 14.94 g/m*3 19.5 C 0 km/h
1917 26-08-2010 23:42:05 19.4 C 15.02 g/m*3 19.4 C 0 km/h
1918 26-08-2010 23:54:05 19.3 C 15.09 g/m*3 19.3 C 0 km/h
1919 27-08-2010 00:06:05 19.2 C 15.01 g/m*3 19.2 C 0 km/h
1920 27-08-2010 00:18:05 19 C 14.83 g/m*3 19 C 0 km/h
1921 27-08-2010 00:30:05 19 C 14.83 g/m*3 19 C 0 km/h
1922 27-08-2010 00:42:05 18.9 C 14.9 g/m*3 18.9 C 0 km/h
1923 27-08-2010 00:54:05 18.8 C 14.98 g/m*3 18.8 C 0 km/h
1924 27-08-2010 01:06:05 18.7 C 14.89 g/m*3 18.7 C 0 km/h
1925 27-08-2010 01:18:05 18.7 C 14.89 g/m*3 18.7 C 0 km/h
Sensor: Nr:Datum:Temp:Abs-Feuchte:Windchill:Wind:
Aussen-T/F 1926 27-08-2010 01:30:05 18.8 C 14.98 g/m*3 18.8 C 0 km/h
1927 27-08-2010 01:42:05 18.8 C 14.98 g/m*3 18.8 C 0 km/h
1928 27-08-2010 01:54:05 18.8 C 15.14 g/m*3 18.8 C 0 km/h
1929 27-08-2010 02:06:05 18.8 C 15.14 g/m*3 18.8 C 0 km/h
1930 27-08-2010 02:18:05 18.7 C 15.05 g/m*3 18.7 C 0 km/h
1931 27-08-2010 02:30:05 18.5 C 14.87 g/m*3 18.5 C 0 km/h
1932 27-08-2010 02:42:05 18.6 C 14.96 g/m*3 18.6 C 0 km/h
1933 27-08-2010 02:54:05 18.5 C 14.87 g/m*3 18.5 C 0 km/h
1934 27-08-2010 03:06:05 18.4 C 14.78 g/m*3 18.4 C 0 km/h
1935 27-08-2010 03:18:05 18.4 C 14.78 g/m*3 18.4 C 0 km/h
1936 27-08-2010 03:30:05 18.4 C 14.78 g/m*3 18.4 C 0 km/h
1937 27-08-2010 03:42:05 18.4 C 14.78 g/m*3 18.4 C 0 km/h
1938 27-08-2010 03:54:05 18.3 C 14.7 g/m*3 18.3 C 0 km/h
1939 27-08-2010 04:06:05 18.3 C 14.7 g/m*3 18.3 C 0 km/h
1940 27-08-2010 04:18:06 18.3 C 14.7 g/m*3 18.3 C 0 km/h
1941 27-08-2010 04:30:06 18.4 C 14.78 g/m*3 18.4 C 0 km/h
1942 27-08-2010 04:42:06 18.4 C 14.78 g/m*3 18.4 C 0 km/h
1943 27-08-2010 04:54:06 18.3 C 14.7 g/m*3 18.3 C 0 km/h
1944 27-08-2010 05:06:06 18.3 C 14.85 g/m*3 18.3 C 0 km/h
1945 27-08-2010 05:18:06 18.3 C 14.7 g/m*3 18.3 C 0 km/h
1946 27-08-2010 05:30:06 18.4 C 14.78 g/m*3 18.4 C 0 km/h
1947 27-08-2010 05:42:06 18.4 C 14.94 g/m*3 18.4 C 0 km/h
1948 27-08-2010 05:54:06 18.6 C 15.12 g/m*3 18.6 C 0 km/h
1949 27-08-2010 06:06:06 18.7 C 15.21 g/m*3 18.7 C 0 km/h
1950 27-08-2010 06:18:06 18.8 C 15.3 g/m*3 18.8 C 0 km/h
Sensor: Nr:Datum:Temp:Abs-Feuchte:Windchill:Wind:
Aussen-T/F 1951 27-08-2010 06:30:06 18.9 C 15.39 g/m*3 18.9 C 0 km/h
1952 27-08-2010 06:42:06 18.9 C 15.39 g/m*3 18.9 C 0 km/h
1953 27-08-2010 06:54:06 18.8 C 15.3 g/m*3 18.8 C 0 km/h
1954 27-08-2010 07:06:06 18.8 C 15.14 g/m*3 18.8 C 0 km/h
1955 27-08-2010 07:18:07 18.7 C 15.05 g/m*3 18.7 C 0 km/h
1956 27-08-2010 07:30:07 18.7 C 15.05 g/m*3 18.7 C 0 km/h
1957 27-08-2010 07:42:07 18.6 C 14.96 g/m*3 18.6 C 0 km/h
1958 27-08-2010 07:54:01 18.6 C 14.96 g/m*3 18.6 C 0 km/h
1959 27-08-2010 08:06:02 18.6 C 14.96 g/m*3 18.6 C 0 km/h
1960 27-08-2010 08:18:01 18.6 C 14.96 g/m*3 18.6 C 0 km/h
1961 27-08-2010 08:30:01 18.6 C 14.96 g/m*3 18.6 C 0 km/h
1962 27-08-2010 08:42:01 18.5 C 14.87 g/m*3 18.5 C 0 km/h
1963 27-08-2010 08:54:02 18.6 C 14.96 g/m*3 18.6 C 0 km/h
1964 27-08-2010 09:06:01 18.6 C 14.96 g/m*3 18.6 C 0 km/h
1965 27-08-2010 09:18:02 18.8 C 15.14 g/m*3 18.8 C 0 km/h
1966 27-08-2010 09:30:02 19.5 C 15.27 g/m*3 19.5 C 0 km/h
1967 27-08-2010 09:42:01 19.7 C 15.11 g/m*3 19.7 C 0 km/h
1968 27-08-2010 09:54:02 19.7 C 14.77 g/m*3 19.7 C 0 km/h
1969 27-08-2010 10:06:02 19.7 C 14.6 g/m*3 19.7 C 0 km/h
1970 27-08-2010 10:18:02 19.8 C 14.52 g/m*3 19.8 C 0 km/h
1971 27-08-2010 10:30:02 19.4 C 14.18 g/m*3 19.4 C 0 km/h
1972 27-08-2010 10:42:03 19 C 14.18 g/m*3 19 C 0 km/h
1973 27-08-2010 10:54:02 18.7 C 14.25 g/m*3 18.7 C 0 km/h
1974 27-08-2010 11:06:02 18.5 C 14.4 g/m*3 18.5 C 0 km/h
1975 27-08-2010 11:18:01 18.3 C 13.92 g/m*3 18.3 C 0 km/h
Sensor: Nr:Datum:Temp:Abs-Feuchte:Windchill:Wind:
Aussen-T/F 1976 27-08-2010 11:30:01 18.1 C 13.44 g/m*3 18.1 C 0 km/h
1977 27-08-2010 11:42:02 17.9 C 13.13 g/m*3 17.9 C 0 km/h
1978 27-08-2010 11:54:02 18 C 13.06 g/m*3 18 C 0 km/h
1979 27-08-2010 12:06:02 18.7 C 13.77 g/m*3 18.7 C 0 km/h
1980 27-08-2010 12:18:02 19.5 C 13.93 g/m*3 19.5 C 0 km/h
1981 27-08-2010 12:30:02 20.4 C 13.62 g/m*3 20.4 C 0 km/h
1982 27-08-2010 12:42:02 20.5 C 12.99 g/m*3 20.5 C 0 km/h
1983 27-08-2010 12:54:02 21.4 C 13.12 g/m*3 21.4 C 0 km/h
1984 27-08-2010 13:06:02 21.9 C 12.93 g/m*3 21.9 C 0 km/h
1985 27-08-2010 13:18:02 22.4 C 13.11 g/m*3 22.4 C 0 km/h
1986 27-08-2010 13:30:02 22.8 C 12.6 g/m*3 22.8 C 0 km/h
1987 27-08-2010 13:42:02 23.4 C 12.41 g/m*3 23.4 C 0 km/h
1988 27-08-2010 13:54:02 24.1 C 11.82 g/m*3 24.1 C 0 km/h
1989 27-08-2010 14:06:02 24.2 C 11.88 g/m*3 24.2 C 0 km/h
1990 27-08-2010 14:18:03 23.6 C 11.7 g/m*3 23.6 C 0 km/h
1991 27-08-2010 14:30:03 22.5 C 12.78 g/m*3 22.5 C 0 km/h
1992 27-08-2010 14:42:02 17 C 11 g/m*3 17 C 0 km/h
1993 27-08-2010 14:54:03 16.5 C 11.94 g/m*3 16.5 C 0 km/h
1994 27-08-2010 15:06:02 16.7 C 12.65 g/m*3 16.7 C 0 km/h
1995 27-08-2010 15:18:02 18.3 C 13.76 g/m*3 18.3 C 0 km/h
1996 27-08-2010 15:30:02 19 C 13.85 g/m*3 19 C 0 km/h
1997 27-08-2010 15:42:02 19.8 C 13.66 g/m*3 19.8 C 0 km/h
1998 27-08-2010 15:54:02 20.8 C 13.4 g/m*3 20.8 C 0 km/h
1999 27-08-2010 16:06:01 21.8 C 12.47 g/m*3 21.8 C 0 km/h
2000 27-08-2010 16:18:02 21.7 C 12.59 g/m*3 21.7 C 0 km/h
Sensor: Nr:Datum:Temp:Abs-Feuchte:Windchill:Wind:
Aussen-T/F 2001 27-08-2010 16:30:02 21.3 C 12.68 g/m*3 21.3 C 0 km/h
2002 27-08-2010 16:42:02 21.7 C 13.35 g/m*3 21.7 C 0 km/h
2003 27-08-2010 16:54:02 23 C 13.36 g/m*3 23 C 0 km/h
2004 27-08-2010 17:06:01 22.8 C 11.99 g/m*3 22.8 C 0 km/h
2005 27-08-2010 17:18:01 22.9 C 12.47 g/m*3 22.9 C 0 km/h
2006 27-08-2010 17:30:01 21.5 C 11.5 g/m*3 21.5 C 0 km/h
2007 27-08-2010 17:42:02 20.2 C 11.37 g/m*3 20.2 C 0 km/h
2008 27-08-2010 17:54:02 19.1 C 11.15 g/m*3 19.1 C 0 km/h
2009 27-08-2010 18:06:02 17.3 C 12.08 g/m*3 17.3 C 0 km/h
2010 27-08-2010 18:18:02 16.6 C 12.15 g/m*3 16.6 C 0 km/h
2011 27-08-2010 18:30:02 16.4 C 12.14 g/m*3 16.4 C 0 km/h
2012 27-08-2010 18:42:02 17 C 12.3 g/m*3 17 C 0 km/h
2013 27-08-2010 18:54:02 16.7 C 11.37 g/m*3 16.7 C 0 km/h
2014 27-08-2010 19:06:02 16.3 C 11.38 g/m*3 16.3 C 0 km/h
2015 27-08-2010 19:18:02 16 C 11.31 g/m*3 16 C 0 km/h
2016 27-08-2010 19:30:02 15.5 C 10.84 g/m*3 15.5 C 0 km/h
2017 27-08-2010 19:42:02 15.3 C 10.71 g/m*3 15.3 C 0 km/h
2018 27-08-2010 19:54:02 15.1 C 10.45 g/m*3 15.1 C 0 km/h
2019 27-08-2010 20:06:02 15.1 C 10.58 g/m*3 15.1 C 0 km/h
2020 27-08-2010 20:18:02 15.3 C 10.71 g/m*3 15.3 C 0 km/h
2021 27-08-2010 20:30:02 15.3 C 10.45 g/m*3 15.3 C 0 km/h
2022 27-08-2010 20:42:02 15.2 C 10.25 g/m*3 15.2 C 0 km/h
2023 27-08-2010 20:54:02 14.7 C 10.2 g/m*3 14.7 C 0 km/h
2024 27-08-2010 21:06:02 14.5 C 10.32 g/m*3 14.5 C 0 km/h
2025 27-08-2010 21:18:03 14.5 C 10.2 g/m*3 14.5 C 0 km/h
Sensor: Nr:Datum:Temp:Abs-Feuchte:Windchill:Wind:
Aussen-T/F 2026 27-08-2010 21:30:03 14.6 C 10.14 g/m*3 14.6 C 0 km/h
2027 27-08-2010 21:42:02 14.6 C 10.14 g/m*3 14.6 C 0 km/h
2028 27-08-2010 21:54:03 14.7 C 10.07 g/m*3 14.7 C 0 km/h
2029 27-08-2010 22:06:02 14.8 C 10.01 g/m*3 14.8 C 0 km/h
2030 27-08-2010 22:18:02 14.8 C 10.01 g/m*3 14.8 C 0 km/h
2031 27-08-2010 22:30:02 14.8 C 10.01 g/m*3 14.8 C 0 km/h
2032 27-08-2010 22:43:28 14.8 C 10.01 g/m*3 14.8 C 0 km/h
2033 27-08-2010 22:55:28 14.5 C 10.07 g/m*3 14.5 C 0 km/h
2034 27-08-2010 23:07:28 13.8 C 9.65 g/m*3 13.8 C 0 km/h
2035 27-08-2010 23:19:28 13.9 C 9.59 g/m*3 13.9 C 0 km/h
2036 27-08-2010 23:31:28 13.8 C 9.29 g/m*3 13.8 C 0 km/h
2037 27-08-2010 23:43:28 14.1 C 9.1 g/m*3 14.1 C 0 km/h
2038 27-08-2010 23:55:28 14.2 C 9.04 g/m*3 14.2 C 0 km/h
2039 28-08-2010 00:07:28 14.1 C 9.1 g/m*3 14.1 C 0 km/h
2040 28-08-2010 00:19:28 13.9 C 9.11 g/m*3 13.9 C 0 km/h
2041 28-08-2010 00:31:28 14 C 9.05 g/m*3 14 C 0 km/h
2042 28-08-2010 00:43:28 13.7 C 9.35 g/m*3 13.7 C 0 km/h
2043 28-08-2010 00:55:29 13.2 C 9.42 g/m*3 13.2 C 0 km/h
2044 28-08-2010 01:07:29 13.2 C 9.64 g/m*3 13.2 C 0 km/h
2045 28-08-2010 01:19:29 13.1 C 9.81 g/m*3 13.1 C 0 km/h
2046 28-08-2010 01:31:29 13 C 9.87 g/m*3 13 C 0 km/h
2047 28-08-2010 01:43:29 13.1 C 10.04 g/m*3 13.1 C 0 km/h
2048 28-08-2010 01:55:29 13.1 C 10.04 g/m*3 13.1 C 0 km/h
2049 28-08-2010 02:07:29 13.2 C 9.99 g/m*3 13.2 C 0 km/h
2050 28-08-2010 02:19:29 13.2 C 9.99 g/m*3 13.2 C 0 km/h
Sensor: Nr:Datum:Temp:Abs-Feuchte:Windchill:Wind:
Aussen-T/F 2051 28-08-2010 02:31:29 13.1 C 9.81 g/m*3 13.1 C 0 km/h
2052 28-08-2010 02:43:29 13.1 C 9.7 g/m*3 13.1 C 0 km/h
2053 28-08-2010 02:55:29 13.1 C 9.59 g/m*3 13.1 C 0 km/h
2054 28-08-2010 03:07:29 13.1 C 9.59 g/m*3 13.1 C 0 km/h
2055 28-08-2010 03:19:29 13.1 C 9.59 g/m*3 13.1 C 0 km/h
2056 28-08-2010 03:31:29 13.1 C 9.47 g/m*3 13.1 C 0 km/h
2057 28-08-2010 03:43:29 13.1 C 9.59 g/m*3 13.1 C 0 km/h
2058 28-08-2010 03:55:29 13.1 C 9.59 g/m*3 13.1 C 0 km/h
2059 28-08-2010 04:07:29 12.9 C 9.47 g/m*3 12.9 C 0 km/h
2060 28-08-2010 04:19:30 12.9 C 9.47 g/m*3 12.9 C 0 km/h
2061 28-08-2010 04:31:30 12.5 C 9.24 g/m*3 12.5 C 0 km/h
2062 28-08-2010 04:43:30 12.3 C 9.23 g/m*3 12.3 C 0 km/h
2063 28-08-2010 04:55:30 12.1 C 9.12 g/m*3 12.1 C 0 km/h
2064 28-08-2010 05:07:30 12.2 C 9.28 g/m*3 12.2 C 0 km/h
2065 28-08-2010 05:19:30 12.3 C 9.34 g/m*3 12.3 C 0 km/h
2066 28-08-2010 05:31:30 12.1 C 9.01 g/m*3 12.1 C 0 km/h
2067 28-08-2010 05:43:30 11.9 C 9 g/m*3 11.9 C 0 km/h
2068 28-08-2010 05:55:30 12.1 C 9.12 g/m*3 12.1 C 0 km/h
2069 28-08-2010 06:07:30 11.7 C 8.89 g/m*3 11.7 C 0 km/h
2070 28-08-2010 06:19:30 11.6 C 8.83 g/m*3 11.6 C 0 km/h
2071 28-08-2010 06:31:30 11.7 C 8.79 g/m*3 11.7 C 0 km/h
2072 28-08-2010 06:43:30 11.5 C 8.68 g/m*3 11.5 C 0 km/h
2073 28-08-2010 06:55:02 11.4 C 8.62 g/m*3 11.4 C 0 km/h
2074 28-08-2010 07:07:02 11.3 C 8.67 g/m*3 11.3 C 0 km/h
2075 28-08-2010 07:19:02 11.3 C 8.77 g/m*3 11.3 C 0 km/h
Sensor: Nr:Datum:Temp:Abs-Feuchte:Windchill:Wind:
Aussen-T/F 2076 28-08-2010 07:31:01 11.6 C 8.94 g/m*3 11.6 C 0 km/h
2077 28-08-2010 07:43:01 12 C 8.95 g/m*3 12 C 0 km/h
2078 28-08-2010 07:55:02 12.4 C 9.07 g/m*3 12.4 C 0 km/h
2079 28-08-2010 08:07:01 12.6 C 9.07 g/m*3 12.6 C 0 km/h
2080 28-08-2010 08:19:02 12.8 C 8.96 g/m*3 12.8 C 0 km/h
2081 28-08-2010 08:31:01 13 C 8.85 g/m*3 13 C 0 km/h
2082 28-08-2010 08:43:01 13.4 C 8.95 g/m*3 13.4 C 0 km/h
2083 28-08-2010 08:55:02 13.6 C 8.83 g/m*3 13.6 C 0 km/h
2084 28-08-2010 09:07:02 14.3 C 8.97 g/m*3 14.3 C 0 km/h
2085 28-08-2010 09:19:01 14.2 C 8.55 g/m*3 14.2 C 0 km/h
2086 28-08-2010 09:31:02 14.1 C 8.62 g/m*3 14.1 C 0 km/h
2087 28-08-2010 09:43:02 14.1 C 8.37 g/m*3 14.1 C 0 km/h
2088 28-08-2010 09:55:02 14.4 C 8.41 g/m*3 14.4 C 0 km/h
2089 28-08-2010 10:07:02 14.6 C 8.38 g/m*3 14.6 C 0 km/h
2090 28-08-2010 10:19:02 14.6 C 8.38 g/m*3 14.6 C 0 km/h
2091 28-08-2010 10:31:02 15.1 C 8.39 g/m*3 15.1 C 0 km/h
2092 28-08-2010 10:43:02 15.6 C 8.51 g/m*3 15.6 C 0 km/h
2093 28-08-2010 10:55:02 15.8 C 8.08 g/m*3 15.8 C 0 km/h
2094 28-08-2010 11:07:03 15.8 C 8.21 g/m*3 15.8 C 0 km/h
2095 28-08-2010 11:19:02 16.4 C 7.96 g/m*3 16.4 C 0 km/h
2096 28-08-2010 11:31:03 16.9 C 7.77 g/m*3 16.9 C 0 km/h
2097 28-08-2010 11:43:03 16.7 C 7.25 g/m*3 16.7 C 0 km/h
2098 28-08-2010 11:55:02 16.4 C 7.82 g/m*3 16.4 C 0 km/h
2099 28-08-2010 12:07:02 17 C 7.67 g/m*3 17 C 0 km/h
2100 28-08-2010 12:19:02 18 C 7.22 g/m*3 18 C 0 km/h
Sensor: Nr:Datum:Temp:Abs-Feuchte:Windchill:Wind:
Aussen-T/F 2101 28-08-2010 12:31:02 13.7 C 8.05 g/m*3 13.7 C 0 km/h
2102 28-08-2010 12:43:02 13.7 C 9.35 g/m*3 13.7 C 0 km/h
2103 28-08-2010 12:55:02 14.7 C 10.58 g/m*3 14.7 C 0 km/h
2104 28-08-2010 13:07:02 15.7 C 10.84 g/m*3 15.7 C 0 km/h
2105 28-08-2010 13:19:03 15.8 C 10.23 g/m*3 15.8 C 0 km/h
2106 28-08-2010 13:31:02 15.5 C 10.31 g/m*3 15.5 C 0 km/h
2107 28-08-2010 13:43:02 17.2 C 11.57 g/m*3 17.2 C 0 km/h
2108 28-08-2010 13:55:03 17 C 10.13 g/m*3 17 C 0 km/h
2109 28-08-2010 14:07:02 15.8 C 8.88 g/m*3 15.8 C 0 km/h
2110 28-08-2010 14:19:03 16.8 C 8.01 g/m*3 16.8 C 0 km/h
2111 28-08-2010 14:31:02 15.9 C 6.91 g/m*3 15.9 C 0 km/h
2112 28-08-2010 14:43:02 14.9 C 7.01 g/m*3 14.9 C 0 km/h
2113 28-08-2010 14:55:02 14.6 C 7.63 g/m*3 14.6 C 0 km/h
2114 28-08-2010 15:07:02 14.7 C 7.68 g/m*3 14.7 C 0 km/h
2115 28-08-2010 15:19:02 15.8 C 7.94 g/m*3 15.8 C 0 km/h
2116 28-08-2010 15:31:03 17.6 C 7.65 g/m*3 17.6 C 0 km/h
2117 28-08-2010 15:43:03 17.9 C 6.72 g/m*3 17.9 C 0 km/h
2118 28-08-2010 15:55:02 17.6 C 7.05 g/m*3 17.6 C 0 km/h
2119 28-08-2010 16:07:01 17 C 6.8 g/m*3 17 C 0 km/h
2120 28-08-2010 16:19:02 14.9 C 7.65 g/m*3 14.9 C 0 km/h
2121 28-08-2010 16:31:02 13.9 C 8.27 g/m*3 13.9 C 0 km/h
2122 28-08-2010 16:43:02 14.5 C 8.95 g/m*3 14.5 C 0 km/h
2123 28-08-2010 16:55:01 15.2 C 8.44 g/m*3 15.2 C 0 km/h
2124 28-08-2010 17:07:02 15.9 C 9.21 g/m*3 15.9 C 0 km/h
2125 28-08-2010 17:19:01 16 C 8.72 g/m*3 16 C 0 km/h
Sensor: Nr:Datum:Temp:Abs-Feuchte:Windchill:Wind:
Aussen-T/F 2126 28-08-2010 17:31:02 15.7 C 8.3 g/m*3 15.7 C 0 km/h
2127 28-08-2010 17:43:02 15.2 C 8.05 g/m*3 15.2 C 0 km/h
2128 28-08-2010 17:55:01 15.2 C 9.09 g/m*3 15.2 C 0 km/h
2129 28-08-2010 18:07:02 16.2 C 8.27 g/m*3 16.2 C 0 km/h
2130 28-08-2010 18:19:01 17 C 6.95 g/m*3 17 C 0 km/h
2131 28-08-2010 18:31:02 18.1 C 7.26 g/m*3 18.1 C 0 km/h
2132 28-08-2010 18:43:02 18.3 C 7.04 g/m*3 18.3 C 0 km/h
2133 28-08-2010 18:55:01 18.2 C 7.46 g/m*3 18.2 C 0 km/h
2134 28-08-2010 19:07:02 16.8 C 7.86 g/m*3 16.8 C 0 km/h
2135 28-08-2010 19:19:02 16.1 C 7.95 g/m*3 16.1 C 0 km/h
2136 28-08-2010 19:31:02 15 C 8.59 g/m*3 15 C 0 km/h
2137 28-08-2010 19:43:02 14.2 C 8.79 g/m*3 14.2 C 0 km/h
2138 28-08-2010 19:55:01 14.2 C 8.3 g/m*3 14.2 C 0 km/h
2139 28-08-2010 20:07:02 13.4 C 8.6 g/m*3 13.4 C 0 km/h
2140 28-08-2010 20:19:02 13 C 8.85 g/m*3 13 C 0 km/h
2141 28-08-2010 20:31:01 13.1 C 9.13 g/m*3 13.1 C 0 km/h
2142 28-08-2010 20:43:01 13.1 C 9.24 g/m*3 13.1 C 0 km/h
2143 28-08-2010 20:55:02 12.9 C 9.35 g/m*3 12.9 C 0 km/h
2144 28-08-2010 21:07:01 12.8 C 9.3 g/m*3 12.8 C 0 km/h
2145 28-08-2010 21:19:02 12.7 C 9.24 g/m*3 12.7 C 0 km/h
2146 28-08-2010 21:31:01 12.4 C 9.07 g/m*3 12.4 C 0 km/h
2147 28-08-2010 21:43:01 12.2 C 8.96 g/m*3 12.2 C 0 km/h
2148 28-08-2010 21:55:02 12.2 C 9.06 g/m*3 12.2 C 0 km/h
2149 28-08-2010 22:08:02 12.3 C 9.12 g/m*3 12.3 C 0 km/h
2150 28-08-2010 22:20:02 12.3 C 9.01 g/m*3 12.3 C 0 km/h
Sensor: Nr:Datum:Temp:Abs-Feuchte:Windchill:Wind:
Aussen-T/F 2151 28-08-2010 22:32:03 12.2 C 8.85 g/m*3 12.2 C 0 km/h
2152 28-08-2010 22:44:03 12.1 C 8.79 g/m*3 12.1 C 0 km/h
2153 28-08-2010 22:56:03 12.3 C 9.01 g/m*3 12.3 C 0 km/h
2154 28-08-2010 23:08:03 12.6 C 8.96 g/m*3 12.6 C 0 km/h
2155 28-08-2010 23:20:03 12.7 C 8.79 g/m*3 12.7 C 0 km/h
2156 28-08-2010 23:32:03 12.4 C 8.74 g/m*3 12.4 C 0 km/h
2157 28-08-2010 23:44:03 12.1 C 8.58 g/m*3 12.1 C 0 km/h
2158 28-08-2010 23:56:03 12 C 8.53 g/m*3 12 C 0 km/h
2159 29-08-2010 00:08:03 11.8 C 8.42 g/m*3 11.8 C 0 km/h
2160 29-08-2010 00:20:03 11.8 C 8.42 g/m*3 11.8 C 0 km/h
2161 29-08-2010 00:32:03 11.9 C 8.58 g/m*3 11.9 C 0 km/h
2162 29-08-2010 00:44:03 12 C 8.53 g/m*3 12 C 0 km/h
2163 29-08-2010 00:56:03 12 C 8.42 g/m*3 12 C 0 km/h
2164 29-08-2010 01:08:03 11.7 C 8.47 g/m*3 11.7 C 0 km/h
2165 29-08-2010 01:20:03 11.5 C 8.37 g/m*3 11.5 C 0 km/h
2166 29-08-2010 01:32:03 11.5 C 8.47 g/m*3 11.5 C 0 km/h
2167 29-08-2010 01:44:03 11.4 C 8.42 g/m*3 11.4 C 0 km/h
2168 29-08-2010 01:56:03 11.4 C 8.52 g/m*3 11.4 C 0 km/h
2169 29-08-2010 02:08:03 11.7 C 8.58 g/m*3 11.7 C 0 km/h
2170 29-08-2010 02:20:03 11.7 C 8.47 g/m*3 11.7 C 0 km/h
2171 29-08-2010 02:32:03 11.7 C 8.58 g/m*3 11.7 C 0 km/h
2172 29-08-2010 02:44:04 11.8 C 8.53 g/m*3 11.8 C 0 km/h
2173 29-08-2010 02:56:04 11.8 C 8.53 g/m*3 11.8 C 0 km/h
2174 29-08-2010 03:08:04 11.8 C 8.42 g/m*3 11.8 C 0 km/h
2175 29-08-2010 03:20:04 11.8 C 8.53 g/m*3 11.8 C 0 km/h
Sensor: Nr:Datum:Temp:Abs-Feuchte:Windchill:Wind:
Aussen-T/F 2176 29-08-2010 03:32:04 11.8 C 8.53 g/m*3 11.8 C 0 km/h
2177 29-08-2010 03:44:04 11.7 C 8.47 g/m*3 11.7 C 0 km/h
2178 29-08-2010 03:56:04 11.7 C 8.47 g/m*3 11.7 C 0 km/h
2179 29-08-2010 04:08:04 11.6 C 8.42 g/m*3 11.6 C 0 km/h
2180 29-08-2010 04:20:04 11.4 C 8.31 g/m*3 11.4 C 0 km/h
2181 29-08-2010 04:32:04 11.4 C 8.42 g/m*3 11.4 C 0 km/h
2182 29-08-2010 04:44:04 11.4 C 8.42 g/m*3 11.4 C 0 km/h
2183 29-08-2010 04:56:04 11.7 C 8.37 g/m*3 11.7 C 0 km/h
2184 29-08-2010 05:08:04 11.8 C 8.31 g/m*3 11.8 C 0 km/h
2185 29-08-2010 05:20:04 11.7 C 8.26 g/m*3 11.7 C 0 km/h
2186 29-08-2010 05:32:04 11.7 C 8.26 g/m*3 11.7 C 0 km/h
2187 29-08-2010 05:44:04 11.7 C 8.37 g/m*3 11.7 C 0 km/h
2188 29-08-2010 05:56:04 11.8 C 8.42 g/m*3 11.8 C 0 km/h
2189 29-08-2010 06:08:04 12.2 C 8.31 g/m*3 12.2 C 0 km/h
2190 29-08-2010 06:20:04 12.1 C 8.26 g/m*3 12.1 C 0 km/h
2191 29-08-2010 06:32:04 12.2 C 8.2 g/m*3 12.2 C 0 km/h
2192 29-08-2010 06:44:04 12 C 8.31 g/m*3 12 C 0 km/h
2193 29-08-2010 06:56:04 12 C 8.42 g/m*3 12 C 0 km/h
2194 29-08-2010 07:08:02 12.1 C 8.36 g/m*3 12.1 C 0 km/h
2195 29-08-2010 07:20:02 12.2 C 8.31 g/m*3 12.2 C 0 km/h
2196 29-08-2010 07:32:02 12.2 C 8.31 g/m*3 12.2 C 0 km/h
2197 29-08-2010 07:44:02 12.2 C 8.31 g/m*3 12.2 C 0 km/h
2198 29-08-2010 07:56:02 12.3 C 8.36 g/m*3 12.3 C 0 km/h
2199 29-08-2010 08:08:02 12.1 C 8.36 g/m*3 12.1 C 0 km/h
2200 29-08-2010 08:20:01 12.2 C 8.42 g/m*3 12.2 C 0 km/h
Sensor: Nr:Datum:Temp:Abs-Feuchte:Windchill:Wind:
Aussen-T/F 2201 29-08-2010 08:32:02 12.5 C 8.36 g/m*3 12.5 C 0 km/h
2202 29-08-2010 08:44:02 12.6 C 8.3 g/m*3 12.6 C 0 km/h
2203 29-08-2010 08:56:01 12.8 C 8.29 g/m*3 12.8 C 0 km/h
2204 29-08-2010 09:08:02 13.5 C 8.3 g/m*3 13.5 C 0 km/h
2205 29-08-2010 09:20:02 13.8 C 8.1 g/m*3 13.8 C 0 km/h
2206 29-08-2010 09:32:01 14 C 8.08 g/m*3 14 C 0 km/h
2207 29-08-2010 09:44:01 14.3 C 8.23 g/m*3 14.3 C 0 km/h
2208 29-08-2010 09:56:03 14.4 C 8.16 g/m*3 14.4 C 0 km/h
2209 29-08-2010 10:08:03 14.9 C 8.28 g/m*3 14.9 C 0 km/h
2210 29-08-2010 10:20:03 15.3 C 7.97 g/m*3 15.3 C 0 km/h
2211 29-08-2010 10:32:02 15.3 C 7.97 g/m*3 15.3 C 0 km/h
2212 29-08-2010 10:44:02 15.7 C 8.03 g/m*3 15.7 C 0 km/h
2213 29-08-2010 10:56:01 15.8 C 7.94 g/m*3 15.8 C 0 km/h
2214 29-08-2010 11:08:02 16.3 C 8.05 g/m*3 16.3 C 0 km/h
2215 29-08-2010 11:20:01 16.4 C 7.96 g/m*3 16.4 C 0 km/h
2216 29-08-2010 11:32:01 16.6 C 7.91 g/m*3 16.6 C 0 km/h
2217 29-08-2010 11:44:01 16 C 7.77 g/m*3 16 C 0 km/h
2218 29-08-2010 11:56:01 16 C 7.9 g/m*3 16 C 0 km/h
2219 29-08-2010 12:08:01 15.9 C 7.85 g/m*3 15.9 C 0 km/h
2220 29-08-2010 12:20:02 14 C 9.17 g/m*3 14 C 0 km/h
2221 29-08-2010 12:32:01 14.6 C 9.76 g/m*3 14.6 C 0 km/h
2222 29-08-2010 12:44:01 15.1 C 9.16 g/m*3 15.1 C 0 km/h
2223 29-08-2010 12:56:03 16 C 9.13 g/m*3 16 C 0 km/h
2224 29-08-2010 13:08:02 16.9 C 8.92 g/m*3 16.9 C 0 km/h
2225 29-08-2010 13:20:02 16.9 C 8.63 g/m*3 16.9 C 0 km/h
Sensor: Nr:Datum:Temp:Abs-Feuchte:Windchill:Wind:
Aussen-T/F 2226 29-08-2010 13:32:02 16.4 C 8.37 g/m*3 16.4 C 0 km/h
2227 29-08-2010 13:44:02 15.3 C 8.62 g/m*3 15.3 C 0 km/h
2228 29-08-2010 13:56:02 14.7 C 8.94 g/m*3 14.7 C 0 km/h
2229 29-08-2010 14:08:01 15.2 C 8.83 g/m*3 15.2 C 0 km/h
2230 29-08-2010 14:20:02 16.4 C 8.51 g/m*3 16.4 C 0 km/h
2231 29-08-2010 14:32:02 17 C 7.96 g/m*3 17 C 0 km/h
2232 29-08-2010 14:44:02 17.1 C 8.3 g/m*3 17.1 C 0 km/h
2233 29-08-2010 14:56:01 16.6 C 8.33 g/m*3 16.6 C 0 km/h
2234 29-08-2010 15:08:01 15.7 C 8.3 g/m*3 15.7 C 0 km/h
2235 29-08-2010 15:20:01 15.5 C 8.2 g/m*3 15.5 C 0 km/h
2236 29-08-2010 15:32:02 14.2 C 8.91 g/m*3 14.2 C 0 km/h
2237 29-08-2010 15:44:02 14.7 C 9.69 g/m*3 14.7 C 0 km/h
2238 29-08-2010 15:56:02 15.3 C 9.4 g/m*3 15.3 C 0 km/h
2239 29-08-2010 16:08:02 15.1 C 9.03 g/m*3 15.1 C 0 km/h
2240 29-08-2010 16:20:02 15.5 C 8.99 g/m*3 15.5 C 0 km/h
2241 29-08-2010 16:32:02 15.9 C 8.53 g/m*3 15.9 C 0 km/h
2242 29-08-2010 16:44:03 16.2 C 8.14 g/m*3 16.2 C 0 km/h
2243 29-08-2010 16:56:02 16.1 C 7.81 g/m*3 16.1 C 0 km/h
2244 29-08-2010 17:08:02 15.9 C 7.85 g/m*3 15.9 C 0 km/h
2245 29-08-2010 17:20:02 15.6 C 7.98 g/m*3 15.6 C 0 km/h
2246 29-08-2010 17:32:02 15.2 C 8.18 g/m*3 15.2 C 0 km/h
2247 29-08-2010 17:44:02 14.1 C 8.74 g/m*3 14.1 C 0 km/h
2248 29-08-2010 17:56:02 14 C 8.68 g/m*3 14 C 0 km/h
2249 29-08-2010 18:08:02 13.8 C 8.94 g/m*3 13.8 C 0 km/h
2250 29-08-2010 18:20:01 13.4 C 9.3 g/m*3 13.4 C 0 km/h
Sensor: Nr:Datum:Temp:Abs-Feuchte:Windchill:Wind:
Aussen-T/F 2251 29-08-2010 18:32:01 13.1 C 9.59 g/m*3 13.1 C 0 km/h
2252 29-08-2010 18:44:01 12.7 C 9.46 g/m*3 12.7 C 0 km/h
2253 29-08-2010 18:56:02 12.3 C 9.23 g/m*3 12.3 C 0 km/h
2254 29-08-2010 19:08:02 12.2 C 9.28 g/m*3 12.2 C 0 km/h
2255 29-08-2010 19:20:01 12.2 C 9.39 g/m*3 12.2 C 0 km/h
2256 29-08-2010 19:32:02 12 C 9.38 g/m*3 12 C 0 km/h
2257 29-08-2010 19:44:02 11.8 C 9.26 g/m*3 11.8 C 0 km/h
2258 29-08-2010 19:56:02 11.8 C 9.16 g/m*3 11.8 C 0 km/h
2259 29-08-2010 20:08:02 11.8 C 8.95 g/m*3 11.8 C 0 km/h
2260 29-08-2010 20:20:03 11.8 C 8.95 g/m*3 11.8 C 0 km/h
2261 29-08-2010 20:32:02 11.7 C 8.89 g/m*3 11.7 C 0 km/h
2262 29-08-2010 20:44:02 11.7 C 8.99 g/m*3 11.7 C 0 km/h
2263 29-08-2010 20:56:01 11.9 C 9 g/m*3 11.9 C 0 km/h
2264 29-08-2010 21:08:01 12 C 8.95 g/m*3 12 C 0 km/h
2265 29-08-2010 21:20:02 12.2 C 8.96 g/m*3 12.2 C 0 km/h
2266 29-08-2010 21:32:01 12.3 C 9.01 g/m*3 12.3 C 0 km/h
2267 29-08-2010 21:44:01 12 C 8.95 g/m*3 12 C 0 km/h
2268 29-08-2010 21:56:02 9.7 C 7.74 g/m*3 9.7 C 0 km/h
2269 29-08-2010 22:09:03 9.3 C 7.82 g/m*3 9.3 C 0 km/h
2270 29-08-2010 22:21:03 9.2 C 7.95 g/m*3 9.2 C 0 km/h
2271 29-08-2010 22:33:03 9.2 C 8.04 g/m*3 9.2 C 0 km/h
2272 29-08-2010 22:45:03 9.2 C 8.13 g/m*3 9.2 C 0 km/h
2273 29-08-2010 22:57:03 9.1 C 8.16 g/m*3 9.1 C 0 km/h
2274 29-08-2010 23:09:03 9 C 8.11 g/m*3 9 C 0 km/h
2275 29-08-2010 23:21:03 9 C 8.11 g/m*3 9 C 0 km/h
Sensor: Nr:Datum:Temp:Abs-Feuchte:Windchill:Wind:
Aussen-T/F 2276 29-08-2010 23:33:03 9 C 8.11 g/m*3 9 C 0 km/h
2277 29-08-2010 23:45:03 9.3 C 8.27 g/m*3 9.3 C 0 km/h
2278 29-08-2010 23:57:03 9.3 C 8.18 g/m*3 9.3 C 0 km/h
2279 30-08-2010 00:09:03 9.1 C 7.99 g/m*3 9.1 C 0 km/h
2280 30-08-2010 00:21:03 9.1 C 7.99 g/m*3 9.1 C 0 km/h
2281 30-08-2010 00:33:03 9.1 C 7.99 g/m*3 9.1 C 0 km/h
2282 30-08-2010 00:45:03 9.2 C 7.95 g/m*3 9.2 C 0 km/h
2283 30-08-2010 00:57:03 9.5 C 8.01 g/m*3 9.5 C 0 km/h
2284 30-08-2010 01:09:03 9.7 C 7.93 g/m*3 9.7 C 0 km/h
2285 30-08-2010 01:21:03 9.8 C 7.89 g/m*3 9.8 C 0 km/h
2286 30-08-2010 01:33:03 10 C 7.8 g/m*3 10 C 0 km/h
2287 30-08-2010 01:45:04 10 C 7.8 g/m*3 10 C 0 km/h
2288 30-08-2010 01:57:04 10.2 C 7.8 g/m*3 10.2 C 0 km/h
2289 30-08-2010 02:09:04 10.1 C 7.75 g/m*3 10.1 C 0 km/h
2290 30-08-2010 02:21:04 10.2 C 7.8 g/m*3 10.2 C 0 km/h
2291 30-08-2010 02:33:04 10.5 C 7.86 g/m*3 10.5 C 0 km/h
2292 30-08-2010 02:45:04 10.8 C 7.81 g/m*3 10.8 C 0 km/h
2293 30-08-2010 02:57:04 11 C 7.61 g/m*3 11 C 0 km/h
2294 30-08-2010 03:09:04 11.1 C 7.45 g/m*3 11.1 C 0 km/h
2295 30-08-2010 03:21:04 11.2 C 7.5 g/m*3 11.2 C 0 km/h
2296 30-08-2010 03:33:04 11 C 7.61 g/m*3 11 C 0 km/h
2297 30-08-2010 03:45:04 10.5 C 7.76 g/m*3 10.5 C 0 km/h
2298 30-08-2010 03:57:04 10.3 C 7.95 g/m*3 10.3 C 0 km/h
2299 30-08-2010 04:09:04 10.3 C 8.04 g/m*3 10.3 C 0 km/h
2300 30-08-2010 04:21:04 10.3 C 8.04 g/m*3 10.3 C 0 km/h
Sensor: Nr:Datum:Temp:Abs-Feuchte:Windchill:Wind:
Aussen-T/F 2301 30-08-2010 04:33:04 10.3 C 8.04 g/m*3 10.3 C 0 km/h
2302 30-08-2010 04:45:04 10.2 C 7.99 g/m*3 10.2 C 0 km/h
2303 30-08-2010 04:57:04 10.2 C 7.8 g/m*3 10.2 C 0 km/h
2304 30-08-2010 05:09:04 9.8 C 7.7 g/m*3 9.8 C 0 km/h
2305 30-08-2010 05:21:04 9.6 C 7.79 g/m*3 9.6 C 0 km/h
2306 30-08-2010 05:33:04 9.3 C 7.91 g/m*3 9.3 C 0 km/h
2307 30-08-2010 05:45:05 9.6 C 8.24 g/m*3 9.6 C 0 km/h
2308 30-08-2010 05:57:05 9.8 C 8.44 g/m*3 9.8 C 0 km/h
2309 30-08-2010 06:09:05 9.9 C 8.5 g/m*3 9.9 C 0 km/h
2310 30-08-2010 06:21:05 10 C 8.46 g/m*3 10 C 0 km/h
2311 30-08-2010 06:33:05 10.1 C 8.51 g/m*3 10.1 C 0 km/h
2312 30-08-2010 06:45:05 10.1 C 8.42 g/m*3 10.1 C 0 km/h
2313 30-08-2010 06:57:05 10.2 C 8.47 g/m*3 10.2 C 0 km/h
2314 30-08-2010 07:09:05 10.1 C 8.42 g/m*3 10.1 C 0 km/h
2315 30-08-2010 07:21:05 9.9 C 8.4 g/m*3 9.9 C 0 km/h
2316 30-08-2010 07:33:05 9.8 C 8.35 g/m*3 9.8 C 0 km/h
2317 30-08-2010 07:45:05 9.9 C 8.4 g/m*3 9.9 C 0 km/h
2318 30-08-2010 07:57:05 10.1 C 8.42 g/m*3 10.1 C 0 km/h
2319 30-08-2010 08:09:05 10.1 C 8.42 g/m*3 10.1 C 0 km/h
2320 30-08-2010 08:21:02 10.7 C 8.74 g/m*3 10.7 C 0 km/h
2321 30-08-2010 08:33:02 11 C 8.71 g/m*3 11 C 0 km/h
2322 30-08-2010 08:45:01 11.2 C 8.72 g/m*3 11.2 C 0 km/h
2323 30-08-2010 08:57:01 11.1 C 8.56 g/m*3 11.1 C 0 km/h
2324 30-08-2010 09:09:01 11.2 C 8.62 g/m*3 11.2 C 0 km/h
2325 30-08-2010 09:21:01 10.8 C 8.4 g/m*3 10.8 C 0 km/h
Sensor: Nr:Datum:Temp:Abs-Feuchte:Windchill:Wind:
Aussen-T/F 2326 30-08-2010 09:33:01 10.8 C 8.6 g/m*3 10.8 C 0 km/h
2327 30-08-2010 09:45:01 11 C 8.71 g/m*3 11 C 0 km/h
2328 30-08-2010 09:57:01 11.1 C 8.86 g/m*3 11.1 C 0 km/h
2329 30-08-2010 10:09:01 11 C 8.61 g/m*3 11 C 0 km/h
2330 30-08-2010 10:21:02 11.5 C 8.88 g/m*3 11.5 C 0 km/h
2331 30-08-2010 10:33:01 11.9 C 8.9 g/m*3 11.9 C 0 km/h
2332 30-08-2010 10:45:02 12.4 C 8.96 g/m*3 12.4 C 0 km/h
2333 30-08-2010 10:57:02 12.5 C 8.8 g/m*3 12.5 C 0 km/h
2334 30-08-2010 11:09:03 12.6 C 8.96 g/m*3 12.6 C 0 km/h
2335 30-08-2010 11:21:02 12.7 C 8.13 g/m*3 12.7 C 0 km/h
2336 30-08-2010 11:33:02 13.1 C 8.1 g/m*3 13.1 C 0 km/h
2337 30-08-2010 11:45:02 13.1 C 8.1 g/m*3 13.1 C 0 km/h
2338 30-08-2010 11:57:02 13.5 C 8.3 g/m*3 13.5 C 0 km/h
2339 30-08-2010 12:09:01 13.8 C 8.22 g/m*3 13.8 C 0 km/h
2340 30-08-2010 12:21:02 13.4 C 7.9 g/m*3 13.4 C 0 km/h
2341 30-08-2010 12:33:01 13.8 C 8.22 g/m*3 13.8 C 0 km/h
2342 30-08-2010 12:45:02 14.5 C 6.96 g/m*3 14.5 C 0 km/h
2343 30-08-2010 12:57:02 14.6 C 6.76 g/m*3 14.6 C 0 km/h
2344 30-08-2010 13:09:01 15.5 C 6.74 g/m*3 15.5 C 0 km/h
2345 30-08-2010 13:21:01 16 C 6.81 g/m*3 16 C 0 km/h
2346 30-08-2010 13:33:01 16.3 C 6.52 g/m*3 16.3 C 0 km/h
2347 30-08-2010 13:45:02 16.2 C 6.76 g/m*3 16.2 C 0 km/h
2348 30-08-2010 13:57:02 16.2 C 7.03 g/m*3 16.2 C 0 km/h
2349 30-08-2010 14:09:01 15.7 C 7.36 g/m*3 15.7 C 0 km/h
2350 30-08-2010 14:21:02 15.6 C 7.85 g/m*3 15.6 C 0 km/h
Sensor: Nr:Datum:Temp:Abs-Feuchte:Windchill:Wind:
Aussen-T/F 2351 30-08-2010 14:33:02 16.6 C 7.91 g/m*3 16.6 C 0 km/h
2352 30-08-2010 14:45:02 16.7 C 7.67 g/m*3 16.7 C 0 km/h
2353 30-08-2010 14:57:02 16.8 C 7.86 g/m*3 16.8 C 0 km/h
2354 30-08-2010 15:09:03 17.3 C 8.25 g/m*3 17.3 C 0 km/h
2355 30-08-2010 15:21:02 17.7 C 7.85 g/m*3 17.7 C 0 km/h
2356 30-08-2010 15:33:02 17.3 C 7.66 g/m*3 17.3 C 0 km/h
2357 30-08-2010 15:45:01 17.7 C 7.54 g/m*3 17.7 C 0 km/h
2358 30-08-2010 15:57:01 17.4 C 7.71 g/m*3 17.4 C 0 km/h
2359 30-08-2010 16:09:02 16.9 C 7.77 g/m*3 16.9 C 0 km/h
2360 30-08-2010 16:21:01 15.8 C 8.88 g/m*3 15.8 C 0 km/h
2361 30-08-2010 16:33:02 14.8 C 9.37 g/m*3 14.8 C 0 km/h
2362 30-08-2010 16:45:02 15.5 C 9.78 g/m*3 15.5 C 0 km/h
2363 30-08-2010 16:57:02 16.3 C 9.85 g/m*3 16.3 C 0 km/h
2364 30-08-2010 17:09:02 15.8 C 9.42 g/m*3 15.8 C 0 km/h
2365 30-08-2010 17:21:01 15 C 9.49 g/m*3 15 C 0 km/h
2366 30-08-2010 17:33:02 14.8 C 9.5 g/m*3 14.8 C 0 km/h
2367 30-08-2010 17:45:01 14.7 C 8.81 g/m*3 14.7 C 0 km/h
2368 30-08-2010 17:57:01 14.9 C 8.92 g/m*3 14.9 C 0 km/h
2369 30-08-2010 18:09:02 14.7 C 8.69 g/m*3 14.7 C 0 km/h
2370 30-08-2010 18:21:01 14.6 C 8.76 g/m*3 14.6 C 0 km/h
2371 30-08-2010 18:33:02 14.3 C 8.6 g/m*3 14.3 C 0 km/h
2372 30-08-2010 18:45:01 14.1 C 8.74 g/m*3 14.1 C 0 km/h
2373 30-08-2010 18:57:01 13.9 C 8.99 g/m*3 13.9 C 0 km/h
2374 30-08-2010 19:09:02 13.9 C 8.99 g/m*3 13.9 C 0 km/h
2375 30-08-2010 19:21:02 13.9 C 9.23 g/m*3 13.9 C 0 km/h
Sensor: Nr:Datum:Temp:Abs-Feuchte:Windchill:Wind:
Aussen-T/F 2376 30-08-2010 19:33:01 14.1 C 9.22 g/m*3 14.1 C 0 km/h
2377 30-08-2010 19:45:02 14.2 C 8.91 g/m*3 14.2 C 0 km/h
2378 30-08-2010 19:57:02 14.1 C 8.5 g/m*3 14.1 C 0 km/h
2379 30-08-2010 20:09:01 13.9 C 8.51 g/m*3 13.9 C 0 km/h
2380 30-08-2010 20:21:02 13.9 C 8.51 g/m*3 13.9 C 0 km/h
2381 30-08-2010 20:33:01 14 C 8.56 g/m*3 14 C 0 km/h
2382 30-08-2010 20:45:02 13.8 C 8.94 g/m*3 13.8 C 0 km/h
2383 30-08-2010 20:57:02 13.2 C 9.07 g/m*3 13.2 C 0 km/h
2384 30-08-2010 21:09:02 13.1 C 9.36 g/m*3 13.1 C 0 km/h
2385 30-08-2010 21:21:01 12.9 C 9.58 g/m*3 12.9 C 0 km/h
2386 30-08-2010 21:33:01 12.7 C 9.68 g/m*3 12.7 C 0 km/h
2387 30-08-2010 21:45:02 12.4 C 9.51 g/m*3 12.4 C 0 km/h
2388 30-08-2010 21:57:02 12.5 C 9.68 g/m*3 12.5 C 0 km/h
2389 30-08-2010 22:09:02 12.8 C 9.97 g/m*3 12.8 C 0 km/h
2390 30-08-2010 22:21:02 12.8 C 9.97 g/m*3 12.8 C 0 km/h
2391 30-08-2010 22:33:02 12.7 C 9.91 g/m*3 12.7 C 0 km/h
2392 30-08-2010 22:45:02 12.7 C 9.91 g/m*3 12.7 C 0 km/h
2393 30-08-2010 22:57:02 12.6 C 9.85 g/m*3 12.6 C 0 km/h
2394 30-08-2010 23:10:03 12.4 C 9.72 g/m*3 12.4 C 0 km/h
2395 30-08-2010 23:22:03 12.4 C 9.72 g/m*3 12.4 C 0 km/h
2396 30-08-2010 23:34:03 12.4 C 9.83 g/m*3 12.4 C 0 km/h
2397 30-08-2010 23:46:03 12.2 C 9.6 g/m*3 12.2 C 0 km/h
2398 30-08-2010 23:58:03 12.1 C 9.54 g/m*3 12.1 C 0 km/h
2399 31-08-2010 00:10:03 12 C 9.48 g/m*3 12 C 0 km/h
2400 31-08-2010 00:22:03 12.1 C 9.54 g/m*3 12.1 C 0 km/h
Sensor: Nr:Datum:Temp:Abs-Feuchte:Windchill:Wind:
Aussen-T/F 2401 31-08-2010 00:34:03 12.2 C 9.6 g/m*3 12.2 C 0 km/h
2402 31-08-2010 00:46:03 12.4 C 9.72 g/m*3 12.4 C 0 km/h
2403 31-08-2010 00:58:03 12.4 C 9.72 g/m*3 12.4 C 0 km/h
2404 31-08-2010 01:10:03 12.5 C 9.68 g/m*3 12.5 C 0 km/h
2405 31-08-2010 01:22:03 12.6 C 9.62 g/m*3 12.6 C 0 km/h
2406 31-08-2010 01:34:03 12.5 C 9.46 g/m*3 12.5 C 0 km/h
2407 31-08-2010 01:46:03 12.4 C 9.4 g/m*3 12.4 C 0 km/h
2408 31-08-2010 01:58:03 12.1 C 9.12 g/m*3 12.1 C 0 km/h
2409 31-08-2010 02:10:03 12.2 C 9.28 g/m*3 12.2 C 0 km/h
2410 31-08-2010 02:22:03 12.4 C 9.4 g/m*3 12.4 C 0 km/h
2411 31-08-2010 02:34:03 12.4 C 9.29 g/m*3 12.4 C 0 km/h
2412 31-08-2010 02:46:03 12.4 C 9.29 g/m*3 12.4 C 0 km/h
2413 31-08-2010 02:58:04 12.4 C 9.29 g/m*3 12.4 C 0 km/h
2414 31-08-2010 03:10:04 12.3 C 9.12 g/m*3 12.3 C 0 km/h
2415 31-08-2010 03:22:04 12.3 C 9.12 g/m*3 12.3 C 0 km/h
2416 31-08-2010 03:34:04 12 C 8.95 g/m*3 12 C 0 km/h
2417 31-08-2010 03:46:04 11.9 C 9.11 g/m*3 11.9 C 0 km/h
2418 31-08-2010 03:58:04 12 C 9.06 g/m*3 12 C 0 km/h
2419 31-08-2010 04:10:04 11.5 C 8.88 g/m*3 11.5 C 0 km/h
2420 31-08-2010 04:22:04 11.3 C 8.87 g/m*3 11.3 C 0 km/h
2421 31-08-2010 04:34:04 11.4 C 9.03 g/m*3 11.4 C 0 km/h
2422 31-08-2010 04:46:04 11.6 C 9.15 g/m*3 11.6 C 0 km/h
2423 31-08-2010 04:58:04 11.8 C 9.37 g/m*3 11.8 C 0 km/h
2424 31-08-2010 05:10:04 11.8 C 9.26 g/m*3 11.8 C 0 km/h
2425 31-08-2010 05:22:04 11.5 C 9.09 g/m*3 11.5 C 0 km/h
Sensor: Nr:Datum:Temp:Abs-Feuchte:Windchill:Wind:
Aussen-T/F 2426 31-08-2010 05:34:04 11.2 C 8.92 g/m*3 11.2 C 0 km/h
2427 31-08-2010 05:46:04 11.1 C 8.86 g/m*3 11.1 C 0 km/h
2428 31-08-2010 05:58:04 11.3 C 9.08 g/m*3 11.3 C 0 km/h
2429 31-08-2010 06:10:04 11.4 C 9.14 g/m*3 11.4 C 0 km/h
2430 31-08-2010 06:22:04 11.5 C 9.19 g/m*3 11.5 C 0 km/h
2431 31-08-2010 06:34:04 11.7 C 9.31 g/m*3 11.7 C 0 km/h
2432 31-08-2010 06:46:02 11.9 C 9.32 g/m*3 11.9 C 0 km/h
2433 31-08-2010 06:58:02 12 C 9.17 g/m*3 12 C 0 km/h
2434 31-08-2010 07:10:02 12.1 C 9.12 g/m*3 12.1 C 0 km/h
2435 31-08-2010 07:22:03 12.1 C 9.12 g/m*3 12.1 C 0 km/h
2436 31-08-2010 07:34:02 12.2 C 9.06 g/m*3 12.2 C 0 km/h
2437 31-08-2010 07:46:02 12.2 C 9.06 g/m*3 12.2 C 0 km/h
2438 31-08-2010 07:58:02 12.4 C 9.07 g/m*3 12.4 C 0 km/h
2439 31-08-2010 08:10:02 12.5 C 9.02 g/m*3 12.5 C 0 km/h
2440 31-08-2010 08:22:02 12.5 C 9.02 g/m*3 12.5 C 0 km/h
2441 31-08-2010 08:34:02 12.6 C 9.07 g/m*3 12.6 C 0 km/h
2442 31-08-2010 08:46:02 12.7 C 9.13 g/m*3 12.7 C 0 km/h
2443 31-08-2010 08:58:02 12.9 C 9.13 g/m*3 12.9 C 0 km/h
2444 31-08-2010 09:10:02 13.2 C 9.07 g/m*3 13.2 C 0 km/h
2445 31-08-2010 09:22:02 13.4 C 8.95 g/m*3 13.4 C 0 km/h
2446 31-08-2010 09:34:02 13.6 C 8.94 g/m*3 13.6 C 0 km/h
2447 31-08-2010 09:46:02 13.7 C 8.76 g/m*3 13.7 C 0 km/h
2448 31-08-2010 09:58:02 14 C 8.56 g/m*3 14 C 0 km/h
2449 31-08-2010 10:10:02 14.1 C 8.5 g/m*3 14.1 C 0 km/h
2450 31-08-2010 10:22:03 14 C 8.2 g/m*3 14 C 0 km/h
Sensor: Nr:Datum:Temp:Abs-Feuchte:Windchill:Wind:
Aussen-T/F 2451 31-08-2010 10:34:02 14 C 8.32 g/m*3 14 C 0 km/h
2452 31-08-2010 10:46:03 14.2 C 8.3 g/m*3 14.2 C 0 km/h
2453 31-08-2010 10:58:03 14.4 C 8.41 g/m*3 14.4 C 0 km/h
2454 31-08-2010 11:10:02 14.8 C 8.23 g/m*3 14.8 C 0 km/h
2455 31-08-2010 11:22:02 15.1 C 8.13 g/m*3 15.1 C 0 km/h
2456 31-08-2010 11:34:02 15.6 C 8.11 g/m*3 15.6 C 0 km/h
2457 31-08-2010 11:46:02 16.1 C 8.09 g/m*3 16.1 C 0 km/h
2458 31-08-2010 11:58:02 16.4 C 7.82 g/m*3 16.4 C 0 km/h
2459 31-08-2010 12:10:02 16.8 C 7.86 g/m*3 16.8 C 0 km/h
2460 31-08-2010 12:22:02 16.3 C 7.91 g/m*3 16.3 C 0 km/h
2461 31-08-2010 12:34:01 16.9 C 8.2 g/m*3 16.9 C 0 km/h
2462 31-08-2010 12:46:02 16.7 C 7.82 g/m*3 16.7 C 0 km/h
2463 31-08-2010 12:58:03 17.7 C 7.85 g/m*3 17.7 C 0 km/h
2464 31-08-2010 13:10:01 17.3 C 7.37 g/m*3 17.3 C 0 km/h
2465 31-08-2010 13:22:01 17.5 C 6.86 g/m*3 17.5 C 0 km/h
2466 31-08-2010 13:34:02 18.2 C 6.84 g/m*3 18.2 C 0 km/h
2467 31-08-2010 13:46:02 18.3 C 7.04 g/m*3 18.3 C 0 km/h
2468 31-08-2010 13:58:02 18.5 C 6.8 g/m*3 18.5 C 0 km/h
2469 31-08-2010 14:10:02 19.2 C 6.76 g/m*3 19.2 C 0 km/h
2470 31-08-2010 14:22:02 19.9 C 6.7 g/m*3 19.9 C 0 km/h
2471 31-08-2010 14:34:02 20.3 C 6.51 g/m*3 20.3 C 0 km/h
2472 31-08-2010 14:46:02 20.8 C 6.34 g/m*3 20.8 C 0 km/h
2473 31-08-2010 14:58:02 20.6 C 5.91 g/m*3 20.6 C 0 km/h
2474 31-08-2010 15:10:02 20.4 C 6.19 g/m*3 20.4 C 0 km/h
2475 31-08-2010 15:22:02 20.1 C 6.26 g/m*3 20.1 C 0 km/h
Sensor: Nr:Datum:Temp:Abs-Feuchte:Windchill:Wind:
Aussen-T/F 2476 31-08-2010 15:34:02 21.4 C 5.62 g/m*3 21.4 C 0 km/h
2477 31-08-2010 15:46:02 22 C 5.43 g/m*3 22 C 0 km/h
2478 31-08-2010 15:58:02 22.1 C 5.66 g/m*3 22.1 C 0 km/h
2479 31-08-2010 16:10:02 21.4 C 5.81 g/m*3 21.4 C 0 km/h
2480 31-08-2010 16:22:02 21.1 C 5.9 g/m*3 21.1 C 0 km/h
2481 31-08-2010 16:34:02 22.6 C 5.42 g/m*3 22.6 C 0 km/h
2482 31-08-2010 16:46:02 21.3 C 5.59 g/m*3 21.3 C 0 km/h
2483 31-08-2010 16:58:02 20.9 C 5.46 g/m*3 20.9 C 0 km/h
2484 31-08-2010 17:10:02 22.8 C 5.08 g/m*3 22.8 C 0 km/h
2485 31-08-2010 17:22:03 20.9 C 5.83 g/m*3 20.9 C 0 km/h
2486 31-08-2010 17:34:02 21.8 C 5.56 g/m*3 21.8 C 0 km/h
2487 31-08-2010 17:46:02 21.6 C 5.69 g/m*3 21.6 C 0 km/h
2488 31-08-2010 17:58:02 22 C 5.63 g/m*3 22 C 0 km/h
2489 31-08-2010 18:10:02 22.7 C 5.66 g/m*3 22.7 C 0 km/h
2490 31-08-2010 18:22:02 22.3 C 5.33 g/m*3 22.3 C 0 km/h
2491 31-08-2010 18:34:02 22.1 C 5.47 g/m*3 22.1 C 0 km/h
2492 31-08-2010 18:46:02 22.1 C 5.86 g/m*3 22.1 C 0 km/h
2493 31-08-2010 18:58:02 22.1 C 6.05 g/m*3 22.1 C 0 km/h
2494 31-08-2010 19:10:01 21.7 C 6.1 g/m*3 21.7 C 0 km/h
2495 31-08-2010 19:22:02 20.5 C 5.69 g/m*3 20.5 C 0 km/h
2496 31-08-2010 19:34:02 20.4 C 6.55 g/m*3 20.4 C 0 km/h
2497 31-08-2010 19:46:02 20 C 6.91 g/m*3 20 C 0 km/h
2498 31-08-2010 19:58:03 19 C 7.33 g/m*3 19 C 0 km/h
2499 31-08-2010 20:10:01 17.9 C 7.18 g/m*3 17.9 C 0 km/h
2500 31-08-2010 20:22:01 16.9 C 7.19 g/m*3 16.9 C 0 km/h
Sensor: Nr:Datum:Temp:Abs-Feuchte:Windchill:Wind:
Aussen-T/F 2501 31-08-2010 20:34:02 16.2 C 7.17 g/m*3 16.2 C 0 km/h
2502 31-08-2010 20:46:02 15.7 C 7.09 g/m*3 15.7 C 0 km/h
2503 31-08-2010 20:58:02 15.2 C 7.14 g/m*3 15.2 C 0 km/h
2504 31-08-2010 21:10:02 14.9 C 7.39 g/m*3 14.9 C 0 km/h
2505 31-08-2010 21:22:02 14.7 C 7.43 g/m*3 14.7 C 0 km/h
2506 31-08-2010 21:34:02 14.5 C 7.59 g/m*3 14.5 C 0 km/h
2507 31-08-2010 21:47:09 14.2 C 7.69 g/m*3 14.2 C 0 km/h
2508 31-08-2010 21:59:09 13.9 C 7.91 g/m*3 13.9 C 0 km/h
2509 31-08-2010 22:11:09 13.8 C 8.22 g/m*3 13.8 C 0 km/h
2510 31-08-2010 22:23:09 13.5 C 8.07 g/m*3 13.5 C 0 km/h
2511 31-08-2010 22:35:09 13.2 C 8.04 g/m*3 13.2 C 0 km/h
2512 31-08-2010 22:47:09 13 C 8.05 g/m*3 13 C 0 km/h
2513 31-08-2010 22:59:09 12.7 C 8.13 g/m*3 12.7 C 0 km/h
2514 31-08-2010 23:11:09 12.5 C 8.14 g/m*3 12.5 C 0 km/h
2515 31-08-2010 23:23:09 12.4 C 8.19 g/m*3 12.4 C 0 km/h
2516 31-08-2010 23:35:09 12.4 C 8.09 g/m*3 12.4 C 0 km/h
2517 31-08-2010 23:47:09 12.2 C 7.99 g/m*3 12.2 C 0 km/h
2518 31-08-2010 23:59:09 12.1 C 8.04 g/m*3 12.1 C 0 km/h
2519 01-09-2010 00:11:09 12 C 8.1 g/m*3 12 C 0 km/h
2520 01-09-2010 00:23:09 11.8 C 8.1 g/m*3 11.8 C 0 km/h
2521 01-09-2010 00:35:09 11.6 C 8.11 g/m*3 11.6 C 0 km/h
2522 01-09-2010 00:47:10 11.3 C 8.06 g/m*3 11.3 C 0 km/h
2523 01-09-2010 00:59:10 11.2 C 8.01 g/m*3 11.2 C 0 km/h
2524 01-09-2010 01:11:10 11.2 C 8.11 g/m*3 11.2 C 0 km/h
2525 01-09-2010 01:23:10 11.1 C 8.06 g/m*3 11.1 C 0 km/h
Sensor: Nr:Datum:Temp:Abs-Feuchte:Windchill:Wind:
Aussen-T/F 2526 01-09-2010 01:35:10 11 C 8.11 g/m*3 11 C 0 km/h
2527 01-09-2010 01:47:10 10.9 C 8.16 g/m*3 10.9 C 0 km/h
2528 01-09-2010 01:59:10 10.7 C 8.05 g/m*3 10.7 C 0 km/h
2529 01-09-2010 02:11:10 10.6 C 8 g/m*3 10.6 C 0 km/h
2530 01-09-2010 02:23:10 10.5 C 7.95 g/m*3 10.5 C 0 km/h
2531 01-09-2010 02:35:10 10.4 C 8 g/m*3 10.4 C 0 km/h
2532 01-09-2010 02:47:10 10.2 C 7.9 g/m*3 10.2 C 0 km/h
2533 01-09-2010 02:59:10 10.1 C 7.94 g/m*3 10.1 C 0 km/h
2534 01-09-2010 03:11:10 10 C 7.89 g/m*3 10 C 0 km/h
2535 01-09-2010 03:23:10 9.9 C 8.03 g/m*3 9.9 C 0 km/h
2536 01-09-2010 03:35:10 9.8 C 8.07 g/m*3 9.8 C 0 km/h
2537 01-09-2010 03:47:10 9.6 C 7.97 g/m*3 9.6 C 0 km/h
2538 01-09-2010 03:59:10 9.4 C 7.87 g/m*3 9.4 C 0 km/h
2539 01-09-2010 04:11:10 9.3 C 7.91 g/m*3 9.3 C 0 km/h
2540 01-09-2010 04:23:10 9.2 C 7.86 g/m*3 9.2 C 0 km/h
2541 01-09-2010 04:35:10 9.1 C 7.81 g/m*3 9.1 C 0 km/h
2542 01-09-2010 04:47:10 9.1 C 7.9 g/m*3 9.1 C 0 km/h
2543 01-09-2010 04:59:11 9 C 7.85 g/m*3 9 C 0 km/h
2544 01-09-2010 05:11:11 8.9 C 7.88 g/m*3 8.9 C 0 km/h
2545 01-09-2010 05:23:11 8.9 C 7.97 g/m*3 8.9 C 0 km/h
2546 01-09-2010 05:35:11 8.9 C 7.97 g/m*3 8.9 C 0 km/h
2547 01-09-2010 05:47:11 8.9 C 7.97 g/m*3 8.9 C 0 km/h
2548 01-09-2010 05:59:11 9 C 7.93 g/m*3 9 C 0 km/h
2549 01-09-2010 06:11:11 9 C 8.02 g/m*3 9 C 0 km/h
2550 01-09-2010 06:23:11 8.9 C 8.06 g/m*3 8.9 C 0 km/h
Sensor: Nr:Datum:Temp:Abs-Feuchte:Windchill:Wind:
Aussen-T/F 2551 01-09-2010 06:35:11 8.9 C 8.06 g/m*3 8.9 C 0 km/h
2552 01-09-2010 06:47:11 9 C 8.02 g/m*3 9 C 0 km/h
2553 01-09-2010 06:59:11 8.9 C 8.06 g/m*3 8.9 C 0 km/h
2554 01-09-2010 07:11:03 9.1 C 8.07 g/m*3 9.1 C 0 km/h
2555 01-09-2010 07:23:03 9.1 C 7.99 g/m*3 9.1 C 0 km/h
2556 01-09-2010 07:35:02 9 C 7.93 g/m*3 9 C 0 km/h
2557 01-09-2010 07:47:01 8.9 C 7.97 g/m*3 8.9 C 0 km/h
2558 01-09-2010 07:59:01 9 C 7.93 g/m*3 9 C 0 km/h
2559 01-09-2010 08:11:02 9 C 7.93 g/m*3 9 C 0 km/h
2560 01-09-2010 08:23:02 9.1 C 7.99 g/m*3 9.1 C 0 km/h
2561 01-09-2010 08:35:01 9.2 C 8.04 g/m*3 9.2 C 0 km/h
2562 01-09-2010 08:47:02 9.3 C 8.09 g/m*3 9.3 C 0 km/h
2563 01-09-2010 08:59:02 9.7 C 8.2 g/m*3 9.7 C 0 km/h
2564 01-09-2010 09:11:02 9.8 C 8.16 g/m*3 9.8 C 0 km/h
2565 01-09-2010 09:23:02 10 C 8.08 g/m*3 10 C 0 km/h
2566 01-09-2010 09:35:02 10.2 C 8.09 g/m*3 10.2 C 0 km/h
2567 01-09-2010 09:47:02 10.5 C 8.15 g/m*3 10.5 C 0 km/h
2568 01-09-2010 09:59:02 10.6 C 8.2 g/m*3 10.6 C 0 km/h
2569 01-09-2010 10:11:02 11.2 C 8.41 g/m*3 11.2 C 0 km/h
2570 01-09-2010 10:23:01 11.7 C 8.58 g/m*3 11.7 C 0 km/h
2571 01-09-2010 10:35:02 12.2 C 8.52 g/m*3 12.2 C 0 km/h
2572 01-09-2010 10:47:01 12.4 C 8.52 g/m*3 12.4 C 0 km/h
2573 01-09-2010 10:59:01 13 C 8.73 g/m*3 13 C 0 km/h
2574 01-09-2010 11:11:02 13.4 C 8.72 g/m*3 13.4 C 0 km/h
2575 01-09-2010 11:23:02 13.7 C 8.64 g/m*3 13.7 C 0 km/h
Sensor: Nr:Datum:Temp:Abs-Feuchte:Windchill:Wind:
Aussen-T/F 2576 01-09-2010 11:35:02 14.1 C 8.74 g/m*3 14.1 C 0 km/h
2577 01-09-2010 11:47:02 14.7 C 8.94 g/m*3 14.7 C 0 km/h
2578 01-09-2010 11:59:02 15.4 C 8.8 g/m*3 15.4 C 0 km/h
2579 01-09-2010 12:11:02 16 C 8.72 g/m*3 16 C 0 km/h
2580 01-09-2010 12:23:02 16.9 C 8.63 g/m*3 16.9 C 0 km/h
2581 01-09-2010 12:35:01 17.2 C 8.2 g/m*3 17.2 C 0 km/h
2582 01-09-2010 12:47:02 17.8 C 8.5 g/m*3 17.8 C 0 km/h
2583 01-09-2010 12:59:02 18.3 C 8.6 g/m*3 18.3 C 0 km/h
2584 01-09-2010 13:11:01 18.7 C 8.33 g/m*3 18.7 C 0 km/h
2585 01-09-2010 13:23:01 19.2 C 8.08 g/m*3 19.2 C 0 km/h
2586 01-09-2010 13:35:02 19.7 C 7.81 g/m*3 19.7 C 0 km/h
2587 01-09-2010 13:47:02 19.9 C 7.9 g/m*3 19.9 C 0 km/h
2588 01-09-2010 13:59:02 20.1 C 7.65 g/m*3 20.1 C 0 km/h
2589 01-09-2010 14:11:02 20.9 C 7.47 g/m*3 20.9 C 0 km/h
2590 01-09-2010 14:23:02 20.1 C 6.95 g/m*3 20.1 C 0 km/h
2591 01-09-2010 14:35:02 21 C 7.33 g/m*3 21 C 0 km/h
2592 01-09-2010 14:47:02 21.7 C 6.87 g/m*3 21.7 C 0 km/h
2593 01-09-2010 14:59:02 22.2 C 6.48 g/m*3 22.2 C 0 km/h
2594 01-09-2010 15:11:03 22.6 C 6.43 g/m*3 22.6 C 0 km/h
2595 01-09-2010 15:23:02 23.2 C 6.03 g/m*3 23.2 C 0 km/h
2596 01-09-2010 15:35:02 23.5 C 5.71 g/m*3 23.5 C 0 km/h
2597 01-09-2010 15:47:01 24.1 C 5.91 g/m*3 24.1 C 0 km/h
2598 01-09-2010 15:59:01 24.6 C 5.85 g/m*3 24.6 C 0 km/h
2599 01-09-2010 16:11:02 23.5 C 5.5 g/m*3 23.5 C 0 km/h
2600 01-09-2010 16:23:01 24 C 5.87 g/m*3 24 C 0 km/h
Sensor: Nr:Datum:Temp:Abs-Feuchte:Windchill:Wind:
Aussen-T/F 2601 01-09-2010 16:35:01 23.8 C 6.02 g/m*3 23.8 C 0 km/h
2602 01-09-2010 16:47:01 23.8 C 6.45 g/m*3 23.8 C 0 km/h
2603 01-09-2010 16:59:01 23.9 C 6.27 g/m*3 23.9 C 0 km/h
2604 01-09-2010 17:11:02 23.1 C 6.2 g/m*3 23.1 C 0 km/h
2605 01-09-2010 17:23:01 22.7 C 6.47 g/m*3 22.7 C 0 km/h
2606 01-09-2010 17:35:01 22.1 C 6.05 g/m*3 22.1 C 0 km/h
2607 01-09-2010 17:47:01 21.3 C 6.52 g/m*3 21.3 C 0 km/h
2608 01-09-2010 17:59:01 21 C 6.59 g/m*3 21 C 0 km/h
2609 01-09-2010 18:11:01 20.7 C 7.02 g/m*3 20.7 C 0 km/h
2610 01-09-2010 18:23:02 20.3 C 6.86 g/m*3 20.3 C 0 km/h
2611 01-09-2010 18:35:01 21.6 C 7.02 g/m*3 21.6 C 0 km/h
2612 01-09-2010 18:47:02 22.1 C 6.83 g/m*3 22.1 C 0 km/h
2613 01-09-2010 18:59:02 20.8 C 7.06 g/m*3 20.8 C 0 km/h
2614 01-09-2010 19:11:01 20.7 C 7.38 g/m*3 20.7 C 0 km/h
2615 01-09-2010 19:23:02 20.3 C 7.56 g/m*3 20.3 C 0 km/h
2616 01-09-2010 19:35:01 19.6 C 7.77 g/m*3 19.6 C 0 km/h
2617 01-09-2010 19:47:02 19.1 C 8.03 g/m*3 19.1 C 0 km/h
2618 01-09-2010 19:59:02 18.4 C 8.49 g/m*3 18.4 C 0 km/h
2619 01-09-2010 20:11:02 18 C 8.45 g/m*3 18 C 0 km/h
2620 01-09-2010 20:23:02 17.6 C 8.7 g/m*3 17.6 C 0 km/h
2621 01-09-2010 20:35:03 17.3 C 8.84 g/m*3 17.3 C 0 km/h
2622 01-09-2010 20:47:02 17.1 C 8.73 g/m*3 17.1 C 0 km/h
2623 01-09-2010 20:59:02 16.8 C 8.86 g/m*3 16.8 C 0 km/h
2624 01-09-2010 21:11:01 16.6 C 8.9 g/m*3 16.6 C 0 km/h
2625 01-09-2010 21:23:02 16.5 C 8.85 g/m*3 16.5 C 0 km/h
Sensor: Nr:Datum:Temp:Abs-Feuchte:Windchill:Wind:
Aussen-T/F 2626 01-09-2010 21:35:02 16.3 C 8.88 g/m*3 16.3 C 0 km/h
2627 01-09-2010 21:47:02 16 C 8.72 g/m*3 16 C 0 km/h
2628 01-09-2010 21:59:02 15.8 C 8.88 g/m*3 15.8 C 0 km/h
2629 01-09-2010 22:12:03 15.8 C 8.88 g/m*3 15.8 C 0 km/h
2630 01-09-2010 22:24:03 15.6 C 8.78 g/m*3 15.6 C 0 km/h
2631 01-09-2010 22:36:03 15.5 C 8.86 g/m*3 15.5 C 0 km/h
2632 01-09-2010 22:48:03 15.3 C 8.75 g/m*3 15.3 C 0 km/h
2633 01-09-2010 23:00:03 15 C 8.59 g/m*3 15 C 0 km/h
2634 01-09-2010 23:12:03 14.6 C 8.38 g/m*3 14.6 C 0 km/h
2635 01-09-2010 23:24:03 14.1 C 8.13 g/m*3 14.1 C 0 km/h
2636 01-09-2010 23:36:03 13.6 C 8.12 g/m*3 13.6 C 0 km/h
2637 01-09-2010 23:48:03 13.5 C 8.19 g/m*3 13.5 C 0 km/h
2638 02-09-2010 00:00:04 13.3 C 8.2 g/m*3 13.3 C 0 km/h
2639 02-09-2010 00:12:04 13.1 C 8.1 g/m*3 13.1 C 0 km/h
2640 02-09-2010 00:24:04 13 C 8.17 g/m*3 13 C 0 km/h
2641 02-09-2010 00:36:04 12.9 C 8.34 g/m*3 12.9 C 0 km/h
2642 02-09-2010 00:48:04 12.8 C 8.29 g/m*3 12.8 C 0 km/h
2643 02-09-2010 01:00:04 12.6 C 8.3 g/m*3 12.6 C 0 km/h
2644 02-09-2010 01:12:04 12.5 C 8.36 g/m*3 12.5 C 0 km/h
2645 02-09-2010 01:24:04 12.3 C 8.36 g/m*3 12.3 C 0 km/h
2646 02-09-2010 01:36:04 12.1 C 8.26 g/m*3 12.1 C 0 km/h
2647 02-09-2010 01:48:04 12.1 C 8.58 g/m*3 12.1 C 0 km/h
2648 02-09-2010 02:00:04 11.9 C 8.58 g/m*3 11.9 C 0 km/h
2649 02-09-2010 02:12:04 11.7 C 8.58 g/m*3 11.7 C 0 km/h
2650 02-09-2010 02:24:04 11.6 C 8.63 g/m*3 11.6 C 0 km/h
Sensor: Nr:Datum:Temp:Abs-Feuchte:Windchill:Wind:
Aussen-T/F 2651 02-09-2010 02:36:04 11.5 C 8.57 g/m*3 11.5 C 0 km/h
2652 02-09-2010 02:48:04 11.3 C 8.47 g/m*3 11.3 C 0 km/h
2653 02-09-2010 03:00:04 11.2 C 8.41 g/m*3 11.2 C 0 km/h
2654 02-09-2010 03:12:04 11.1 C 8.36 g/m*3 11.1 C 0 km/h
2655 02-09-2010 03:24:04 11 C 8.31 g/m*3 11 C 0 km/h
2656 02-09-2010 03:36:04 10.9 C 8.26 g/m*3 10.9 C 0 km/h
2657 02-09-2010 03:48:04 10.8 C 8.2 g/m*3 10.8 C 0 km/h
2658 02-09-2010 04:00:04 10.7 C 8.25 g/m*3 10.7 C 0 km/h
2659 02-09-2010 04:12:05 10.5 C 8.24 g/m*3 10.5 C 0 km/h
2660 02-09-2010 04:24:05 10.4 C 8.29 g/m*3 10.4 C 0 km/h
2661 02-09-2010 04:36:05 10.3 C 8.33 g/m*3 10.3 C 0 km/h
2662 02-09-2010 04:48:05 10.3 C 8.33 g/m*3 10.3 C 0 km/h
2663 02-09-2010 05:00:05 10.3 C 8.43 g/m*3 10.3 C 0 km/h
2664 02-09-2010 05:12:05 10.3 C 8.43 g/m*3 10.3 C 0 km/h
2665 02-09-2010 05:24:05 10.3 C 8.52 g/m*3 10.3 C 0 km/h
2666 02-09-2010 05:36:05 10.3 C 8.52 g/m*3 10.3 C 0 km/h
2667 02-09-2010 05:48:05 10.4 C 8.58 g/m*3 10.4 C 0 km/h
2668 02-09-2010 06:00:05 10.3 C 8.52 g/m*3 10.3 C 0 km/h
2669 02-09-2010 06:12:05 10.3 C 8.52 g/m*3 10.3 C 0 km/h
2670 02-09-2010 06:24:05 10.3 C 8.62 g/m*3 10.3 C 0 km/h
2671 02-09-2010 06:36:03 10.4 C 8.67 g/m*3 10.4 C 0 km/h
2672 02-09-2010 06:48:01 10.4 C 8.67 g/m*3 10.4 C 0 km/h
2673 02-09-2010 07:00:01 10.4 C 8.67 g/m*3 10.4 C 0 km/h
2674 02-09-2010 07:12:02 10.5 C 8.73 g/m*3 10.5 C 0 km/h
2675 02-09-2010 07:24:01 10.7 C 8.84 g/m*3 10.7 C 0 km/h
Sensor: Nr:Datum:Temp:Abs-Feuchte:Windchill:Wind:
Aussen-T/F 2676 02-09-2010 07:36:01 10.9 C 8.95 g/m*3 10.9 C 0 km/h
2677 02-09-2010 07:48:01 10.9 C 8.85 g/m*3 10.9 C 0 km/h
2678 02-09-2010 08:00:01 11 C 8.81 g/m*3 11 C 0 km/h
2679 02-09-2010 08:12:02 11.3 C 8.98 g/m*3 11.3 C 0 km/h
2680 02-09-2010 08:24:02 11.3 C 8.98 g/m*3 11.3 C 0 km/h
2681 02-09-2010 08:36:01 11.4 C 8.93 g/m*3 11.4 C 0 km/h
2682 02-09-2010 08:48:02 11.7 C 9.1 g/m*3 11.7 C 0 km/h
2683 02-09-2010 09:00:03 11.7 C 8.99 g/m*3 11.7 C 0 km/h
2684 02-09-2010 09:12:02 12 C 8.95 g/m*3 12 C 0 km/h
2685 02-09-2010 09:24:02 12.5 C 9.13 g/m*3 12.5 C 0 km/h
2686 02-09-2010 09:36:02 12.8 C 9.07 g/m*3 12.8 C 0 km/h
2687 02-09-2010 09:48:01 13 C 8.73 g/m*3 13 C 0 km/h
2688 02-09-2010 10:00:01 13.5 C 8.77 g/m*3 13.5 C 0 km/h
2689 02-09-2010 10:12:02 13.9 C 8.75 g/m*3 13.9 C 0 km/h
2690 02-09-2010 10:24:01 14.1 C 8.62 g/m*3 14.1 C 0 km/h
2691 02-09-2010 10:36:01 14.3 C 8.6 g/m*3 14.3 C 0 km/h
2692 02-09-2010 10:48:02 14.3 C 8.48 g/m*3 14.3 C 0 km/h
2693 02-09-2010 11:00:02 14.4 C 8.65 g/m*3 14.4 C 0 km/h
2694 02-09-2010 11:12:02 14.8 C 9.12 g/m*3 14.8 C 0 km/h
2695 02-09-2010 11:24:01 15.3 C 9.14 g/m*3 15.3 C 0 km/h
2696 02-09-2010 11:36:02 16 C 8.99 g/m*3 16 C 0 km/h
2697 02-09-2010 11:48:01 16.8 C 9.15 g/m*3 16.8 C 0 km/h
2698 02-09-2010 12:00:01 17.5 C 9.24 g/m*3 17.5 C 0 km/h
2699 02-09-2010 12:12:02 18.1 C 9.12 g/m*3 18.1 C 0 km/h
2700 02-09-2010 12:24:02 18.5 C 8.86 g/m*3 18.5 C 0 km/h
Sensor: Nr:Datum:Temp:Abs-Feuchte:Windchill:Wind:
Aussen-T/F 2701 02-09-2010 12:36:01 19.2 C 8.41 g/m*3 19.2 C 0 km/h
2702 02-09-2010 12:48:02 20 C 7.95 g/m*3 20 C 0 km/h
2703 02-09-2010 13:00:02 20.2 C 7.34 g/m*3 20.2 C 0 km/h
2704 02-09-2010 13:12:01 20.1 C 7.3 g/m*3 20.1 C 0 km/h
2705 02-09-2010 13:24:01 21 C 7.51 g/m*3 21 C 0 km/h
2706 02-09-2010 13:36:02 21.6 C 7.21 g/m*3 21.6 C 0 km/h
2707 02-09-2010 13:48:02 21.3 C 7.46 g/m*3 21.3 C 0 km/h
2708 02-09-2010 14:00:02 21.7 C 7.63 g/m*3 21.7 C 0 km/h
2709 02-09-2010 14:12:01 22 C 7.38 g/m*3 22 C 0 km/h
2710 02-09-2010 14:24:02 21.7 C 7.06 g/m*3 21.7 C 0 km/h
2711 02-09-2010 14:36:02 22.9 C 6.95 g/m*3 22.9 C 0 km/h
2712 02-09-2010 14:48:02 22.7 C 7.07 g/m*3 22.7 C 0 km/h
2713 02-09-2010 15:00:02 22.6 C 7.03 g/m*3 22.6 C 0 km/h
2714 02-09-2010 15:12:02 21.8 C 6.72 g/m*3 21.8 C 0 km/h
2715 02-09-2010 15:24:02 20.3 C 6.68 g/m*3 20.3 C 0 km/h
2716 02-09-2010 15:36:02 20.9 C 7.1 g/m*3 20.9 C 0 km/h
2717 02-09-2010 15:48:02 21.5 C 6.98 g/m*3 21.5 C 0 km/h
2718 02-09-2010 16:00:02 20.9 C 6.74 g/m*3 20.9 C 0 km/h
2719 02-09-2010 16:12:02 20.2 C 6.82 g/m*3 20.2 C 0 km/h
2720 02-09-2010 16:24:02 20.3 C 7.03 g/m*3 20.3 C 0 km/h
2721 02-09-2010 16:36:02 20.8 C 7.24 g/m*3 20.8 C 0 km/h
2722 02-09-2010 16:48:02 20.8 C 6.7 g/m*3 20.8 C 0 km/h
2723 02-09-2010 17:00:02 20 C 6.91 g/m*3 20 C 0 km/h
2724 02-09-2010 17:12:02 19.3 C 7.13 g/m*3 19.3 C 0 km/h
2725 02-09-2010 17:24:02 19.6 C 7.26 g/m*3 19.6 C 0 km/h
Sensor: Nr:Datum:Temp:Abs-Feuchte:Windchill:Wind:
Aussen-T/F 2726 02-09-2010 17:36:02 19.6 C 7.26 g/m*3 19.6 C 0 km/h
2727 02-09-2010 17:48:02 19.2 C 7.09 g/m*3 19.2 C 0 km/h
2728 02-09-2010 18:00:02 18.9 C 7.13 g/m*3 18.9 C 0 km/h
2729 02-09-2010 18:12:01 18.7 C 7.36 g/m*3 18.7 C 0 km/h
2730 02-09-2010 18:24:02 18.7 C 7.52 g/m*3 18.7 C 0 km/h
2731 02-09-2010 18:36:02 18.6 C 7.48 g/m*3 18.6 C 0 km/h
2732 02-09-2010 18:48:01 18.4 C 7.55 g/m*3 18.4 C 0 km/h
2733 02-09-2010 19:00:01 18.5 C 8.07 g/m*3 18.5 C 0 km/h
2734 02-09-2010 19:12:02 18.3 C 8.6 g/m*3 18.3 C 0 km/h
2735 02-09-2010 19:24:01 17.8 C 8.95 g/m*3 17.8 C 0 km/h
2736 02-09-2010 19:36:02 17.2 C 9.23 g/m*3 17.2 C 0 km/h
2737 02-09-2010 19:48:02 16.4 C 9.63 g/m*3 16.4 C 0 km/h
2738 02-09-2010 20:00:02 15.8 C 9.96 g/m*3 15.8 C 0 km/h
2739 02-09-2010 20:12:02 15.5 C 9.91 g/m*3 15.5 C 0 km/h
2740 02-09-2010 20:24:02 15 C 9.87 g/m*3 15 C 0 km/h
2741 02-09-2010 20:36:02 14.7 C 10.07 g/m*3 14.7 C 0 km/h
2742 02-09-2010 20:48:01 14.7 C 10.2 g/m*3 14.7 C 0 km/h
2743 02-09-2010 21:00:01 14.5 C 10.07 g/m*3 14.5 C 0 km/h
2744 02-09-2010 21:12:02 14.4 C 9.89 g/m*3 14.4 C 0 km/h
2745 02-09-2010 21:24:01 14.5 C 9.95 g/m*3 14.5 C 0 km/h
2746 02-09-2010 21:36:02 14.4 C 9.77 g/m*3 14.4 C 0 km/h
2747 02-09-2010 21:49:02 14.3 C 9.58 g/m*3 14.3 C 0 km/h
2748 02-09-2010 22:01:02 14.4 C 9.52 g/m*3 14.4 C 0 km/h
2749 02-09-2010 22:13:02 14 C 9.29 g/m*3 14 C 0 km/h
2750 02-09-2010 22:25:02 13.7 C 9.24 g/m*3 13.7 C 0 km/h
Sensor: Nr:Datum:Temp:Abs-Feuchte:Windchill:Wind:
Aussen-T/F 2751 02-09-2010 22:37:02 13.6 C 9.3 g/m*3 13.6 C 0 km/h
2752 02-09-2010 22:49:03 13.5 C 9.36 g/m*3 13.5 C 0 km/h
2753 02-09-2010 23:01:03 13 C 9.07 g/m*3 13 C 0 km/h
2754 02-09-2010 23:13:03 13.2 C 9.3 g/m*3 13.2 C 0 km/h
2755 02-09-2010 23:25:03 13.1 C 9.24 g/m*3 13.1 C 0 km/h
2756 02-09-2010 23:37:03 12.9 C 9.24 g/m*3 12.9 C 0 km/h
2757 02-09-2010 23:49:03 12.7 C 9.13 g/m*3 12.7 C 0 km/h
2758 03-09-2010 00:01:03 12.7 C 9.13 g/m*3 12.7 C 0 km/h
2759 03-09-2010 00:13:03 12.5 C 9.13 g/m*3 12.5 C 0 km/h
2760 03-09-2010 00:25:03 12.4 C 9.07 g/m*3 12.4 C 0 km/h
2761 03-09-2010 00:37:03 12.3 C 9.12 g/m*3 12.3 C 0 km/h
2762 03-09-2010 00:49:03 12.2 C 9.06 g/m*3 12.2 C 0 km/h
2763 03-09-2010 01:01:03 12.1 C 9.01 g/m*3 12.1 C 0 km/h
2764 03-09-2010 01:13:03 11.9 C 8.9 g/m*3 11.9 C 0 km/h
2765 03-09-2010 01:25:03 11.9 C 9 g/m*3 11.9 C 0 km/h
2766 03-09-2010 01:37:03 11.7 C 8.89 g/m*3 11.7 C 0 km/h
2767 03-09-2010 01:49:03 11.5 C 8.78 g/m*3 11.5 C 0 km/h
2768 03-09-2010 02:01:03 11.5 C 8.88 g/m*3 11.5 C 0 km/h
2769 03-09-2010 02:13:03 11.4 C 8.83 g/m*3 11.4 C 0 km/h
2770 03-09-2010 02:25:03 11.1 C 8.66 g/m*3 11.1 C 0 km/h
2771 03-09-2010 02:37:03 11.1 C 8.66 g/m*3 11.1 C 0 km/h
2772 03-09-2010 02:49:03 11.1 C 8.76 g/m*3 11.1 C 0 km/h
2773 03-09-2010 03:01:04 11 C 8.71 g/m*3 11 C 0 km/h
2774 03-09-2010 03:13:04 10.8 C 8.7 g/m*3 10.8 C 0 km/h
2775 03-09-2010 03:25:04 10.7 C 8.64 g/m*3 10.7 C 0 km/h
Sensor: Nr:Datum:Temp:Abs-Feuchte:Windchill:Wind:
Aussen-T/F 2776 03-09-2010 03:37:04 10.6 C 8.59 g/m*3 10.6 C 0 km/h
2777 03-09-2010 03:49:04 10.5 C 8.53 g/m*3 10.5 C 0 km/h
2778 03-09-2010 04:01:04 10.4 C 8.58 g/m*3 10.4 C 0 km/h
2779 03-09-2010 04:13:04 10.4 C 8.58 g/m*3 10.4 C 0 km/h
2780 03-09-2010 04:25:04 10.4 C 8.67 g/m*3 10.4 C 0 km/h
2781 03-09-2010 04:37:04 10.3 C 8.62 g/m*3 10.3 C 0 km/h
2782 03-09-2010 04:49:04 10.2 C 8.56 g/m*3 10.2 C 0 km/h
2783 03-09-2010 05:01:04 10.2 C 8.56 g/m*3 10.2 C 0 km/h
2784 03-09-2010 05:13:04 10.3 C 8.62 g/m*3 10.3 C 0 km/h
2785 03-09-2010 05:25:04 10.4 C 8.77 g/m*3 10.4 C 0 km/h
2786 03-09-2010 05:37:04 10.4 C 8.77 g/m*3 10.4 C 0 km/h
2787 03-09-2010 05:49:04 10.7 C 9.04 g/m*3 10.7 C 0 km/h
2788 03-09-2010 06:01:04 10.9 C 9.15 g/m*3 10.9 C 0 km/h
2789 03-09-2010 06:13:04 11 C 9.21 g/m*3 11 C 0 km/h
2790 03-09-2010 06:25:04 11.1 C 9.27 g/m*3 11.1 C 0 km/h
2791 03-09-2010 06:37:04 11.1 C 9.27 g/m*3 11.1 C 0 km/h
2792 03-09-2010 06:49:04 11.3 C 9.28 g/m*3 11.3 C 0 km/h
2793 03-09-2010 07:01:02 11.4 C 9.34 g/m*3 11.4 C 0 km/h
2794 03-09-2010 07:13:02 11.2 C 9.22 g/m*3 11.2 C 0 km/h
2795 03-09-2010 07:25:02 11.2 C 9.22 g/m*3 11.2 C 0 km/h
2796 03-09-2010 07:37:03 11.5 C 9.4 g/m*3 11.5 C 0 km/h
2797 03-09-2010 07:49:02 11.5 C 9.4 g/m*3 11.5 C 0 km/h
2798 03-09-2010 08:01:03 11.6 C 9.46 g/m*3 11.6 C 0 km/h
2799 03-09-2010 08:13:03 11.7 C 9.41 g/m*3 11.7 C 0 km/h
2800 03-09-2010 08:25:02 11.7 C 9.41 g/m*3 11.7 C 0 km/h
Sensor: Nr:Datum:Temp:Abs-Feuchte:Windchill:Wind:
Aussen-T/F 2801 03-09-2010 08:37:03 11.6 C 9.25 g/m*3 11.6 C 0 km/h
2802 03-09-2010 08:49:02 11.6 C 9.15 g/m*3 11.6 C 0 km/h
2803 03-09-2010 09:01:02 12 C 9.27 g/m*3 12 C 0 km/h
2804 03-09-2010 09:13:02 12.1 C 9.22 g/m*3 12.1 C 0 km/h
2805 03-09-2010 09:25:02 12.3 C 9.23 g/m*3 12.3 C 0 km/h
2806 03-09-2010 09:37:02 12.7 C 9.35 g/m*3 12.7 C 0 km/h
2807 03-09-2010 09:49:02 13.1 C 9.36 g/m*3 13.1 C 0 km/h
2808 03-09-2010 10:01:02 12.9 C 9.13 g/m*3 12.9 C 0 km/h
2809 03-09-2010 10:13:02 12.8 C 9.18 g/m*3 12.8 C 0 km/h
2810 03-09-2010 10:25:02 13.5 C 9.36 g/m*3 13.5 C 0 km/h
2811 03-09-2010 10:37:03 14 C 9.05 g/m*3 14 C 0 km/h
2812 03-09-2010 10:49:02 14.7 C 9.32 g/m*3 14.7 C 0 km/h
2813 03-09-2010 11:01:02 15.3 C 9.14 g/m*3 15.3 C 0 km/h
2814 03-09-2010 11:13:02 15.4 C 8.93 g/m*3 15.4 C 0 km/h
2815 03-09-2010 11:25:02 15.8 C 9.02 g/m*3 15.8 C 0 km/h
2816 03-09-2010 11:37:02 16.4 C 8.93 g/m*3 16.4 C 0 km/h
2817 03-09-2010 11:49:02 16.6 C 8.62 g/m*3 16.6 C 0 km/h
2818 03-09-2010 12:01:02 17.4 C 8.45 g/m*3 17.4 C 0 km/h
2819 03-09-2010 12:13:02 17.7 C 8.6 g/m*3 17.7 C 0 km/h
2820 03-09-2010 12:25:02 17.8 C 8.35 g/m*3 17.8 C 0 km/h
2821 03-09-2010 12:37:02 18.1 C 8.34 g/m*3 18.1 C 0 km/h
2822 03-09-2010 12:49:01 18.3 C 8.6 g/m*3 18.3 C 0 km/h
2823 03-09-2010 13:01:01 18.8 C 8.37 g/m*3 18.8 C 0 km/h
2824 03-09-2010 13:13:01 19.4 C 8.18 g/m*3 19.4 C 0 km/h
2825 03-09-2010 13:25:01 20.1 C 8.17 g/m*3 20.1 C 0 km/h
Sensor: Nr:Datum:Temp:Abs-Feuchte:Windchill:Wind:
Aussen-T/F 2826 03-09-2010 13:37:01 19.9 C 7.9 g/m*3 19.9 C 0 km/h
2827 03-09-2010 13:49:01 20.2 C 8.22 g/m*3 20.2 C 0 km/h
2828 03-09-2010 14:01:01 20 C 7.6 g/m*3 20 C 0 km/h
2829 03-09-2010 14:13:01 20.5 C 7.65 g/m*3 20.5 C 0 km/h
2830 03-09-2010 14:25:01 19.7 C 7.64 g/m*3 19.7 C 0 km/h
2831 03-09-2010 14:37:01 20.4 C 7.96 g/m*3 20.4 C 0 km/h
2832 03-09-2010 14:49:01 21.4 C 7.31 g/m*3 21.4 C 0 km/h
2833 03-09-2010 15:01:02 21.8 C 7.1 g/m*3 21.8 C 0 km/h
2834 03-09-2010 15:13:02 22.7 C 7.27 g/m*3 22.7 C 0 km/h
2835 03-09-2010 15:25:01 23.3 C 6.9 g/m*3 23.3 C 0 km/h
2836 03-09-2010 15:37:01 22.7 C 6.87 g/m*3 22.7 C 0 km/h
2837 03-09-2010 15:49:01 23.4 C 6.94 g/m*3 23.4 C 0 km/h
2838 03-09-2010 16:01:01 24.8 C 6.83 g/m*3 24.8 C 0 km/h
2839 03-09-2010 16:13:01 25.5 C 6.63 g/m*3 25.5 C 0 km/h
2840 03-09-2010 16:25:02 25.7 C 6.46 g/m*3 25.7 C 0 km/h
2841 03-09-2010 16:37:01 25.7 C 6.46 g/m*3 25.7 C 0 km/h
2842 03-09-2010 16:49:02 23.9 C 6.49 g/m*3 23.9 C 0 km/h
2843 03-09-2010 17:01:01 25.3 C 6.32 g/m*3 25.3 C 0 km/h
2844 03-09-2010 17:13:01 24.8 C 6.6 g/m*3 24.8 C 0 km/h
2845 03-09-2010 17:25:01 23.9 C 6.49 g/m*3 23.9 C 0 km/h
2846 03-09-2010 17:37:01 23.4 C 6.52 g/m*3 23.4 C 0 km/h
2847 03-09-2010 17:49:02 23.2 C 6.65 g/m*3 23.2 C 0 km/h
2848 03-09-2010 18:01:02 23 C 7.6 g/m*3 23 C 0 km/h
2849 03-09-2010 18:13:02 23.1 C 8.06 g/m*3 23.1 C 0 km/h
2850 03-09-2010 18:25:02 23.2 C 8.11 g/m*3 23.2 C 0 km/h
Sensor: Nr:Datum:Temp:Abs-Feuchte:Windchill:Wind:
Aussen-T/F 2851 03-09-2010 18:37:02 22.5 C 7.99 g/m*3 22.5 C 0 km/h
2852 03-09-2010 18:49:01 21.7 C 8.77 g/m*3 21.7 C 0 km/h
2853 03-09-2010 19:01:02 21.2 C 8.9 g/m*3 21.2 C 0 km/h
2854 03-09-2010 19:13:02 20.6 C 8.95 g/m*3 20.6 C 0 km/h
2855 03-09-2010 19:25:01 20.6 C 8.77 g/m*3 20.6 C 0 km/h
2856 03-09-2010 19:37:02 20.7 C 8.82 g/m*3 20.7 C 0 km/h
2857 03-09-2010 19:49:02 20.4 C 8.85 g/m*3 20.4 C 0 km/h
2858 03-09-2010 20:01:02 19.7 C 8.66 g/m*3 19.7 C 0 km/h
2859 03-09-2010 20:13:02 19.2 C 8.08 g/m*3 19.2 C 0 km/h
2860 03-09-2010 20:25:01 18.3 C 8.6 g/m*3 18.3 C 0 km/h
2861 03-09-2010 20:37:02 18.1 C 7.88 g/m*3 18.1 C 0 km/h
2862 03-09-2010 20:49:02 17.8 C 8.04 g/m*3 17.8 C 0 km/h
2863 03-09-2010 21:01:02 17 C 8.39 g/m*3 17 C 0 km/h
2864 03-09-2010 21:13:02 16.5 C 8.57 g/m*3 16.5 C 0 km/h
2865 03-09-2010 21:25:02 16.2 C 8.55 g/m*3 16.2 C 0 km/h
2866 03-09-2010 21:37:02 16.1 C 8.64 g/m*3 16.1 C 0 km/h
2867 03-09-2010 21:49:01 15.8 C 8.62 g/m*3 15.8 C 0 km/h
2868 03-09-2010 22:01:01 15.6 C 8.78 g/m*3 15.6 C 0 km/h
2869 03-09-2010 22:13:01 15.3 C 8.75 g/m*3 15.3 C 0 km/h
2870 03-09-2010 22:25:02 15.2 C 8.7 g/m*3 15.2 C 0 km/h
2871 03-09-2010 22:37:01 15.2 C 8.96 g/m*3 15.2 C 0 km/h
2872 03-09-2010 22:50:03 15.5 C 9.12 g/m*3 15.5 C 0 km/h
2873 03-09-2010 23:02:03 15.5 C 9.25 g/m*3 15.5 C 0 km/h
2874 03-09-2010 23:14:03 15.4 C 9.2 g/m*3 15.4 C 0 km/h
2875 03-09-2010 23:26:03 15.4 C 9.2 g/m*3 15.4 C 0 km/h
Sensor: Nr:Datum:Temp:Abs-Feuchte:Windchill:Wind:
Aussen-T/F 2876 03-09-2010 23:38:03 15.2 C 9.22 g/m*3 15.2 C 0 km/h
2877 03-09-2010 23:50:03 15.2 C 9.22 g/m*3 15.2 C 0 km/h
2878 04-09-2010 00:02:03 15.2 C 9.22 g/m*3 15.2 C 0 km/h
2879 04-09-2010 00:14:03 15.1 C 9.29 g/m*3 15.1 C 0 km/h
2880 04-09-2010 00:26:03 15.1 C 9.29 g/m*3 15.1 C 0 km/h
2881 04-09-2010 00:38:03 15.1 C 9.29 g/m*3 15.1 C 0 km/h
2882 04-09-2010 00:50:03 15 C 9.36 g/m*3 15 C 0 km/h
2883 04-09-2010 01:02:03 15 C 9.36 g/m*3 15 C 0 km/h
2884 04-09-2010 01:14:03 15 C 9.36 g/m*3 15 C 0 km/h
2885 04-09-2010 01:26:04 14.7 C 9.44 g/m*3 14.7 C 0 km/h
2886 04-09-2010 01:38:04 14.7 C 9.44 g/m*3 14.7 C 0 km/h
2887 04-09-2010 01:50:04 14.7 C 9.44 g/m*3 14.7 C 0 km/h
2888 04-09-2010 02:02:04 14.5 C 9.45 g/m*3 14.5 C 0 km/h
2889 04-09-2010 02:14:04 14.4 C 9.39 g/m*3 14.4 C 0 km/h
2890 04-09-2010 02:26:04 14.2 C 9.4 g/m*3 14.2 C 0 km/h
2891 04-09-2010 02:38:04 14.2 C 9.4 g/m*3 14.2 C 0 km/h
2892 04-09-2010 02:50:04 14.1 C 9.34 g/m*3 14.1 C 0 km/h
2893 04-09-2010 03:02:04 14 C 9.29 g/m*3 14 C 0 km/h
2894 04-09-2010 03:14:04 13.7 C 9.35 g/m*3 13.7 C 0 km/h
2895 04-09-2010 03:26:04 13.7 C 9.35 g/m*3 13.7 C 0 km/h
2896 04-09-2010 03:38:04 13.6 C 9.53 g/m*3 13.6 C 0 km/h
2897 04-09-2010 03:50:04 13.6 C 9.53 g/m*3 13.6 C 0 km/h
2898 04-09-2010 04:02:04 13.4 C 9.42 g/m*3 13.4 C 0 km/h
2899 04-09-2010 04:14:04 13.3 C 9.47 g/m*3 13.3 C 0 km/h
2900 04-09-2010 04:26:04 13.1 C 9.36 g/m*3 13.1 C 0 km/h
Sensor: Nr:Datum:Temp:Abs-Feuchte:Windchill:Wind:
Aussen-T/F 2901 04-09-2010 04:38:04 13.2 C 9.64 g/m*3 13.2 C 0 km/h
2902 04-09-2010 04:50:04 13 C 9.53 g/m*3 13 C 0 km/h
2903 04-09-2010 05:02:04 13.1 C 9.59 g/m*3 13.1 C 0 km/h
2904 04-09-2010 05:14:04 13.2 C 9.64 g/m*3 13.2 C 0 km/h
2905 04-09-2010 05:26:04 13.2 C 9.64 g/m*3 13.2 C 0 km/h
2906 04-09-2010 05:38:05 13.1 C 9.59 g/m*3 13.1 C 0 km/h
2907 04-09-2010 05:50:05 12.9 C 9.47 g/m*3 12.9 C 0 km/h
2908 04-09-2010 06:02:05 12.9 C 9.47 g/m*3 12.9 C 0 km/h
2909 04-09-2010 06:14:05 12.7 C 9.35 g/m*3 12.7 C 0 km/h
2910 04-09-2010 06:26:05 12.5 C 9.24 g/m*3 12.5 C 0 km/h
2911 04-09-2010 06:38:05 12.4 C 9.29 g/m*3 12.4 C 0 km/h
2912 04-09-2010 06:50:05 12.2 C 9.17 g/m*3 12.2 C 0 km/h
2913 04-09-2010 07:02:05 12 C 9.17 g/m*3 12 C 0 km/h
2914 04-09-2010 07:14:05 12 C 9.17 g/m*3 12 C 0 km/h
2915 04-09-2010 07:26:05 12 C 9.17 g/m*3 12 C 0 km/h
2916 04-09-2010 07:38:05 12.2 C 9.39 g/m*3 12.2 C 0 km/h
2917 04-09-2010 07:50:02 12.2 C 9.39 g/m*3 12.2 C 0 km/h
2918 04-09-2010 08:02:02 12.5 C 9.68 g/m*3 12.5 C 0 km/h
2919 04-09-2010 08:14:02 12.7 C 9.8 g/m*3 12.7 C 0 km/h
2920 04-09-2010 08:26:03 12.7 C 9.68 g/m*3 12.7 C 0 km/h
2921 04-09-2010 08:38:02 12.9 C 9.81 g/m*3 12.9 C 0 km/h
2922 04-09-2010 08:50:02 13.2 C 9.87 g/m*3 13.2 C 0 km/h
2923 04-09-2010 09:02:02 13.7 C 10.07 g/m*3 13.7 C 0 km/h
2924 04-09-2010 09:14:02 14.3 C 10.2 g/m*3 14.3 C 0 km/h
2925 04-09-2010 09:26:02 14.6 C 10.01 g/m*3 14.6 C 0 km/h
Sensor: Nr:Datum:Temp:Abs-Feuchte:Windchill:Wind:
Aussen-T/F 2926 04-09-2010 09:38:02 14.7 C 9.82 g/m*3 14.7 C 0 km/h
2927 04-09-2010 09:50:02 14.9 C 9.69 g/m*3 14.9 C 0 km/h
2928 04-09-2010 10:02:02 15.2 C 9.61 g/m*3 15.2 C 0 km/h
2929 04-09-2010 10:14:02 15.6 C 9.58 g/m*3 15.6 C 0 km/h
2930 04-09-2010 10:26:02 15.9 C 9.62 g/m*3 15.9 C 0 km/h
2931 04-09-2010 10:38:02 17 C 9.41 g/m*3 17 C 0 km/h
2932 04-09-2010 10:50:02 17.8 C 9.11 g/m*3 17.8 C 0 km/h
2933 04-09-2010 11:02:02 17.8 C 9.11 g/m*3 17.8 C 0 km/h
2934 04-09-2010 11:14:02 18.1 C 8.96 g/m*3 18.1 C 0 km/h
2935 04-09-2010 11:26:03 18.9 C 8.75 g/m*3 18.9 C 0 km/h
2936 04-09-2010 11:38:02 19.6 C 8.61 g/m*3 19.6 C 0 km/h
2937 04-09-2010 11:50:02 20 C 8.3 g/m*3 20 C 0 km/h
2938 04-09-2010 12:02:02 18.3 C 8.13 g/m*3 18.3 C 0 km/h
2939 04-09-2010 12:14:02 19.7 C 8.49 g/m*3 19.7 C 0 km/h
2940 04-09-2010 12:26:02 19 C 7.33 g/m*3 19 C 0 km/h
2941 04-09-2010 12:38:02 18.5 C 7.59 g/m*3 18.5 C 0 km/h
2942 04-09-2010 12:50:02 18.8 C 7.89 g/m*3 18.8 C 0 km/h
2943 04-09-2010 13:02:02 19.2 C 7.42 g/m*3 19.2 C 0 km/h
2944 04-09-2010 13:14:02 19.9 C 7.9 g/m*3 19.9 C 0 km/h
2945 04-09-2010 13:26:02 19.9 C 7.56 g/m*3 19.9 C 0 km/h
2946 04-09-2010 13:38:01 18.8 C 7.73 g/m*3 18.8 C 0 km/h
2947 04-09-2010 13:50:02 20.1 C 7.47 g/m*3 20.1 C 0 km/h
2948 04-09-2010 14:02:01 21.5 C 6.98 g/m*3 21.5 C 0 km/h
2949 04-09-2010 14:14:01 22 C 6.79 g/m*3 22 C 0 km/h
2950 04-09-2010 14:26:02 22.2 C 6.68 g/m*3 22.2 C 0 km/h
Sensor: Nr:Datum:Temp:Abs-Feuchte:Windchill:Wind:
Aussen-T/F 2951 04-09-2010 14:38:02 22.1 C 6.83 g/m*3 22.1 C 0 km/h
2952 04-09-2010 14:50:02 23.2 C 6.24 g/m*3 23.2 C 0 km/h
2953 04-09-2010 15:02:02 23.4 C 6.1 g/m*3 23.4 C 0 km/h
2954 04-09-2010 15:14:02 24.3 C 6.64 g/m*3 24.3 C 0 km/h
2955 04-09-2010 15:26:02 24.1 C 5.91 g/m*3 24.1 C 0 km/h
2956 04-09-2010 15:38:02 21.8 C 6.14 g/m*3 21.8 C 0 km/h
2957 04-09-2010 15:50:01 20.8 C 6.52 g/m*3 20.8 C 0 km/h
2958 04-09-2010 16:02:02 22.8 C 5.69 g/m*3 22.8 C 0 km/h
2959 04-09-2010 16:14:02 24.7 C 5.21 g/m*3 24.7 C 0 km/h
2960 04-09-2010 16:26:01 22.2 C 5.5 g/m*3 22.2 C 0 km/h
2961 04-09-2010 16:38:01 21.3 C 5.59 g/m*3 21.3 C 0 km/h
2962 04-09-2010 16:50:01 21.1 C 5.53 g/m*3 21.1 C 0 km/h
2963 04-09-2010 17:02:02 22.4 C 5.76 g/m*3 22.4 C 0 km/h
2964 04-09-2010 17:14:02 23.3 C 5.23 g/m*3 23.3 C 0 km/h
2965 04-09-2010 17:26:01 23.5 C 5.08 g/m*3 23.5 C 0 km/h
2966 04-09-2010 17:38:01 22.9 C 4.09 g/m*3 22.9 C 0 km/h
2967 04-09-2010 17:50:01 23.5 C 4.23 g/m*3 23.5 C 0 km/h
2968 04-09-2010 18:02:01 22.9 C 4.29 g/m*3 22.9 C 0 km/h
2969 04-09-2010 18:14:01 23.2 C 4.57 g/m*3 23.2 C 0 km/h
2970 04-09-2010 18:26:02 23.1 C 4.13 g/m*3 23.1 C 0 km/h
2971 04-09-2010 18:38:01 22.9 C 4.29 g/m*3 22.9 C 0 km/h
2972 04-09-2010 18:50:02 21.6 C 4.55 g/m*3 21.6 C 0 km/h
2973 04-09-2010 19:02:01 21.2 C 5.19 g/m*3 21.2 C 0 km/h
2974 04-09-2010 19:14:01 20.7 C 5.04 g/m*3 20.7 C 0 km/h
2975 04-09-2010 19:26:02 19.4 C 5.34 g/m*3 19.4 C 0 km/h
Sensor: Nr:Datum:Temp:Abs-Feuchte:Windchill:Wind:
Aussen-T/F 2976 04-09-2010 19:38:01 19 C 5.7 g/m*3 19 C 0 km/h
2977 04-09-2010 19:50:03 18.4 C 6.29 g/m*3 18.4 C 0 km/h
2978 04-09-2010 20:02:02 17.5 C 6.41 g/m*3 17.5 C 0 km/h
2979 04-09-2010 20:14:02 16.6 C 6.36 g/m*3 16.6 C 0 km/h
2980 04-09-2010 20:26:03 15.9 C 6.5 g/m*3 15.9 C 0 km/h
2981 04-09-2010 20:38:02 15.5 C 6.61 g/m*3 15.5 C 0 km/h
2982 04-09-2010 20:50:02 15.2 C 6.75 g/m*3 15.2 C 0 km/h
2983 04-09-2010 21:02:02 15.2 C 6.88 g/m*3 15.2 C 0 km/h
2984 04-09-2010 21:14:02 14.8 C 6.84 g/m*3 14.8 C 0 km/h
2985 04-09-2010 21:26:02 14.8 C 6.97 g/m*3 14.8 C 0 km/h
2986 04-09-2010 21:38:01 15 C 6.92 g/m*3 15 C 0 km/h
2987 04-09-2010 21:50:02 14.8 C 7.09 g/m*3 14.8 C 0 km/h
2988 04-09-2010 22:02:02 14.8 C 7.22 g/m*3 14.8 C 0 km/h
2989 04-09-2010 22:14:03 14.4 C 7.17 g/m*3 14.4 C 0 km/h
2990 04-09-2010 22:26:01 14.1 C 7.28 g/m*3 14.1 C 0 km/h
2991 04-09-2010 22:38:02 14 C 7.36 g/m*3 14 C 0 km/h
2992 04-09-2010 22:50:02 13.5 C 7.25 g/m*3 13.5 C 0 km/h
2993 04-09-2010 23:03:03 13.5 C 7.49 g/m*3 13.5 C 0 km/h
2994 04-09-2010 23:15:03 13.2 C 7.46 g/m*3 13.2 C 0 km/h
2995 04-09-2010 23:27:03 13.1 C 7.53 g/m*3 13.1 C 0 km/h
2996 04-09-2010 23:39:03 13 C 7.71 g/m*3 13 C 0 km/h
2997 04-09-2010 23:51:03 12.8 C 7.73 g/m*3 12.8 C 0 km/h
2998 05-09-2010 00:03:03 12.7 C 7.68 g/m*3 12.7 C 0 km/h
2999 05-09-2010 00:15:03 12.3 C 7.49 g/m*3 12.3 C 0 km/h
3000 05-09-2010 00:27:03 12.1 C 7.61 g/m*3 12.1 C 0 km/h
Sensor: Nr:Datum:Temp:Abs-Feuchte:Windchill:Wind:
Aussen-T/F 3001 05-09-2010 00:39:03 11.9 C 7.63 g/m*3 11.9 C 0 km/h
3002 05-09-2010 00:51:03 11.8 C 7.68 g/m*3 11.8 C 0 km/h
3003 05-09-2010 01:03:03 11.6 C 7.59 g/m*3 11.6 C 0 km/h
3004 05-09-2010 01:15:03 11.4 C 7.49 g/m*3 11.4 C 0 km/h
3005 05-09-2010 01:27:03 11.2 C 7.6 g/m*3 11.2 C 0 km/h
3006 05-09-2010 01:39:03 11 C 7.51 g/m*3 11 C 0 km/h
3007 05-09-2010 01:51:03 10.9 C 7.46 g/m*3 10.9 C 0 km/h
3008 05-09-2010 02:03:03 10.8 C 7.61 g/m*3 10.8 C 0 km/h
3009 05-09-2010 02:15:03 10.6 C 7.52 g/m*3 10.6 C 0 km/h
3010 05-09-2010 02:27:04 10.4 C 7.52 g/m*3 10.4 C 0 km/h
3011 05-09-2010 02:39:04 10.3 C 7.47 g/m*3 10.3 C 0 km/h
3012 05-09-2010 02:51:04 10.1 C 7.47 g/m*3 10.1 C 0 km/h
3013 05-09-2010 03:03:04 10 C 7.33 g/m*3 10 C 0 km/h
3014 05-09-2010 03:15:04 9.8 C 7.42 g/m*3 9.8 C 0 km/h
3015 05-09-2010 03:27:04 9.7 C 7.47 g/m*3 9.7 C 0 km/h
3016 05-09-2010 03:39:04 9.6 C 7.42 g/m*3 9.6 C 0 km/h
3017 05-09-2010 03:51:04 9.5 C 7.37 g/m*3 9.5 C 0 km/h
3018 05-09-2010 04:03:04 9.2 C 7.23 g/m*3 9.2 C 0 km/h
3019 05-09-2010 04:15:04 9.2 C 7.23 g/m*3 9.2 C 0 km/h
3020 05-09-2010 04:27:04 9.2 C 7.32 g/m*3 9.2 C 0 km/h
3021 05-09-2010 04:39:04 9.1 C 7.28 g/m*3 9.1 C 0 km/h
3022 05-09-2010 04:51:04 8.9 C 7.27 g/m*3 8.9 C 0 km/h
3023 05-09-2010 05:03:04 8.9 C 7.27 g/m*3 8.9 C 0 km/h
3024 05-09-2010 05:15:04 8.8 C 7.31 g/m*3 8.8 C 0 km/h
3025 05-09-2010 05:27:04 8.5 C 7.17 g/m*3 8.5 C 0 km/h
Sensor: Nr:Datum:Temp:Abs-Feuchte:Windchill:Wind:
Aussen-T/F 3026 05-09-2010 05:39:04 8.5 C 7.26 g/m*3 8.5 C 0 km/h
3027 05-09-2010 05:51:04 8.5 C 7.34 g/m*3 8.5 C 0 km/h
3028 05-09-2010 06:03:04 8.3 C 7.33 g/m*3 8.3 C 0 km/h
3029 05-09-2010 06:15:04 8.1 C 7.24 g/m*3 8.1 C 0 km/h
3030 05-09-2010 06:27:04 8.1 C 7.24 g/m*3 8.1 C 0 km/h
3031 05-09-2010 06:39:04 8 C 7.19 g/m*3 8 C 0 km/h
3032 05-09-2010 06:51:05 7.9 C 7.23 g/m*3 7.9 C 0 km/h
3033 05-09-2010 07:03:05 7.9 C 7.23 g/m*3 7.9 C 0 km/h
3034 05-09-2010 07:15:05 8.2 C 7.37 g/m*3 8.2 C 0 km/h
3035 05-09-2010 07:27:05 8.5 C 7.6 g/m*3 8.5 C 0 km/h
3036 05-09-2010 07:39:02 8.6 C 7.65 g/m*3 8.6 C 0 km/h
3037 05-09-2010 07:51:02 8.8 C 7.75 g/m*3 8.8 C 0 km/h
3038 05-09-2010 08:03:02 9.2 C 7.86 g/m*3 9.2 C 0 km/h
3039 05-09-2010 08:15:01 9.5 C 7.92 g/m*3 9.5 C 0 km/h
3040 05-09-2010 08:27:01 9.9 C 8.03 g/m*3 9.9 C 0 km/h
3041 05-09-2010 08:39:02 10 C 7.8 g/m*3 10 C 0 km/h
3042 05-09-2010 08:51:01 10.5 C 7.95 g/m*3 10.5 C 0 km/h
3043 05-09-2010 09:03:01 10.7 C 7.96 g/m*3 10.7 C 0 km/h
3044 05-09-2010 09:15:01 11.1 C 7.86 g/m*3 11.1 C 0 km/h
3045 05-09-2010 09:27:01 11.2 C 7.8 g/m*3 11.2 C 0 km/h
3046 05-09-2010 09:39:01 11.3 C 7.85 g/m*3 11.3 C 0 km/h
3047 05-09-2010 09:51:01 11.2 C 7.91 g/m*3 11.2 C 0 km/h
3048 05-09-2010 10:03:02 11.2 C 8.01 g/m*3 11.2 C 0 km/h
3049 05-09-2010 10:15:01 11.8 C 8.42 g/m*3 11.8 C 0 km/h
3050 05-09-2010 10:27:01 12.3 C 8.47 g/m*3 12.3 C 0 km/h
Sensor: Nr:Datum:Temp:Abs-Feuchte:Windchill:Wind:
Aussen-T/F 3051 05-09-2010 10:39:01 12.9 C 8.68 g/m*3 12.9 C 0 km/h
3052 05-09-2010 10:51:02 13.6 C 8.59 g/m*3 13.6 C 0 km/h
3053 05-09-2010 11:03:02 14.3 C 8.48 g/m*3 14.3 C 0 km/h
3054 05-09-2010 11:15:01 15.1 C 8.51 g/m*3 15.1 C 0 km/h
3055 05-09-2010 11:27:01 15.4 C 8.41 g/m*3 15.4 C 0 km/h
3056 05-09-2010 11:39:02 15.9 C 8.13 g/m*3 15.9 C 0 km/h
3057 05-09-2010 11:51:02 16.4 C 7.12 g/m*3 16.4 C 0 km/h
3058 05-09-2010 12:03:02 17.2 C 7.18 g/m*3 17.2 C 0 km/h
3059 05-09-2010 12:15:02 17.6 C 6.6 g/m*3 17.6 C 0 km/h
3060 05-09-2010 12:27:02 18.2 C 6.53 g/m*3 18.2 C 0 km/h
3061 05-09-2010 12:39:02 18.5 C 6.33 g/m*3 18.5 C 0 km/h
3062 05-09-2010 12:51:01 18.6 C 5.89 g/m*3 18.6 C 0 km/h
3063 05-09-2010 13:03:02 19.3 C 6.47 g/m*3 19.3 C 0 km/h
3064 05-09-2010 13:15:02 19.4 C 6.01 g/m*3 19.4 C 0 km/h
3065 05-09-2010 13:27:02 20 C 5.88 g/m*3 20 C 0 km/h
3066 05-09-2010 13:39:01 20.6 C 5.55 g/m*3 20.6 C 0 km/h
3067 05-09-2010 13:51:01 21.4 C 5.62 g/m*3 21.4 C 0 km/h
3068 05-09-2010 14:03:01 22.3 C 5.53 g/m*3 22.3 C 0 km/h
3069 05-09-2010 14:15:02 22.9 C 5.31 g/m*3 22.9 C 0 km/h
3070 05-09-2010 14:27:02 23.3 C 5.02 g/m*3 23.3 C 0 km/h
3071 05-09-2010 14:39:01 24.2 C 5.06 g/m*3 24.2 C 0 km/h
3072 05-09-2010 14:51:03 24.8 C 5.01 g/m*3 24.8 C 0 km/h
3073 05-09-2010 15:03:02 24.8 C 5.46 g/m*3 24.8 C 0 km/h
3074 05-09-2010 15:15:02 23.7 C 4.92 g/m*3 23.7 C 0 km/h
3075 05-09-2010 15:27:02 24 C 4.79 g/m*3 24 C 0 km/h
Sensor: Nr:Datum:Temp:Abs-Feuchte:Windchill:Wind:
Aussen-T/F 3076 05-09-2010 15:39:02 24.4 C 4.45 g/m*3 24.4 C 0 km/h
3077 05-09-2010 15:51:02 23.9 C 4.54 g/m*3 23.9 C 0 km/h
3078 05-09-2010 16:03:01 24.1 C 4.38 g/m*3 24.1 C 0 km/h
3079 05-09-2010 16:15:02 24.4 C 4.67 g/m*3 24.4 C 0 km/h
3080 05-09-2010 16:27:02 25 C 4.83 g/m*3 25 C 0 km/h
3081 05-09-2010 16:39:02 25 C 4.83 g/m*3 25 C 0 km/h
3082 05-09-2010 16:51:01 23.5 C 4.65 g/m*3 23.5 C 0 km/h
3083 05-09-2010 17:03:02 24.7 C 4.75 g/m*3 24.7 C 0 km/h
3084 05-09-2010 17:15:01 24.7 C 5.21 g/m*3 24.7 C 0 km/h
3085 05-09-2010 17:27:01 24 C 5.44 g/m*3 24 C 0 km/h
3086 05-09-2010 17:39:02 24.6 C 5.18 g/m*3 24.6 C 0 km/h
3087 05-09-2010 17:51:01 25 C 4.6 g/m*3 25 C 0 km/h
3088 05-09-2010 18:03:02 25.7 C 5.51 g/m*3 25.7 C 0 km/h
3089 05-09-2010 18:15:01 26 C 4.87 g/m*3 26 C 0 km/h
3090 05-09-2010 18:27:01 25.4 C 4.71 g/m*3 25.4 C 0 km/h
3091 05-09-2010 18:39:02 24.1 C 5.03 g/m*3 24.1 C 0 km/h
3092 05-09-2010 18:51:01 23 C 6.17 g/m*3 23 C 0 km/h
3093 05-09-2010 19:03:02 21.9 C 6.37 g/m*3 21.9 C 0 km/h
3094 05-09-2010 19:15:02 20.1 C 6.26 g/m*3 20.1 C 0 km/h
3095 05-09-2010 19:27:02 19.2 C 6.43 g/m*3 19.2 C 0 km/h
3096 05-09-2010 19:39:02 18.2 C 6.37 g/m*3 18.2 C 0 km/h
3097 05-09-2010 19:51:02 17.5 C 6.41 g/m*3 17.5 C 0 km/h
3098 05-09-2010 20:03:01 17 C 6.37 g/m*3 17 C 0 km/h
3099 05-09-2010 20:15:02 16.6 C 6.36 g/m*3 16.6 C 0 km/h
3100 05-09-2010 20:27:03 16.6 C 6.36 g/m*3 16.6 C 0 km/h
Sensor: Nr:Datum:Temp:Abs-Feuchte:Windchill:Wind:
Aussen-T/F 3101 05-09-2010 20:39:01 16.2 C 6.34 g/m*3 16.2 C 0 km/h
3102 05-09-2010 20:51:02 15.8 C 6.46 g/m*3 15.8 C 0 km/h
3103 05-09-2010 21:03:01 15.3 C 6.66 g/m*3 15.3 C 0 km/h
3104 05-09-2010 21:15:01 15.1 C 6.71 g/m*3 15.1 C 0 km/h
3105 05-09-2010 21:27:01 14.9 C 6.75 g/m*3 14.9 C 0 km/h
3106 05-09-2010 21:39:02 14.7 C 6.92 g/m*3 14.7 C 0 km/h
3107 05-09-2010 21:51:02 14.5 C 6.96 g/m*3 14.5 C 0 km/h
3108 05-09-2010 22:03:02 14.4 C 7.05 g/m*3 14.4 C 0 km/h
3109 05-09-2010 22:15:02 14.2 C 7.08 g/m*3 14.2 C 0 km/h
3110 05-09-2010 22:27:02 14 C 7.12 g/m*3 14 C 0 km/h
3111 05-09-2010 22:40:03 14 C 7.12 g/m*3 14 C 0 km/h
3112 05-09-2010 22:52:03 14 C 7.12 g/m*3 14 C 0 km/h
3113 05-09-2010 23:04:03 14 C 7 g/m*3 14 C 0 km/h
3114 05-09-2010 23:16:03 14.1 C 6.92 g/m*3 14.1 C 0 km/h
3115 05-09-2010 23:28:03 14.1 C 6.92 g/m*3 14.1 C 0 km/h
3116 05-09-2010 23:40:03 13.7 C 6.87 g/m*3 13.7 C 0 km/h
3117 05-09-2010 23:52:03 13.8 C 6.91 g/m*3 13.8 C 0 km/h
3118 06-09-2010 00:04:03 13.6 C 7.06 g/m*3 13.6 C 0 km/h
3119 06-09-2010 00:16:03 13.4 C 7.09 g/m*3 13.4 C 0 km/h
3120 06-09-2010 00:28:03 13.2 C 7.12 g/m*3 13.2 C 0 km/h
3121 06-09-2010 00:40:03 13.1 C 7.07 g/m*3 13.1 C 0 km/h
3122 06-09-2010 00:52:03 12.8 C 7.06 g/m*3 12.8 C 0 km/h
3123 06-09-2010 01:04:03 12.7 C 7.12 g/m*3 12.7 C 0 km/h
3124 06-09-2010 01:16:03 12.5 C 7.15 g/m*3 12.5 C 0 km/h
3125 06-09-2010 01:28:03 12.3 C 7.06 g/m*3 12.3 C 0 km/h
Sensor: Nr:Datum:Temp:Abs-Feuchte:Windchill:Wind:
Aussen-T/F 3126 06-09-2010 01:40:03 12.2 C 7.12 g/m*3 12.2 C 0 km/h
3127 06-09-2010 01:52:03 12.1 C 7.08 g/m*3 12.1 C 0 km/h
3128 06-09-2010 02:04:03 12 C 7.14 g/m*3 12 C 0 km/h
3129 06-09-2010 02:16:04 11.8 C 7.26 g/m*3 11.8 C 0 km/h
3130 06-09-2010 02:28:04 11.6 C 7.17 g/m*3 11.6 C 0 km/h
3131 06-09-2010 02:40:04 11.5 C 7.23 g/m*3 11.5 C 0 km/h
3132 06-09-2010 02:52:04 11.2 C 7.2 g/m*3 11.2 C 0 km/h
3133 06-09-2010 03:04:04 11.2 C 7.2 g/m*3 11.2 C 0 km/h
3134 06-09-2010 03:16:04 11.2 C 7.2 g/m*3 11.2 C 0 km/h
3135 06-09-2010 03:28:04 11.1 C 7.15 g/m*3 11.1 C 0 km/h
3136 06-09-2010 03:40:04 11 C 7.11 g/m*3 11 C 0 km/h
3137 06-09-2010 03:52:04 11 C 7.11 g/m*3 11 C 0 km/h
3138 06-09-2010 04:04:04 11 C 7.11 g/m*3 11 C 0 km/h
3139 06-09-2010 04:16:04 10.8 C 7.12 g/m*3 10.8 C 0 km/h
3140 06-09-2010 04:28:04 10.7 C 7.07 g/m*3 10.7 C 0 km/h
3141 06-09-2010 04:40:04 10.6 C 7.12 g/m*3 10.6 C 0 km/h
3142 06-09-2010 04:52:04 10.4 C 7.04 g/m*3 10.4 C 0 km/h
3143 06-09-2010 05:04:04 10.3 C 7.09 g/m*3 10.3 C 0 km/h
3144 06-09-2010 05:16:04 10.4 C 7.13 g/m*3 10.4 C 0 km/h
3145 06-09-2010 05:28:04 10.2 C 6.95 g/m*3 10.2 C 0 km/h
3146 06-09-2010 05:40:04 10.2 C 6.95 g/m*3 10.2 C 0 km/h
3147 06-09-2010 05:52:04 10.1 C 7 g/m*3 10.1 C 0 km/h
3148 06-09-2010 06:04:04 9.8 C 6.96 g/m*3 9.8 C 0 km/h
3149 06-09-2010 06:16:04 9.7 C 7.01 g/m*3 9.7 C 0 km/h
3150 06-09-2010 06:28:04 9.5 C 7.01 g/m*3 9.5 C 0 km/h
Sensor: Nr:Datum:Temp:Abs-Feuchte:Windchill:Wind:
Aussen-T/F 3151 06-09-2010 06:40:05 9.5 C 7.01 g/m*3 9.5 C 0 km/h
3152 06-09-2010 06:52:05 9.3 C 7.01 g/m*3 9.3 C 0 km/h
3153 06-09-2010 07:04:05 9.2 C 6.97 g/m*3 9.2 C 0 km/h
3154 06-09-2010 07:16:03 9.3 C 7.1 g/m*3 9.3 C 0 km/h
3155 06-09-2010 07:28:03 9.3 C 7.1 g/m*3 9.3 C 0 km/h
3156 06-09-2010 07:40:03 9.3 C 7.1 g/m*3 9.3 C 0 km/h
3157 06-09-2010 07:52:01 9.3 C 7.1 g/m*3 9.3 C 0 km/h
3158 06-09-2010 08:04:02 9.4 C 7.15 g/m*3 9.4 C 0 km/h
3159 06-09-2010 08:16:01 9.6 C 7.24 g/m*3 9.6 C 0 km/h
3160 06-09-2010 08:28:01 9.6 C 7.24 g/m*3 9.6 C 0 km/h
3161 06-09-2010 08:40:02 9.8 C 7.24 g/m*3 9.8 C 0 km/h
3162 06-09-2010 08:52:02 10 C 7.24 g/m*3 10 C 0 km/h
3163 06-09-2010 09:04:02 10.2 C 7.33 g/m*3 10.2 C 0 km/h
3164 06-09-2010 09:16:01 10.5 C 7.47 g/m*3 10.5 C 0 km/h
3165 06-09-2010 09:28:01 10.8 C 7.51 g/m*3 10.8 C 0 km/h
3166 06-09-2010 09:40:02 11.3 C 7.55 g/m*3 11.3 C 0 km/h
3167 06-09-2010 09:52:02 11.9 C 7.73 g/m*3 11.9 C 0 km/h
3168 06-09-2010 10:04:02 12.5 C 7.59 g/m*3 12.5 C 0 km/h
3169 06-09-2010 10:16:02 13.1 C 7.53 g/m*3 13.1 C 0 km/h
3170 06-09-2010 10:28:02 13.5 C 7.37 g/m*3 13.5 C 0 km/h
3171 06-09-2010 10:40:02 13.9 C 7.67 g/m*3 13.9 C 0 km/h
3172 06-09-2010 10:52:02 14.4 C 7.42 g/m*3 14.4 C 0 km/h
3173 06-09-2010 11:04:02 15.2 C 7.4 g/m*3 15.2 C 0 km/h
3174 06-09-2010 11:16:02 15.8 C 7.27 g/m*3 15.8 C 0 km/h
3175 06-09-2010 11:28:02 16.2 C 7.45 g/m*3 16.2 C 0 km/h
Sensor: Nr:Datum:Temp:Abs-Feuchte:Windchill:Wind:
Aussen-T/F 3176 06-09-2010 11:40:01 16.9 C 6.76 g/m*3 16.9 C 0 km/h
3177 06-09-2010 11:52:02 17.5 C 6.71 g/m*3 17.5 C 0 km/h
3178 06-09-2010 12:04:01 18.1 C 5.87 g/m*3 18.1 C 0 km/h
3179 06-09-2010 12:16:02 18.5 C 5.7 g/m*3 18.5 C 0 km/h
3180 06-09-2010 12:28:02 18.7 C 5.6 g/m*3 18.7 C 0 km/h
3181 06-09-2010 12:40:02 18.9 C 5.35 g/m*3 18.9 C 0 km/h
3182 06-09-2010 12:52:02 19 C 5.38 g/m*3 19 C 0 km/h
3183 06-09-2010 13:04:03 19.3 C 5.31 g/m*3 19.3 C 0 km/h
3184 06-09-2010 13:16:02 19.7 C 5.6 g/m*3 19.7 C 0 km/h
3185 06-09-2010 13:28:02 20.1 C 5.56 g/m*3 20.1 C 0 km/h
3186 06-09-2010 13:40:02 20.8 C 5.43 g/m*3 20.8 C 0 km/h
3187 06-09-2010 13:52:01 21.3 C 5.03 g/m*3 21.3 C 0 km/h
3188 06-09-2010 14:04:02 21.6 C 4.74 g/m*3 21.6 C 0 km/h
3189 06-09-2010 14:16:01 21.9 C 4.82 g/m*3 21.9 C 0 km/h
3190 06-09-2010 14:28:01 22.3 C 4.54 g/m*3 22.3 C 0 km/h
3191 06-09-2010 14:40:02 22.7 C 4.24 g/m*3 22.7 C 0 km/h
3192 06-09-2010 14:52:01 23.2 C 4.16 g/m*3 23.2 C 0 km/h
3193 06-09-2010 15:04:02 23.6 C 4.25 g/m*3 23.6 C 0 km/h
3194 06-09-2010 15:16:02 23.9 C 4.33 g/m*3 23.9 C 0 km/h
3195 06-09-2010 15:28:02 24.1 C 4.38 g/m*3 24.1 C 0 km/h
3196 06-09-2010 15:40:01 24.3 C 4.43 g/m*3 24.3 C 0 km/h
3197 06-09-2010 15:52:01 24.1 C 4.38 g/m*3 24.1 C 0 km/h
3198 06-09-2010 16:04:01 24 C 4.35 g/m*3 24 C 0 km/h
3199 06-09-2010 16:16:02 23.8 C 4.3 g/m*3 23.8 C 0 km/h
3200 06-09-2010 16:28:02 23.7 C 4.28 g/m*3 23.7 C 0 km/h
Sensor: Nr:Datum:Temp:Abs-Feuchte:Windchill:Wind:
Aussen-T/F 3201 06-09-2010 16:40:01 23.9 C 4.33 g/m*3 23.9 C 0 km/h
3202 06-09-2010 16:52:02 24 C 4.35 g/m*3 24 C 0 km/h
3203 06-09-2010 17:04:01 24.5 C 4.48 g/m*3 24.5 C 0 km/h
3204 06-09-2010 17:16:01 24.7 C 4.53 g/m*3 24.7 C 0 km/h
3205 06-09-2010 17:28:01 25.4 C 4.71 g/m*3 25.4 C 0 km/h
3206 06-09-2010 17:40:01 24.2 C 4.4 g/m*3 24.2 C 0 km/h
3207 06-09-2010 17:52:02 23.3 C 4.18 g/m*3 23.3 C 0 km/h
3208 06-09-2010 18:04:02 22.6 C 4.82 g/m*3 22.6 C 0 km/h
3209 06-09-2010 18:16:02 21.5 C 4.9 g/m*3 21.5 C 0 km/h
3210 06-09-2010 18:28:02 21.1 C 5.53 g/m*3 21.1 C 0 km/h
3211 06-09-2010 18:40:02 21.2 C 5.37 g/m*3 21.2 C 0 km/h
3212 06-09-2010 18:52:01 20.8 C 5.98 g/m*3 20.8 C 0 km/h
3213 06-09-2010 19:04:02 20 C 6.05 g/m*3 20 C 0 km/h
3214 06-09-2010 19:16:01 19.1 C 5.9 g/m*3 19.1 C 0 km/h
3215 06-09-2010 19:28:01 18.7 C 5.76 g/m*3 18.7 C 0 km/h
3216 06-09-2010 19:40:02 18.1 C 5.87 g/m*3 18.1 C 0 km/h
3217 06-09-2010 19:52:01 17.7 C 5.73 g/m*3 17.7 C 0 km/h
3218 06-09-2010 20:04:02 17.6 C 5.55 g/m*3 17.6 C 0 km/h
3219 06-09-2010 20:16:01 17.3 C 5.6 g/m*3 17.3 C 0 km/h
3220 06-09-2010 20:28:01 17.1 C 5.68 g/m*3 17.1 C 0 km/h
3221 06-09-2010 20:40:02 16.9 C 5.61 g/m*3 16.9 C 0 km/h
3222 06-09-2010 20:52:01 16.6 C 5.65 g/m*3 16.6 C 0 km/h
3223 06-09-2010 21:04:02 16.5 C 5.2 g/m*3 16.5 C 0 km/h
3224 06-09-2010 21:16:02